<?xml version='1.0' encoding='UTF-8'?><gpx version="1.1" creator="JPX - https://github.com/jenetics/jpx" xmlns="http://www.topografix.com/GPX/1/1"><trk><trkseg><trkpt lat="43.784027879256485" lon="7.6738485957360485"><ele>124.99999999999999</ele><time>2026-03-26T21:24:05.001Z</time></trkpt><trkpt lat="43.7840216637561" lon="7.673726315119067"><ele>125.0</ele><time>2026-03-26T21:24:08.001Z</time></trkpt><trkpt lat="43.784050331165986" lon="7.673625414521237"><ele>125.0</ele><time>2026-03-26T21:24:11.001Z</time></trkpt><trkpt lat="43.784053274857484" lon="7.673510887862008"><ele>125.0</ele><time>2026-03-26T21:24:14.001Z</time></trkpt><trkpt lat="43.784077177933135" lon="7.673402485675196"><ele>124.99999999999999</ele><time>2026-03-26T21:24:16.001Z</time></trkpt><trkpt lat="43.78414721287732" lon="7.673282708135399"><ele>125.0</ele><time>2026-03-26T21:24:18.001Z</time></trkpt><trkpt lat="43.78423920259427" lon="7.673169805258609"><ele>124.71428571428571</ele><time>2026-03-26T21:24:20.001Z</time></trkpt><trkpt lat="43.78428897215732" lon="7.673113719983604"><ele>124.42857142857144</ele><time>2026-03-26T21:24:21.001Z</time></trkpt><trkpt lat="43.78433888906381" lon="7.6730569818975844"><ele>124.14285714285715</ele><time>2026-03-26T21:24:22.001Z</time></trkpt><trkpt lat="43.78439036056909" lon="7.673001828247028"><ele>123.85714285714286</ele><time>2026-03-26T21:24:23.001Z</time></trkpt><trkpt lat="43.78444176926" lon="7.672942985561809"><ele>123.57142857142858</ele><time>2026-03-26T21:24:24.001Z</time></trkpt><trkpt lat="43.78449557694916" lon="7.67288904162196"><ele>123.2857142857143</ele><time>2026-03-26T21:24:25.001Z</time></trkpt><trkpt lat="43.784546925865016" lon="7.6728332229780465"><ele>123.00000000000001</ele><time>2026-03-26T21:24:26.001Z</time></trkpt><trkpt lat="43.78459676115856" lon="7.6727768592112575"><ele>125.0</ele><time>2026-03-26T21:24:27.001Z</time></trkpt><trkpt lat="43.784645147877086" lon="7.672716017150653"><ele>127.00000000000001</ele><time>2026-03-26T21:24:28.001Z</time></trkpt><trkpt lat="43.78473943628582" lon="7.672604276363219"><ele>129.0</ele><time>2026-03-26T21:24:30.001Z</time></trkpt><trkpt lat="43.78482742896083" lon="7.672497411723766"><ele>131.0</ele><time>2026-03-26T21:24:32.001Z</time></trkpt><trkpt lat="43.78490919770152" lon="7.672374490131619"><ele>133.0</ele><time>2026-03-26T21:24:34.001Z</time></trkpt><trkpt lat="43.78499268515414" lon="7.6722579695300634"><ele>133.0</ele><time>2026-03-26T21:24:36.001Z</time></trkpt><trkpt lat="43.785073293157105" lon="7.67214669650306"><ele>133.0</ele><time>2026-03-26T21:24:38.001Z</time></trkpt><trkpt lat="43.78512071765969" lon="7.672085251572949"><ele>133.0</ele><time>2026-03-26T21:24:39.001Z</time></trkpt><trkpt lat="43.785171064064855" lon="7.672014789626251"><ele>133.0</ele><time>2026-03-26T21:24:40.001Z</time></trkpt><trkpt lat="43.78521794221181" lon="7.671947195720931"><ele>133.0</ele><time>2026-03-26T21:24:41.001Z</time></trkpt><trkpt lat="43.785293681192236" lon="7.671815984893351"><ele>133.0</ele><time>2026-03-26T21:24:43.001Z</time></trkpt><trkpt lat="43.78533231359471" lon="7.671738862532148"><ele>133.6</ele><time>2026-03-26T21:24:44.001Z</time></trkpt><trkpt lat="43.785389647843566" lon="7.6716762270483505"><ele>134.20000000000002</ele><time>2026-03-26T21:24:45.001Z</time></trkpt><trkpt lat="43.785421259883776" lon="7.671594082859675"><ele>134.8</ele><time>2026-03-26T21:24:46.001Z</time></trkpt><trkpt lat="43.785528056013185" lon="7.671523698648007"><ele>135.4</ele><time>2026-03-26T21:24:48.001Z</time></trkpt><trkpt lat="43.78565505217052" lon="7.671559132549601"><ele>136.0</ele><time>2026-03-26T21:24:50.001Z</time></trkpt><trkpt lat="43.78569722040363" lon="7.671668094824171"><ele>136.0</ele><time>2026-03-26T21:24:51.001Z</time></trkpt><trkpt lat="43.78576090188724" lon="7.6717788604463495"><ele>136.0</ele><time>2026-03-26T21:24:52.001Z</time></trkpt><trkpt lat="43.7858288312538" lon="7.671890163091159"><ele>136.0</ele><time>2026-03-26T21:24:53.001Z</time></trkpt><trkpt lat="43.785893104500104" lon="7.672006596681039"><ele>136.0</ele><time>2026-03-26T21:24:54.001Z</time></trkpt><trkpt lat="43.78595318668965" lon="7.672107833392031"><ele>136.0</ele><time>2026-03-26T21:24:55.001Z</time></trkpt><trkpt lat="43.786009012575015" lon="7.672202075647537"><ele>136.0</ele><time>2026-03-26T21:24:56Z</time></trkpt><trkpt lat="43.78606872883295" lon="7.672291415545737"><ele>136.0</ele><time>2026-03-26T21:24:57Z</time></trkpt><trkpt lat="43.786144114378715" lon="7.672349361501158"><ele>136.0</ele><time>2026-03-26T21:24:58Z</time></trkpt><trkpt lat="43.786234000263626" lon="7.672374126208135"><ele>136.0</ele><time>2026-03-26T21:24:59Z</time></trkpt><trkpt lat="43.78632418464546" lon="7.672389062917873"><ele>136.0</ele><time>2026-03-26T21:25:00Z</time></trkpt><trkpt lat="43.78642744696802" lon="7.672396953251562"><ele>136.0</ele><time>2026-03-26T21:25:01Z</time></trkpt><trkpt lat="43.78651816253628" lon="7.672406131440636"><ele>136.0</ele><time>2026-03-26T21:25:02Z</time></trkpt><trkpt lat="43.786610137995794" lon="7.672415437100922"><ele>136.0</ele><time>2026-03-26T21:25:03Z</time></trkpt><trkpt lat="43.786707319971654" lon="7.672425269535499"><ele>136.0</ele><time>2026-03-26T21:25:04Z</time></trkpt><trkpt lat="43.78679825160142" lon="7.672431515083253"><ele>136.0</ele><time>2026-03-26T21:25:05Z</time></trkpt><trkpt lat="43.78688336175124" lon="7.672438587800302"><ele>136.99999999999997</ele><time>2026-03-26T21:25:06Z</time></trkpt><trkpt lat="43.78695876857828" lon="7.672444893092179"><ele>138.0</ele><time>2026-03-26T21:25:07Z</time></trkpt><trkpt lat="43.787024359667974" lon="7.672452020909534"><ele>139.0</ele><time>2026-03-26T21:25:08Z</time></trkpt><trkpt lat="43.78708735357583" lon="7.672436551036262"><ele>140.0</ele><time>2026-03-26T21:25:09Z</time></trkpt><trkpt lat="43.78715588664722" lon="7.672450259803537"><ele>141.0</ele><time>2026-03-26T21:25:10Z</time></trkpt><trkpt lat="43.787232956417846" lon="7.6724560901573415"><ele>141.99999999999997</ele><time>2026-03-26T21:25:11Z</time></trkpt><trkpt lat="43.7873132758391" lon="7.672463536026159"><ele>143.0</ele><time>2026-03-26T21:25:12Z</time></trkpt><trkpt lat="43.7873995217739" lon="7.672496918708094"><ele>143.0</ele><time>2026-03-26T21:25:13Z</time></trkpt><trkpt lat="43.78748948945707" lon="7.672503166776048"><ele>143.0</ele><time>2026-03-26T21:25:14Z</time></trkpt><trkpt lat="43.78758261890736" lon="7.672500047748762"><ele>143.0</ele><time>2026-03-26T21:25:15Z</time></trkpt><trkpt lat="43.787686885194475" lon="7.672480909850016"><ele>143.0</ele><time>2026-03-26T21:25:16Z</time></trkpt><trkpt lat="43.7877939346299" lon="7.672438125467147"><ele>143.0</ele><time>2026-03-26T21:25:17Z</time></trkpt><trkpt lat="43.78790225284874" lon="7.6723670935467725"><ele>143.4</ele><time>2026-03-26T21:25:18Z</time></trkpt><trkpt lat="43.78800632665895" lon="7.672302458215802"><ele>143.8</ele><time>2026-03-26T21:25:19Z</time></trkpt><trkpt lat="43.788106799648105" lon="7.67223939258902"><ele>144.2</ele><time>2026-03-26T21:25:20Z</time></trkpt><trkpt lat="43.78819408736422" lon="7.672187407353487"><ele>144.6</ele><time>2026-03-26T21:25:21Z</time></trkpt><trkpt lat="43.78828444929621" lon="7.672147507843658"><ele>145.0</ele><time>2026-03-26T21:25:22Z</time></trkpt><trkpt lat="43.788378057933265" lon="7.672141937948641"><ele>145.0</ele><time>2026-03-26T21:25:23Z</time></trkpt><trkpt lat="43.78847358752161" lon="7.672194897003761"><ele>145.0</ele><time>2026-03-26T21:25:24Z</time></trkpt><trkpt lat="43.78858105113467" lon="7.672233745238052"><ele>145.0</ele><time>2026-03-26T21:25:25Z</time></trkpt><trkpt lat="43.78868734774576" lon="7.672244377900046"><ele>145.0</ele><time>2026-03-26T21:25:26Z</time></trkpt><trkpt lat="43.788785223402854" lon="7.6722430156540184"><ele>145.0</ele><time>2026-03-26T21:25:27Z</time></trkpt><trkpt lat="43.78888075263192" lon="7.6722202188110105"><ele>143.4</ele><time>2026-03-26T21:25:28Z</time></trkpt><trkpt lat="43.78897466227173" lon="7.672173558767847"><ele>141.8</ele><time>2026-03-26T21:25:29Z</time></trkpt><trkpt lat="43.78907445711954" lon="7.672148577067888"><ele>140.2</ele><time>2026-03-26T21:25:30Z</time></trkpt><trkpt lat="43.789157232732016" lon="7.672069696067525"><ele>138.6</ele><time>2026-03-26T21:25:31Z</time></trkpt><trkpt lat="43.78923699204041" lon="7.671988534079372"><ele>137.0</ele><time>2026-03-26T21:25:32Z</time></trkpt><trkpt lat="43.7893192278775" lon="7.671914339814383"><ele>141.6</ele><time>2026-03-26T21:25:33Z</time></trkpt><trkpt lat="43.7893944040791" lon="7.671831549600547"><ele>146.2</ele><time>2026-03-26T21:25:34Z</time></trkpt><trkpt lat="43.789473089301325" lon="7.67176009766029"><ele>150.8</ele><time>2026-03-26T21:25:35Z</time></trkpt><trkpt lat="43.78956460180146" lon="7.671738125894679"><ele>155.4</ele><time>2026-03-26T21:25:36Z</time></trkpt><trkpt lat="43.78966530380601" lon="7.671752310410971"><ele>160.0</ele><time>2026-03-26T21:25:37Z</time></trkpt><trkpt lat="43.7897800964001" lon="7.6717562519281834"><ele>160.0</ele><time>2026-03-26T21:25:38Z</time></trkpt><trkpt lat="43.78989958131315" lon="7.671790571343292"><ele>160.0</ele><time>2026-03-26T21:25:39Z</time></trkpt><trkpt lat="43.79000443661288" lon="7.671821200575082"><ele>160.0</ele><time>2026-03-26T21:25:40Z</time></trkpt><trkpt lat="43.7901027334393" lon="7.671825143859872"><ele>160.0</ele><time>2026-03-26T21:25:41Z</time></trkpt><trkpt lat="43.79020043633582" lon="7.6717878376766775"><ele>160.0</ele><time>2026-03-26T21:25:42Z</time></trkpt><trkpt lat="43.7902944125386" lon="7.671721884585381"><ele>154.25</ele><time>2026-03-26T21:25:43Z</time></trkpt><trkpt lat="43.79037158682575" lon="7.671620121067316"><ele>148.5</ele><time>2026-03-26T21:25:44Z</time></trkpt><trkpt lat="43.79045667567056" lon="7.671508435726517"><ele>142.75</ele><time>2026-03-26T21:25:45Z</time></trkpt><trkpt lat="43.790547953677944" lon="7.67137565932657"><ele>137.0</ele><time>2026-03-26T21:25:46Z</time></trkpt><trkpt lat="43.79061580951404" lon="7.671245331097666"><ele>137.0</ele><time>2026-03-26T21:25:47Z</time></trkpt><trkpt lat="43.79069491448943" lon="7.671164555542596"><ele>137.0</ele><time>2026-03-26T21:25:48Z</time></trkpt><trkpt lat="43.79076241548805" lon="7.671073663765329"><ele>137.0</ele><time>2026-03-26T21:25:49Z</time></trkpt><trkpt lat="43.79083090895422" lon="7.670991201833142"><ele>137.0</ele><time>2026-03-26T21:25:50Z</time></trkpt><trkpt lat="43.79091246082802" lon="7.670932698355079"><ele>137.0</ele><time>2026-03-26T21:25:51Z</time></trkpt><trkpt lat="43.791010411303176" lon="7.670920554063573"><ele>143.0</ele><time>2026-03-26T21:25:52Z</time></trkpt><trkpt lat="43.79113112776225" lon="7.670914383648651"><ele>149.0</ele><time>2026-03-26T21:25:53Z</time></trkpt><trkpt lat="43.79126605356051" lon="7.67089008505266"><ele>155.0</ele><time>2026-03-26T21:25:54Z</time></trkpt><trkpt lat="43.791393783750706" lon="7.670886667306599"><ele>161.0</ele><time>2026-03-26T21:25:55Z</time></trkpt><trkpt lat="43.79150976329409" lon="7.670858766919414"><ele>161.0</ele><time>2026-03-26T21:25:56Z</time></trkpt><trkpt lat="43.79161308665161" lon="7.670820550603501"><ele>161.0</ele><time>2026-03-26T21:25:57Z</time></trkpt><trkpt lat="43.791714947227675" lon="7.670790493960684"><ele>161.0</ele><time>2026-03-26T21:25:58Z</time></trkpt><trkpt lat="43.79180686281253" lon="7.670765841874797"><ele>161.0</ele><time>2026-03-26T21:25:59Z</time></trkpt><trkpt lat="43.791899330450406" lon="7.670736828372863"><ele>161.0</ele><time>2026-03-26T21:26:00Z</time></trkpt><trkpt lat="43.791990675372396" lon="7.6706854345239375"><ele>158.60000000000002</ele><time>2026-03-26T21:26:01Z</time></trkpt><trkpt lat="43.79207810734061" lon="7.670603722807897"><ele>156.20000000000002</ele><time>2026-03-26T21:26:02Z</time></trkpt><trkpt lat="43.79216704446527" lon="7.670514042811379"><ele>153.8</ele><time>2026-03-26T21:26:03Z</time></trkpt><trkpt lat="43.79224854777222" lon="7.670423237180035"><ele>151.4</ele><time>2026-03-26T21:26:04Z</time></trkpt><trkpt lat="43.79232506646293" lon="7.670343069905727"><ele>149.0</ele><time>2026-03-26T21:26:05Z</time></trkpt><trkpt lat="43.79241039389677" lon="7.670277252893305"><ele>151.2</ele><time>2026-03-26T21:26:06Z</time></trkpt><trkpt lat="43.79250734582261" lon="7.6702287649386225"><ele>153.4</ele><time>2026-03-26T21:26:07Z</time></trkpt><trkpt lat="43.79261283134472" lon="7.670198253689579"><ele>155.6</ele><time>2026-03-26T21:26:08Z</time></trkpt><trkpt lat="43.79272798463184" lon="7.6701743244001905"><ele>157.8</ele><time>2026-03-26T21:26:09Z</time></trkpt><trkpt lat="43.79284471015255" lon="7.670137371639023"><ele>160.0</ele><time>2026-03-26T21:26:10Z</time></trkpt><trkpt lat="43.79295187528811" lon="7.67010379417206"><ele>160.0</ele><time>2026-03-26T21:26:11Z</time></trkpt><trkpt lat="43.79305360849016" lon="7.670082567570385"><ele>160.0</ele><time>2026-03-26T21:26:12Z</time></trkpt><trkpt lat="43.79314794152714" lon="7.670061708110279"><ele>160.0</ele><time>2026-03-26T21:26:13Z</time></trkpt><trkpt lat="43.79324803529885" lon="7.6701180780564115"><ele>160.0</ele><time>2026-03-26T21:26:14Z</time></trkpt><trkpt lat="43.79335875999573" lon="7.67007430479981"><ele>160.0</ele><time>2026-03-26T21:26:15Z</time></trkpt><trkpt lat="43.793454943907136" lon="7.669973139664106"><ele>160.0</ele><time>2026-03-26T21:26:16Z</time></trkpt><trkpt lat="43.79345621963546" lon="7.669745986518464"><ele>160.0</ele><time>2026-03-26T21:26:17Z</time></trkpt><trkpt lat="43.79351258249825" lon="7.6696122221234395"><ele>160.0</ele><time>2026-03-26T21:26:18Z</time></trkpt><trkpt lat="43.79356971241836" lon="7.669480660197642"><ele>160.0</ele><time>2026-03-26T21:26:19Z</time></trkpt><trkpt lat="43.79364465283769" lon="7.669369997538048"><ele>161.5</ele><time>2026-03-26T21:26:20Z</time></trkpt><trkpt lat="43.793732320599126" lon="7.6692933213928836"><ele>163.0</ele><time>2026-03-26T21:26:21Z</time></trkpt><trkpt lat="43.79384162626207" lon="7.669240087287986"><ele>164.5</ele><time>2026-03-26T21:26:22Z</time></trkpt><trkpt lat="43.79395993155558" lon="7.669212377533333"><ele>166.0</ele><time>2026-03-26T21:26:23Z</time></trkpt><trkpt lat="43.79408409406628" lon="7.669205635480907"><ele>166.0</ele><time>2026-03-26T21:26:24Z</time></trkpt><trkpt lat="43.794192542339" lon="7.669181964895737"><ele>166.0</ele><time>2026-03-26T21:26:25Z</time></trkpt><trkpt lat="43.79429276496978" lon="7.669149381048333"><ele>166.0</ele><time>2026-03-26T21:26:26Z</time></trkpt><trkpt lat="43.79439179805191" lon="7.6691244477956095"><ele>166.0</ele><time>2026-03-26T21:26:27Z</time></trkpt><trkpt lat="43.7944859844049" lon="7.669117910333665"><ele>166.0</ele><time>2026-03-26T21:26:28Z</time></trkpt><trkpt lat="43.794581653931225" lon="7.669151095525707"><ele>167.4</ele><time>2026-03-26T21:26:29Z</time></trkpt><trkpt lat="43.79467087723892" lon="7.669226299842608"><ele>168.8</ele><time>2026-03-26T21:26:30Z</time></trkpt><trkpt lat="43.79474750562329" lon="7.669328506737076"><ele>170.20000000000002</ele><time>2026-03-26T21:26:31Z</time></trkpt><trkpt lat="43.79482665234029" lon="7.669424698186929"><ele>171.60000000000002</ele><time>2026-03-26T21:26:32Z</time></trkpt><trkpt lat="43.794913042152274" lon="7.669474063184764"><ele>173.0</ele><time>2026-03-26T21:26:33Z</time></trkpt><trkpt lat="43.79500415097276" lon="7.669496982526338"><ele>173.0</ele><time>2026-03-26T21:26:34Z</time></trkpt><trkpt lat="43.7950914954276" lon="7.669470267702973"><ele>173.0</ele><time>2026-03-26T21:26:35Z</time></trkpt><trkpt lat="43.79518964361021" lon="7.669442063882037"><ele>173.0</ele><time>2026-03-26T21:26:36Z</time></trkpt><trkpt lat="43.79527302965498" lon="7.66936340015853"><ele>173.0</ele><time>2026-03-26T21:26:37Z</time></trkpt><trkpt lat="43.795364610887894" lon="7.669303103164814"><ele>173.0</ele><time>2026-03-26T21:26:38Z</time></trkpt><trkpt lat="43.795460930738166" lon="7.669258537649164"><ele>173.0</ele><time>2026-03-26T21:26:39Z</time></trkpt><trkpt lat="43.79556505261893" lon="7.669243610387285"><ele>173.0</ele><time>2026-03-26T21:26:40Z</time></trkpt><trkpt lat="43.79567896340496" lon="7.669265010950057"><ele>173.0</ele><time>2026-03-26T21:26:41Z</time></trkpt><trkpt lat="43.7957944746653" lon="7.669301384346349"><ele>173.0</ele><time>2026-03-26T21:26:42Z</time></trkpt><trkpt lat="43.79591146406137" lon="7.669329610526724"><ele>170.75</ele><time>2026-03-26T21:26:43Z</time></trkpt><trkpt lat="43.79603103171015" lon="7.6693253837149005"><ele>168.5</ele><time>2026-03-26T21:26:44Z</time></trkpt><trkpt lat="43.796154865901606" lon="7.669294002741367"><ele>166.25</ele><time>2026-03-26T21:26:45Z</time></trkpt><trkpt lat="43.79629211279756" lon="7.669247660360124"><ele>164.0</ele><time>2026-03-26T21:26:46Z</time></trkpt><trkpt lat="43.7964357145404" lon="7.6692046285738735"><ele>164.0</ele><time>2026-03-26T21:26:47Z</time></trkpt><trkpt lat="43.79655987326409" lon="7.669159522881082"><ele>164.0</ele><time>2026-03-26T21:26:48Z</time></trkpt><trkpt lat="43.79667879473477" lon="7.669147368410522"><ele>164.0</ele><time>2026-03-26T21:26:49Z</time></trkpt><trkpt lat="43.79679436602092" lon="7.6691054286634674"><ele>164.0</ele><time>2026-03-26T21:26:50Z</time></trkpt><trkpt lat="43.79690176127708" lon="7.669041318226424"><ele>162.39999999999998</ele><time>2026-03-26T21:26:51Z</time></trkpt><trkpt lat="43.79700476812642" lon="7.668975258728999"><ele>160.79999999999998</ele><time>2026-03-26T21:26:52Z</time></trkpt><trkpt lat="43.797105868460925" lon="7.668942588795026"><ele>159.2</ele><time>2026-03-26T21:26:53Z</time></trkpt><trkpt lat="43.797188653609666" lon="7.668877409258557"><ele>157.6</ele><time>2026-03-26T21:26:54Z</time></trkpt><trkpt lat="43.79727069956472" lon="7.668842730436926"><ele>156.0</ele><time>2026-03-26T21:26:55Z</time></trkpt><trkpt lat="43.79733235920911" lon="7.668804701160511"><ele>156.0</ele><time>2026-03-26T21:26:56Z</time></trkpt><trkpt lat="43.79743429670846" lon="7.668759401701287"><ele>156.0</ele><time>2026-03-26T21:26:58Z</time></trkpt><trkpt lat="43.79747904527662" lon="7.66869660354919"><ele>156.0</ele><time>2026-03-26T21:27:01Z</time></trkpt><trkpt lat="43.79722846441116" lon="7.66862712857419"><ele>156.0</ele><time>2026-03-26T21:27:12Z</time></trkpt><trkpt lat="43.79712766990359" lon="7.668607038210246"><ele>156.2</ele><time>2026-03-26T21:27:13Z</time></trkpt><trkpt lat="43.79701720280671" lon="7.668564449188373"><ele>156.39999999999998</ele><time>2026-03-26T21:27:14Z</time></trkpt><trkpt lat="43.796919004193526" lon="7.668511431641034"><ele>156.6</ele><time>2026-03-26T21:27:15Z</time></trkpt><trkpt lat="43.79682797207013" lon="7.66844775003775"><ele>156.79999999999998</ele><time>2026-03-26T21:27:16Z</time></trkpt><trkpt lat="43.79674278084218" lon="7.66837965395123"><ele>157.0</ele><time>2026-03-26T21:27:17Z</time></trkpt><trkpt lat="43.79666326886347" lon="7.66831434632177"><ele>156.5</ele><time>2026-03-26T21:27:18Z</time></trkpt><trkpt lat="43.79659722702204" lon="7.668235609881227"><ele>156.0</ele><time>2026-03-26T21:27:19Z</time></trkpt><trkpt lat="43.79655180129336" lon="7.668143815228886"><ele>155.5</ele><time>2026-03-26T21:27:20Z</time></trkpt><trkpt lat="43.796522387123225" lon="7.6680400534862265"><ele>155.0</ele><time>2026-03-26T21:27:21Z</time></trkpt><trkpt lat="43.79651236841053" lon="7.6679305994257465"><ele>154.5</ele><time>2026-03-26T21:27:22Z</time></trkpt><trkpt lat="43.79651880803822" lon="7.667824083337639"><ele>154.0</ele><time>2026-03-26T21:27:23Z</time></trkpt><trkpt lat="43.79656258568398" lon="7.667673068838255"><ele>154.0</ele><time>2026-03-26T21:27:25Z</time></trkpt><trkpt lat="43.79659833175875" lon="7.667531120841494"><ele>154.0</ele><time>2026-03-26T21:27:27Z</time></trkpt><trkpt lat="43.79672080051411" lon="7.667520827733476"><ele>154.0</ele><time>2026-03-26T21:27:30Z</time></trkpt><trkpt lat="43.79677738866195" lon="7.667623846781127"><ele>154.0</ele><time>2026-03-26T21:27:31Z</time></trkpt><trkpt lat="43.79683731036686" lon="7.667700774403528"><ele>154.0</ele><time>2026-03-26T21:27:32Z</time></trkpt><trkpt lat="43.79690873606166" lon="7.667766102138879"><ele>154.5</ele><time>2026-03-26T21:27:33Z</time></trkpt><trkpt lat="43.79698461738795" lon="7.667810414247453"><ele>155.0</ele><time>2026-03-26T21:27:34Z</time></trkpt><trkpt lat="43.79706194498917" lon="7.667833795379628"><ele>155.5</ele><time>2026-03-26T21:27:35Z</time></trkpt><trkpt lat="43.79714284770116" lon="7.667867260382463"><ele>156.0</ele><time>2026-03-26T21:27:36Z</time></trkpt><trkpt lat="43.7972226918275" lon="7.6678751589135565"><ele>156.5</ele><time>2026-03-26T21:27:37Z</time></trkpt><trkpt lat="43.79730427762844" lon="7.6678574709757"><ele>157.0</ele><time>2026-03-26T21:27:38Z</time></trkpt><trkpt lat="43.79738501728209" lon="7.66779439707373"><ele>155.66666666666669</ele><time>2026-03-26T21:27:39Z</time></trkpt><trkpt lat="43.797462939015965" lon="7.667729778075778"><ele>154.33333333333334</ele><time>2026-03-26T21:27:40Z</time></trkpt><trkpt lat="43.79753370324725" lon="7.667668696599764"><ele>153.0</ele><time>2026-03-26T21:27:41Z</time></trkpt><trkpt lat="43.797604693943676" lon="7.667607858917061"><ele>151.66666666666666</ele><time>2026-03-26T21:27:42Z</time></trkpt><trkpt lat="43.79768102440493" lon="7.667539017113587"><ele>150.33333333333331</ele><time>2026-03-26T21:27:43Z</time></trkpt><trkpt lat="43.79775780071488" lon="7.667475400841833"><ele>149.0</ele><time>2026-03-26T21:27:44Z</time></trkpt><trkpt lat="43.79782794857885" lon="7.667438641793543"><ele>149.0</ele><time>2026-03-26T21:27:45Z</time></trkpt><trkpt lat="43.7978781102217" lon="7.667363921595025"><ele>149.0</ele><time>2026-03-26T21:27:46Z</time></trkpt><trkpt lat="43.79794872287329" lon="7.667354652786942"><ele>149.0</ele><time>2026-03-26T21:27:47Z</time></trkpt><trkpt lat="43.79804440168049" lon="7.667306588461243"><ele>149.0</ele><time>2026-03-26T21:27:49Z</time></trkpt><trkpt lat="43.79809314270348" lon="7.667234826032721"><ele>149.0</ele><time>2026-03-26T21:27:51Z</time></trkpt><trkpt lat="43.798042223825746" lon="7.66714041154327"><ele>149.0</ele><time>2026-03-26T21:27:53Z</time></trkpt><trkpt lat="43.797981847064776" lon="7.6670988720937565"><ele>149.0</ele><time>2026-03-26T21:27:54Z</time></trkpt><trkpt lat="43.79789719747912" lon="7.667162802368971"><ele>149.0</ele><time>2026-03-26T21:27:55Z</time></trkpt><trkpt lat="43.79780841480764" lon="7.667184328372099"><ele>149.0</ele><time>2026-03-26T21:27:56Z</time></trkpt><trkpt lat="43.797703502246854" lon="7.667173746049177"><ele>149.0</ele><time>2026-03-26T21:27:57Z</time></trkpt><trkpt lat="43.7975900685321" lon="7.667127452486996"><ele>149.0</ele><time>2026-03-26T21:27:58Z</time></trkpt><trkpt lat="43.79748263548534" lon="7.667059950194874"><ele>148.2</ele><time>2026-03-26T21:27:59Z</time></trkpt><trkpt lat="43.79739703747263" lon="7.666952107843836"><ele>147.4</ele><time>2026-03-26T21:28:00Z</time></trkpt><trkpt lat="43.79730308622009" lon="7.666867130932217"><ele>146.6</ele><time>2026-03-26T21:28:01Z</time></trkpt><trkpt lat="43.79721228461592" lon="7.666775905940726"><ele>145.8</ele><time>2026-03-26T21:28:02Z</time></trkpt><trkpt lat="43.79712382285432" lon="7.666687151161592"><ele>145.0</ele><time>2026-03-26T21:28:03Z</time></trkpt><trkpt lat="43.79707052442249" lon="7.6665932076239764"><ele>141.8</ele><time>2026-03-26T21:28:04Z</time></trkpt><trkpt lat="43.79700520483239" lon="7.6665317712709955"><ele>138.6</ele><time>2026-03-26T21:28:05Z</time></trkpt><trkpt lat="43.79696735013076" lon="7.666456113121312"><ele>135.4</ele><time>2026-03-26T21:28:06Z</time></trkpt><trkpt lat="43.79693336129356" lon="7.666321298488745"><ele>132.2</ele><time>2026-03-26T21:28:08Z</time></trkpt><trkpt lat="43.79695055404116" lon="7.666172048950125"><ele>129.0</ele><time>2026-03-26T21:28:10Z</time></trkpt><trkpt lat="43.79693789750535" lon="7.666034076971432"><ele>128.83333333333334</ele><time>2026-03-26T21:28:12Z</time></trkpt><trkpt lat="43.79692016786135" lon="7.665938141804883"><ele>128.66666666666666</ele><time>2026-03-26T21:28:14Z</time></trkpt><trkpt lat="43.7968932404148" lon="7.665852548095904"><ele>128.5</ele><time>2026-03-26T21:28:17Z</time></trkpt><trkpt lat="43.7968176508238" lon="7.665758359162994"><ele>128.33333333333331</ele><time>2026-03-26T21:29:35Z</time></trkpt><trkpt lat="43.79674269535682" lon="7.6657058115768155"><ele>128.16666666666666</ele><time>2026-03-26T21:29:36Z</time></trkpt><trkpt lat="43.79665853227663" lon="7.665645949498176"><ele>128.0</ele><time>2026-03-26T21:29:37Z</time></trkpt><trkpt lat="43.79657001910079" lon="7.665572080809052"><ele>127.99999999999999</ele><time>2026-03-26T21:29:38Z</time></trkpt><trkpt lat="43.796494677611626" lon="7.665498723791247"><ele>128.0</ele><time>2026-03-26T21:29:39Z</time></trkpt><trkpt lat="43.796401837128556" lon="7.665473507391107"><ele>128.0</ele><time>2026-03-26T21:29:40Z</time></trkpt><trkpt lat="43.79631418718906" lon="7.665454664424915"><ele>128.0</ele><time>2026-03-26T21:29:41Z</time></trkpt><trkpt lat="43.79623254366774" lon="7.665416528483875"><ele>127.99999999999999</ele><time>2026-03-26T21:29:42Z</time></trkpt><trkpt lat="43.79615222946051" lon="7.6653674892000705"><ele>128.0</ele><time>2026-03-26T21:29:43Z</time></trkpt><trkpt lat="43.79608365889417" lon="7.665320887025032"><ele>126.71428571428571</ele><time>2026-03-26T21:29:44Z</time></trkpt><trkpt lat="43.796017188551794" lon="7.665274899118567"><ele>125.42857142857142</ele><time>2026-03-26T21:29:45Z</time></trkpt><trkpt lat="43.79596098960366" lon="7.665211045402392"><ele>124.14285714285714</ele><time>2026-03-26T21:29:46Z</time></trkpt><trkpt lat="43.795910595605456" lon="7.665132092147344"><ele>122.85714285714286</ele><time>2026-03-26T21:29:47Z</time></trkpt><trkpt lat="43.795865149658084" lon="7.665049015555495"><ele>121.57142857142857</ele><time>2026-03-26T21:29:48Z</time></trkpt><trkpt lat="43.795801789197675" lon="7.664986732733715"><ele>120.28571428571428</ele><time>2026-03-26T21:29:49Z</time></trkpt><trkpt lat="43.79574851606945" lon="7.6649195488996185"><ele>119.0</ele><time>2026-03-26T21:29:50Z</time></trkpt><trkpt lat="43.79566555294943" lon="7.66484710764501"><ele>119.0</ele><time>2026-03-26T21:29:52Z</time></trkpt><trkpt lat="43.79562888041425" lon="7.664773129579783"><ele>119.0</ele><time>2026-03-26T21:29:54Z</time></trkpt><trkpt lat="43.795695387823045" lon="7.66465675615621"><ele>119.0</ele><time>2026-03-26T21:29:56Z</time></trkpt><trkpt lat="43.79582059519803" lon="7.664600608201013"><ele>119.0</ele><time>2026-03-26T21:29:58Z</time></trkpt><trkpt lat="43.79590358139685" lon="7.664636174491247"><ele>119.0</ele><time>2026-03-26T21:29:59Z</time></trkpt><trkpt lat="43.79600509261633" lon="7.664669937628564"><ele>116.25</ele><time>2026-03-26T21:30:00Z</time></trkpt><trkpt lat="43.79612648999722" lon="7.664696927511997"><ele>113.5</ele><time>2026-03-26T21:30:01Z</time></trkpt><trkpt lat="43.79625190919343" lon="7.664721915663625"><ele>110.75</ele><time>2026-03-26T21:30:02Z</time></trkpt><trkpt lat="43.79635367638572" lon="7.664750618589437"><ele>108.0</ele><time>2026-03-26T21:30:03Z</time></trkpt><trkpt lat="43.79650267503008" lon="7.664784954612265"><ele>108.0</ele><time>2026-03-26T21:30:04Z</time></trkpt><trkpt lat="43.79661837641073" lon="7.6647648939776944"><ele>108.00000000000001</ele><time>2026-03-26T21:30:06Z</time></trkpt><trkpt lat="43.79671386164245" lon="7.664730156655099"><ele>108.00000000000001</ele><time>2026-03-26T21:30:07Z</time></trkpt><trkpt lat="43.79681872022208" lon="7.664691225746516"><ele>108.0</ele><time>2026-03-26T21:30:08Z</time></trkpt><trkpt lat="43.79690690745661" lon="7.66466557724959"><ele>108.0</ele><time>2026-03-26T21:30:09Z</time></trkpt><trkpt lat="43.796986235411296" lon="7.664650689443654"><ele>107.42857142857143</ele><time>2026-03-26T21:30:10Z</time></trkpt><trkpt lat="43.797063212992455" lon="7.664637746966537"><ele>106.85714285714286</ele><time>2026-03-26T21:30:11Z</time></trkpt><trkpt lat="43.79713175895072" lon="7.664622221214168"><ele>106.28571428571428</ele><time>2026-03-26T21:30:12Z</time></trkpt><trkpt lat="43.797193042021114" lon="7.664588469921687"><ele>105.71428571428572</ele><time>2026-03-26T21:30:13Z</time></trkpt><trkpt lat="43.797245774554646" lon="7.66452347593159"><ele>105.14285714285715</ele><time>2026-03-26T21:30:14Z</time></trkpt><trkpt lat="43.797269978150844" lon="7.664441297560079"><ele>104.57142857142857</ele><time>2026-03-26T21:30:15Z</time></trkpt><trkpt lat="43.79727249750393" lon="7.664353271897852"><ele>104.0</ele><time>2026-03-26T21:30:16Z</time></trkpt><trkpt lat="43.797267027845535" lon="7.664217300836938"><ele>101.33333333333333</ele><time>2026-03-26T21:30:18Z</time></trkpt><trkpt lat="43.797254777878" lon="7.664069832593863"><ele>98.66666666666666</ele><time>2026-03-26T21:30:21Z</time></trkpt><trkpt lat="43.797274269365765" lon="7.663971778151936"><ele>96.0</ele><time>2026-03-26T21:30:22Z</time></trkpt><trkpt lat="43.797275856251545" lon="7.6638604647104005"><ele>93.33333333333333</ele><time>2026-03-26T21:30:23Z</time></trkpt><trkpt lat="43.7972773047835" lon="7.663758856754485"><ele>90.66666666666666</ele><time>2026-03-26T21:30:24Z</time></trkpt><trkpt lat="43.79727661202574" lon="7.663661809791913"><ele>88.0</ele><time>2026-03-26T21:30:25Z</time></trkpt><trkpt lat="43.79727523561694" lon="7.66356586864313"><ele>84.60000000000001</ele><time>2026-03-26T21:30:26Z</time></trkpt><trkpt lat="43.79728427798938" lon="7.663411975542808"><ele>81.2</ele><time>2026-03-26T21:30:28Z</time></trkpt><trkpt lat="43.79737587242051" lon="7.663304429592725"><ele>77.8</ele><time>2026-03-26T21:30:30Z</time></trkpt><trkpt lat="43.797463957823254" lon="7.663324710433947"><ele>74.4</ele><time>2026-03-26T21:30:31Z</time></trkpt><trkpt lat="43.797546957473806" lon="7.663273959090252"><ele>71.0</ele><time>2026-03-26T21:30:32Z</time></trkpt><trkpt lat="43.79762401983587" lon="7.663190963939872"><ele>69.66666666666667</ele><time>2026-03-26T21:30:33Z</time></trkpt><trkpt lat="43.7976891920133" lon="7.6630874557805"><ele>68.33333333333334</ele><time>2026-03-26T21:30:34Z</time></trkpt><trkpt lat="43.797761695179645" lon="7.663019031668285"><ele>67.0</ele><time>2026-03-26T21:30:35Z</time></trkpt><trkpt lat="43.79781776780301" lon="7.662927797543987"><ele>65.66666666666667</ele><time>2026-03-26T21:30:36Z</time></trkpt><trkpt lat="43.797888688643646" lon="7.662853494681144"><ele>64.33333333333333</ele><time>2026-03-26T21:30:37Z</time></trkpt><trkpt lat="43.79794942992552" lon="7.662785586339889"><ele>63.0</ele><time>2026-03-26T21:30:38Z</time></trkpt><trkpt lat="43.79801218762318" lon="7.662644225551834"><ele>59.8</ele><time>2026-03-26T21:30:40Z</time></trkpt><trkpt lat="43.79800231305596" lon="7.662490662774047"><ele>56.599999999999994</ele><time>2026-03-26T21:30:42Z</time></trkpt><trkpt lat="43.79805883526632" lon="7.662397042630294"><ele>53.400000000000006</ele><time>2026-03-26T21:30:45Z</time></trkpt><trkpt lat="43.798118216393846" lon="7.662433399424848"><ele>50.2</ele><time>2026-03-26T21:30:46Z</time></trkpt><trkpt lat="43.79817632747142" lon="7.662498546523933"><ele>47.0</ele><time>2026-03-26T21:30:47Z</time></trkpt><trkpt lat="43.798281993769606" lon="7.662562458781935"><ele>47.0</ele><time>2026-03-26T21:30:49Z</time></trkpt><trkpt lat="43.79834565761272" lon="7.662469933644105"><ele>47.0</ele><time>2026-03-26T21:30:50Z</time></trkpt><trkpt lat="43.79840149349815" lon="7.662367164225492"><ele>47.0</ele><time>2026-03-26T21:30:51Z</time></trkpt><trkpt lat="43.79845460887378" lon="7.6622630953781545"><ele>47.0</ele><time>2026-03-26T21:30:52Z</time></trkpt><trkpt lat="43.798505706461754" lon="7.662182164009399"><ele>47.0</ele><time>2026-03-26T21:30:53Z</time></trkpt><trkpt lat="43.79855789003153" lon="7.662096853698152"><ele>47.0</ele><time>2026-03-26T21:30:55Z</time></trkpt><trkpt lat="43.79849911639253" lon="7.661927198179425"><ele>46.400000000000006</ele><time>2026-03-26T21:30:59Z</time></trkpt><trkpt lat="43.79844723410025" lon="7.661837947657414"><ele>45.800000000000004</ele><time>2026-03-26T21:31:00Z</time></trkpt><trkpt lat="43.798374011921474" lon="7.661752431703396"><ele>45.2</ele><time>2026-03-26T21:31:01Z</time></trkpt><trkpt lat="43.79827293631443" lon="7.661658660067289"><ele>44.6</ele><time>2026-03-26T21:31:02Z</time></trkpt><trkpt lat="43.79815904159323" lon="7.661570424171652"><ele>44.0</ele><time>2026-03-26T21:31:03Z</time></trkpt><trkpt lat="43.79804388408757" lon="7.661493693331935"><ele>44.0</ele><time>2026-03-26T21:31:04Z</time></trkpt><trkpt lat="43.79793098313245" lon="7.661451617722423"><ele>44.0</ele><time>2026-03-26T21:31:05Z</time></trkpt><trkpt lat="43.797839072739954" lon="7.66137618402143"><ele>44.0</ele><time>2026-03-26T21:31:06Z</time></trkpt><trkpt lat="43.79774555129605" lon="7.6613211591947525"><ele>44.0</ele><time>2026-03-26T21:31:07Z</time></trkpt><trkpt lat="43.79765379565393" lon="7.661267242176238"><ele>44.0</ele><time>2026-03-26T21:31:08Z</time></trkpt><trkpt lat="43.797566715080734" lon="7.661214912280664"><ele>43.666666666666664</ele><time>2026-03-26T21:31:09Z</time></trkpt><trkpt lat="43.797485572968846" lon="7.661161202551624"><ele>43.33333333333333</ele><time>2026-03-26T21:31:10Z</time></trkpt><trkpt lat="43.79740441340462" lon="7.661105294518339"><ele>43.0</ele><time>2026-03-26T21:31:11Z</time></trkpt><trkpt lat="43.797326796908486" lon="7.661054158157457"><ele>42.666666666666664</ele><time>2026-03-26T21:31:12Z</time></trkpt><trkpt lat="43.79724847193803" lon="7.661024617549321"><ele>42.333333333333336</ele><time>2026-03-26T21:31:13Z</time></trkpt><trkpt lat="43.79718612388586" lon="7.660956114058362"><ele>42.0</ele><time>2026-03-26T21:31:14Z</time></trkpt><trkpt lat="43.79710972926745" lon="7.660921268583564"><ele>42.0</ele><time>2026-03-26T21:31:15Z</time></trkpt><trkpt lat="43.79704202547748" lon="7.660877712651262"><ele>42.0</ele><time>2026-03-26T21:31:16Z</time></trkpt><trkpt lat="43.79697323988339" lon="7.6608344393355035"><ele>42.0</ele><time>2026-03-26T21:31:17Z</time></trkpt><trkpt lat="43.79690457710955" lon="7.6607810191175485"><ele>42.0</ele><time>2026-03-26T21:31:18Z</time></trkpt><trkpt lat="43.79682189373884" lon="7.660714826576672"><ele>42.0</ele><time>2026-03-26T21:31:19Z</time></trkpt><trkpt lat="43.79672115833804" lon="7.660632269849664"><ele>42.0</ele><time>2026-03-26T21:31:20Z</time></trkpt><trkpt lat="43.79660711051711" lon="7.660548849538784"><ele>42.75</ele><time>2026-03-26T21:31:21Z</time></trkpt><trkpt lat="43.796488890016406" lon="7.660465929464611"><ele>43.5</ele><time>2026-03-26T21:31:22Z</time></trkpt><trkpt lat="43.79637976666523" lon="7.66039722361016"><ele>44.25</ele><time>2026-03-26T21:31:23Z</time></trkpt><trkpt lat="43.796273962156924" lon="7.660338878654734"><ele>45.0</ele><time>2026-03-26T21:31:24Z</time></trkpt><trkpt lat="43.79616866727881" lon="7.6602762896859"><ele>45.0</ele><time>2026-03-26T21:31:25Z</time></trkpt><trkpt lat="43.79606654772377" lon="7.660200663009485"><ele>45.0</ele><time>2026-03-26T21:31:26Z</time></trkpt><trkpt lat="43.79595957948687" lon="7.660171237439681"><ele>45.0</ele><time>2026-03-26T21:31:27Z</time></trkpt><trkpt lat="43.795855102462106" lon="7.660127564446906"><ele>45.0</ele><time>2026-03-26T21:31:28Z</time></trkpt><trkpt lat="43.79574513169771" lon="7.660095708754154"><ele>45.0</ele><time>2026-03-26T21:31:29Z</time></trkpt><trkpt lat="43.79562936141825" lon="7.6600653570538935"><ele>43.5</ele><time>2026-03-26T21:31:30Z</time></trkpt><trkpt lat="43.79551558093443" lon="7.6600358082791775"><ele>42.0</ele><time>2026-03-26T21:31:31Z</time></trkpt><trkpt lat="43.79541161618505" lon="7.6599808988225995"><ele>40.5</ele><time>2026-03-26T21:31:32Z</time></trkpt><trkpt lat="43.79529427732002" lon="7.659967876344276"><ele>39.0</ele><time>2026-03-26T21:31:33Z</time></trkpt><trkpt lat="43.79518378651465" lon="7.65993368423663"><ele>38.166666666666664</ele><time>2026-03-26T21:31:34Z</time></trkpt><trkpt lat="43.79508439649134" lon="7.659899531295522"><ele>37.333333333333336</ele><time>2026-03-26T21:31:35Z</time></trkpt><trkpt lat="43.79499688094339" lon="7.659876149726662"><ele>36.5</ele><time>2026-03-26T21:31:36Z</time></trkpt><trkpt lat="43.794931173683274" lon="7.659856732060638"><ele>35.66666666666667</ele><time>2026-03-26T21:31:37Z</time></trkpt><trkpt lat="43.79485521404375" lon="7.659833146421849"><ele>34.833333333333336</ele><time>2026-03-26T21:31:39Z</time></trkpt><trkpt lat="43.79476465366375" lon="7.659758345193216"><ele>34.0</ele><time>2026-03-26T21:31:41Z</time></trkpt><trkpt lat="43.79466456399063" lon="7.659780009890636"><ele>34.0</ele><time>2026-03-26T21:31:42Z</time></trkpt><trkpt lat="43.794562179364036" lon="7.659747462957152"><ele>34.0</ele><time>2026-03-26T21:31:43Z</time></trkpt><trkpt lat="43.79444499541152" lon="7.6597193795608245"><ele>34.0</ele><time>2026-03-26T21:31:44Z</time></trkpt><trkpt lat="43.79432456328343" lon="7.659694008012871"><ele>34.0</ele><time>2026-03-26T21:31:45Z</time></trkpt><trkpt lat="43.79422000104384" lon="7.65966880692811"><ele>33.5</ele><time>2026-03-26T21:31:46Z</time></trkpt><trkpt lat="43.79410695648492" lon="7.65963380837838"><ele>33.0</ele><time>2026-03-26T21:31:47Z</time></trkpt><trkpt lat="43.79399251211674" lon="7.659598620874867"><ele>32.5</ele><time>2026-03-26T21:31:48Z</time></trkpt><trkpt lat="43.79387876848733" lon="7.659568957189068"><ele>32.0</ele><time>2026-03-26T21:31:49Z</time></trkpt><trkpt lat="43.793779947441514" lon="7.6595392685540915"><ele>32.0</ele><time>2026-03-26T21:31:50Z</time></trkpt><trkpt lat="43.793696377363354" lon="7.65951720786464"><ele>32.0</ele><time>2026-03-26T21:31:51Z</time></trkpt><trkpt lat="43.79361409583108" lon="7.659501641761463"><ele>32.0</ele><time>2026-03-26T21:31:52Z</time></trkpt><trkpt lat="43.793523981518106" lon="7.659480115119249"><ele>32.0</ele><time>2026-03-26T21:31:53Z</time></trkpt><trkpt lat="43.793421768675856" lon="7.659465123191832"><ele>32.0</ele><time>2026-03-26T21:31:54Z</time></trkpt><trkpt lat="43.793304504731516" lon="7.659417808426384"><ele>32.0</ele><time>2026-03-26T21:31:55Z</time></trkpt><trkpt lat="43.793159409814656" lon="7.65938623084382"><ele>32.0</ele><time>2026-03-26T21:31:56Z</time></trkpt><trkpt lat="43.793001229496596" lon="7.659361596297569"><ele>32.0</ele><time>2026-03-26T21:31:57Z</time></trkpt><trkpt lat="43.79284060599737" lon="7.6593646958687005"><ele>32.0</ele><time>2026-03-26T21:31:58Z</time></trkpt><trkpt lat="43.7926900581043" lon="7.659356678582021"><ele>32.0</ele><time>2026-03-26T21:31:59Z</time></trkpt><trkpt lat="43.7925570570303" lon="7.659353525269749"><ele>32.0</ele><time>2026-03-26T21:32:00Z</time></trkpt><trkpt lat="43.79242701021285" lon="7.659349755672218"><ele>32.0</ele><time>2026-03-26T21:32:01Z</time></trkpt><trkpt lat="43.79230630020492" lon="7.6593467035578575"><ele>31.0</ele><time>2026-03-26T21:32:02Z</time></trkpt><trkpt lat="43.79219671394934" lon="7.659340209348467"><ele>30.000000000000004</ele><time>2026-03-26T21:32:03Z</time></trkpt><trkpt lat="43.792094031796154" lon="7.659315332854793"><ele>29.000000000000004</ele><time>2026-03-26T21:32:04Z</time></trkpt><trkpt lat="43.7920050501778" lon="7.659254039356666"><ele>28.0</ele><time>2026-03-26T21:32:05Z</time></trkpt><trkpt lat="43.79190542402867" lon="7.659159649208622"><ele>27.0</ele><time>2026-03-26T21:32:06Z</time></trkpt><trkpt lat="43.791817717320015" lon="7.659021254177731"><ele>26.5</ele><time>2026-03-26T21:32:07Z</time></trkpt><trkpt lat="43.791734076922594" lon="7.65885689159969"><ele>26.0</ele><time>2026-03-26T21:32:08Z</time></trkpt><trkpt lat="43.79165286557398" lon="7.658705724224397"><ele>25.5</ele><time>2026-03-26T21:32:09Z</time></trkpt><trkpt lat="43.79156956599016" lon="7.658565735954181"><ele>25.0</ele><time>2026-03-26T21:32:10Z</time></trkpt><trkpt lat="43.79147341433626" lon="7.658427226410715"><ele>24.75</ele><time>2026-03-26T21:32:11Z</time></trkpt><trkpt lat="43.791369922140866" lon="7.658306737728601"><ele>24.5</ele><time>2026-03-26T21:32:12Z</time></trkpt><trkpt lat="43.79126473944816" lon="7.658203894037529"><ele>24.25</ele><time>2026-03-26T21:32:13Z</time></trkpt><trkpt lat="43.79116586274835" lon="7.658109579423034"><ele>24.0</ele><time>2026-03-26T21:32:14Z</time></trkpt><trkpt lat="43.7910717229033" lon="7.658012729009043"><ele>24.5</ele><time>2026-03-26T21:32:15Z</time></trkpt><trkpt lat="43.79097623447665" lon="7.657916415166385"><ele>25.0</ele><time>2026-03-26T21:32:16Z</time></trkpt><trkpt lat="43.79087881750976" lon="7.6578382531909766"><ele>25.5</ele><time>2026-03-26T21:32:17Z</time></trkpt><trkpt lat="43.79077391191256" lon="7.657797167254753"><ele>26.0</ele><time>2026-03-26T21:32:18Z</time></trkpt><trkpt lat="43.790654639611276" lon="7.657795505461433"><ele>26.0</ele><time>2026-03-26T21:32:19Z</time></trkpt><trkpt lat="43.79051833980264" lon="7.657825051749249"><ele>26.0</ele><time>2026-03-26T21:32:20Z</time></trkpt><trkpt lat="43.79037580388719" lon="7.657862766776464"><ele>26.0</ele><time>2026-03-26T21:32:21Z</time></trkpt><trkpt lat="43.79024305807739" lon="7.657880199534665"><ele>26.0</ele><time>2026-03-26T21:32:22Z</time></trkpt><trkpt lat="43.79011555990798" lon="7.657884161111995"><ele>25.25</ele><time>2026-03-26T21:32:23Z</time></trkpt><trkpt lat="43.78999077639615" lon="7.657891403754542"><ele>24.5</ele><time>2026-03-26T21:32:24Z</time></trkpt><trkpt lat="43.789854101697436" lon="7.657900254698966"><ele>23.75</ele><time>2026-03-26T21:32:25Z</time></trkpt><trkpt lat="43.789725144386715" lon="7.657902502593284"><ele>23.0</ele><time>2026-03-26T21:32:26Z</time></trkpt><trkpt lat="43.78962361065794" lon="7.657882355523589"><ele>23.0</ele><time>2026-03-26T21:32:27Z</time></trkpt><trkpt lat="43.78954719254677" lon="7.65786310100076"><ele>23.0</ele><time>2026-03-26T21:32:28Z</time></trkpt><trkpt lat="43.78947455908107" lon="7.657841098218757"><ele>23.0</ele><time>2026-03-26T21:32:29Z</time></trkpt><trkpt lat="43.78939499277583" lon="7.657827503010234"><ele>23.0</ele><time>2026-03-26T21:32:30Z</time></trkpt><trkpt lat="43.78929236947945" lon="7.657817693373476"><ele>23.0</ele><time>2026-03-26T21:32:31Z</time></trkpt><trkpt lat="43.78916283430484" lon="7.657798375447872"><ele>22.75</ele><time>2026-03-26T21:32:32Z</time></trkpt><trkpt lat="43.7890177405739" lon="7.65778056229121"><ele>22.5</ele><time>2026-03-26T21:32:33Z</time></trkpt><trkpt lat="43.78887642726073" lon="7.6577682091053445"><ele>22.25</ele><time>2026-03-26T21:32:34Z</time></trkpt><trkpt lat="43.78874340361114" lon="7.657779158415279"><ele>22.0</ele><time>2026-03-26T21:32:35Z</time></trkpt><trkpt lat="43.78861913016794" lon="7.657806628697897"><ele>22.25</ele><time>2026-03-26T21:32:36Z</time></trkpt><trkpt lat="43.788500110499754" lon="7.6578367019578755"><ele>22.5</ele><time>2026-03-26T21:32:37Z</time></trkpt><trkpt lat="43.78838205375357" lon="7.6578661835985455"><ele>22.75</ele><time>2026-03-26T21:32:38Z</time></trkpt><trkpt lat="43.788270167340535" lon="7.657893116771919"><ele>23.0</ele><time>2026-03-26T21:32:39Z</time></trkpt><trkpt lat="43.78816104435865" lon="7.65791536485817"><ele>23.0</ele><time>2026-03-26T21:32:40Z</time></trkpt><trkpt lat="43.78805415879912" lon="7.65791877545096"><ele>23.0</ele><time>2026-03-26T21:32:41Z</time></trkpt><trkpt lat="43.78793276655061" lon="7.657890550129954"><ele>23.0</ele><time>2026-03-26T21:32:42Z</time></trkpt><trkpt lat="43.787828851960185" lon="7.657798638112279"><ele>23.0</ele><time>2026-03-26T21:32:43Z</time></trkpt><trkpt lat="43.787731288172914" lon="7.65770652238822"><ele>21.5</ele><time>2026-03-26T21:32:44Z</time></trkpt><trkpt lat="43.78761518838653" lon="7.657623382586713"><ele>20.0</ele><time>2026-03-26T21:32:45Z</time></trkpt><trkpt lat="43.78752349140279" lon="7.6574974913773115"><ele>18.5</ele><time>2026-03-26T21:32:46Z</time></trkpt><trkpt lat="43.78742871174281" lon="7.657373863143763"><ele>17.0</ele><time>2026-03-26T21:32:47Z</time></trkpt><trkpt lat="43.78732904989341" lon="7.657243827668514"><ele>17.0</ele><time>2026-03-26T21:32:48Z</time></trkpt><trkpt lat="43.78724550751177" lon="7.657100452943923"><ele>17.0</ele><time>2026-03-26T21:32:49Z</time></trkpt><trkpt lat="43.787142359349495" lon="7.656995019376451"><ele>17.0</ele><time>2026-03-26T21:32:50Z</time></trkpt><trkpt lat="43.787044015364906" lon="7.656871994942262"><ele>17.0</ele><time>2026-03-26T21:32:51Z</time></trkpt><trkpt lat="43.786943106636244" lon="7.656761238066897"><ele>16.6</ele><time>2026-03-26T21:32:52Z</time></trkpt><trkpt lat="43.78684168310089" lon="7.656670505465964"><ele>16.2</ele><time>2026-03-26T21:32:53Z</time></trkpt><trkpt lat="43.78674527283955" lon="7.656588591070481"><ele>15.8</ele><time>2026-03-26T21:32:54Z</time></trkpt><trkpt lat="43.78666854443706" lon="7.656525792389901"><ele>15.4</ele><time>2026-03-26T21:32:55Z</time></trkpt><trkpt lat="43.78659800091268" lon="7.656476847666893"><ele>15.0</ele><time>2026-03-26T21:32:56Z</time></trkpt><trkpt lat="43.78650507625636" lon="7.656416873681131"><ele>15.0</ele><time>2026-03-26T21:32:58Z</time></trkpt><trkpt lat="43.78648188567483" lon="7.656316644149279"><ele>15.0</ele><time>2026-03-26T21:33:00Z</time></trkpt><trkpt lat="43.78657109153181" lon="7.656123026999192"><ele>15.0</ele><time>2026-03-26T21:33:02Z</time></trkpt><trkpt lat="43.786620334916165" lon="7.656004313724918"><ele>15.0</ele><time>2026-03-26T21:33:03Z</time></trkpt><trkpt lat="43.786677039571984" lon="7.655845389539814"><ele>15.75</ele><time>2026-03-26T21:33:04Z</time></trkpt><trkpt lat="43.78674271451262" lon="7.655679608952618"><ele>16.5</ele><time>2026-03-26T21:33:05Z</time></trkpt><trkpt lat="43.786794281108214" lon="7.655547688560234"><ele>17.25</ele><time>2026-03-26T21:33:06Z</time></trkpt><trkpt lat="43.78684960669551" lon="7.655431247858636"><ele>18.0</ele><time>2026-03-26T21:33:07Z</time></trkpt><trkpt lat="43.786928860551285" lon="7.655301126743606"><ele>21.4</ele><time>2026-03-26T21:33:08Z</time></trkpt><trkpt lat="43.78701829953551" lon="7.655213707621372"><ele>24.8</ele><time>2026-03-26T21:33:09Z</time></trkpt><trkpt lat="43.78708029251272" lon="7.655128230689823"><ele>28.2</ele><time>2026-03-26T21:33:10Z</time></trkpt><trkpt lat="43.78711169865703" lon="7.654999390919004"><ele>31.6</ele><time>2026-03-26T21:33:11Z</time></trkpt><trkpt lat="43.7871317295882" lon="7.65484064613846"><ele>35.0</ele><time>2026-03-26T21:33:12Z</time></trkpt><trkpt lat="43.78714287314787" lon="7.654637593899762"><ele>34.75</ele><time>2026-03-26T21:33:13Z</time></trkpt><trkpt lat="43.78715331201475" lon="7.65442191606334"><ele>34.5</ele><time>2026-03-26T21:33:14Z</time></trkpt><trkpt lat="43.78716611106433" lon="7.654231716895707"><ele>34.25</ele><time>2026-03-26T21:33:15Z</time></trkpt><trkpt lat="43.787186418524115" lon="7.654058229518301"><ele>34.0</ele><time>2026-03-26T21:33:16Z</time></trkpt><trkpt lat="43.78722892017325" lon="7.6538801617621175"><ele>34.0</ele><time>2026-03-26T21:33:17Z</time></trkpt><trkpt lat="43.78728412125071" lon="7.65370364823154"><ele>34.0</ele><time>2026-03-26T21:33:18Z</time></trkpt><trkpt lat="43.7873607503505" lon="7.653499264936718"><ele>34.0</ele><time>2026-03-26T21:33:19Z</time></trkpt><trkpt lat="43.78744486999058" lon="7.653287045782574"><ele>32.333333333333336</ele><time>2026-03-26T21:33:20Z</time></trkpt><trkpt lat="43.78752020726334" lon="7.653101714340242"><ele>30.666666666666664</ele><time>2026-03-26T21:33:21Z</time></trkpt><trkpt lat="43.78759063278503" lon="7.652922244392664"><ele>29.0</ele><time>2026-03-26T21:33:22Z</time></trkpt><trkpt lat="43.78766825517761" lon="7.652722913741164"><ele>36.33333333333333</ele><time>2026-03-26T21:33:23Z</time></trkpt><trkpt lat="43.78773687255458" lon="7.652498354163777"><ele>43.666666666666664</ele><time>2026-03-26T21:33:24Z</time></trkpt><trkpt lat="43.787811454133504" lon="7.652274362521028"><ele>51.0</ele><time>2026-03-26T21:33:25Z</time></trkpt><trkpt lat="43.78787784430292" lon="7.652087450349685"><ele>47.25</ele><time>2026-03-26T21:33:26Z</time></trkpt><trkpt lat="43.78794422723717" lon="7.651917732703836"><ele>43.5</ele><time>2026-03-26T21:33:27Z</time></trkpt><trkpt lat="43.788004018348325" lon="7.651760604918522"><ele>39.75</ele><time>2026-03-26T21:33:28Z</time></trkpt><trkpt lat="43.78806149602201" lon="7.651613098349402"><ele>36.0</ele><time>2026-03-26T21:33:29Z</time></trkpt><trkpt lat="43.78809404636754" lon="7.651501281609927"><ele>36.0</ele><time>2026-03-26T21:33:30Z</time></trkpt><trkpt lat="43.788118810797215" lon="7.651379166884072"><ele>36.0</ele><time>2026-03-26T21:33:31Z</time></trkpt><trkpt lat="43.78812785577408" lon="7.651258265215933"><ele>36.0</ele><time>2026-03-26T21:33:32Z</time></trkpt><trkpt lat="43.788129693385805" lon="7.6511334667736755"><ele>36.0</ele><time>2026-03-26T21:33:33Z</time></trkpt><trkpt lat="43.78812695754261" lon="7.6510106770608655"><ele>36.0</ele><time>2026-03-26T21:33:34Z</time></trkpt><trkpt lat="43.78812017044038" lon="7.650886818582211"><ele>36.0</ele><time>2026-03-26T21:33:35Z</time></trkpt><trkpt lat="43.78811186042246" lon="7.650768502880355"><ele>34.6</ele><time>2026-03-26T21:33:36Z</time></trkpt><trkpt lat="43.7881047739101" lon="7.650647038480927"><ele>33.2</ele><time>2026-03-26T21:33:37Z</time></trkpt><trkpt lat="43.788108559092436" lon="7.650528334191748"><ele>31.799999999999997</ele><time>2026-03-26T21:33:38Z</time></trkpt><trkpt lat="43.78811871578806" lon="7.650403322950868"><ele>30.4</ele><time>2026-03-26T21:33:39Z</time></trkpt><trkpt lat="43.788147562082955" lon="7.6502701438322225"><ele>29.0</ele><time>2026-03-26T21:33:40Z</time></trkpt><trkpt lat="43.78818972140416" lon="7.6501365817526805"><ele>28.666666666666664</ele><time>2026-03-26T21:33:41Z</time></trkpt><trkpt lat="43.788231972385375" lon="7.650020410397841"><ele>28.333333333333332</ele><time>2026-03-26T21:33:42Z</time></trkpt><trkpt lat="43.788269965864686" lon="7.649916542364076"><ele>28.0</ele><time>2026-03-26T21:33:43Z</time></trkpt><trkpt lat="43.78830225477349" lon="7.649830080442467"><ele>27.666666666666664</ele><time>2026-03-26T21:33:44Z</time></trkpt><trkpt lat="43.78833038368983" lon="7.6497511240062845"><ele>27.333333333333332</ele><time>2026-03-26T21:33:45Z</time></trkpt><trkpt lat="43.788362784705214" lon="7.64965871769528"><ele>27.0</ele><time>2026-03-26T21:33:46Z</time></trkpt><trkpt lat="43.78840356326649" lon="7.6495496198919755"><ele>26.200000000000003</ele><time>2026-03-26T21:33:47Z</time></trkpt><trkpt lat="43.788446152189486" lon="7.649425803627954"><ele>25.400000000000002</ele><time>2026-03-26T21:33:48Z</time></trkpt><trkpt lat="43.78848094118301" lon="7.649289284704689"><ele>24.6</ele><time>2026-03-26T21:33:49Z</time></trkpt><trkpt lat="43.78852072486963" lon="7.649136337322877"><ele>23.799999999999997</ele><time>2026-03-26T21:33:50Z</time></trkpt><trkpt lat="43.788572520830904" lon="7.648973748910805"><ele>23.0</ele><time>2026-03-26T21:33:51Z</time></trkpt><trkpt lat="43.788635231611906" lon="7.64877510489917"><ele>27.0</ele><time>2026-03-26T21:33:52Z</time></trkpt><trkpt lat="43.78870869623394" lon="7.648549013780377"><ele>31.0</ele><time>2026-03-26T21:33:53Z</time></trkpt><trkpt lat="43.78877285297275" lon="7.648347503369743"><ele>35.0</ele><time>2026-03-26T21:33:54Z</time></trkpt><trkpt lat="43.78883654924009" lon="7.648180972477308"><ele>35.0</ele><time>2026-03-26T21:33:55Z</time></trkpt><trkpt lat="43.7888910662264" lon="7.648030764468545"><ele>35.0</ele><time>2026-03-26T21:33:56Z</time></trkpt><trkpt lat="43.78894166458638" lon="7.647887077629878"><ele>35.0</ele><time>2026-03-26T21:33:57Z</time></trkpt><trkpt lat="43.78898477088787" lon="7.647730450764753"><ele>35.0</ele><time>2026-03-26T21:33:58Z</time></trkpt><trkpt lat="43.789023445881945" lon="7.6475859324858755"><ele>33.8</ele><time>2026-03-26T21:33:59Z</time></trkpt><trkpt lat="43.789060795141125" lon="7.647454307886353"><ele>32.6</ele><time>2026-03-26T21:34:00Z</time></trkpt><trkpt lat="43.78909799836155" lon="7.6473272706723145"><ele>31.4</ele><time>2026-03-26T21:34:01Z</time></trkpt><trkpt lat="43.78912838810925" lon="7.647205103145053"><ele>30.2</ele><time>2026-03-26T21:34:02Z</time></trkpt><trkpt lat="43.78915912467398" lon="7.64708336078427"><ele>29.0</ele><time>2026-03-26T21:34:03Z</time></trkpt><trkpt lat="43.789179470495554" lon="7.646955134796787"><ele>27.6</ele><time>2026-03-26T21:34:04Z</time></trkpt><trkpt lat="43.78919228535575" lon="7.646831090318657"><ele>26.2</ele><time>2026-03-26T21:34:05Z</time></trkpt><trkpt lat="43.789204104150805" lon="7.64672735382779"><ele>24.8</ele><time>2026-03-26T21:34:06Z</time></trkpt><trkpt lat="43.78921472011104" lon="7.646636095288699"><ele>23.400000000000002</ele><time>2026-03-26T21:34:07Z</time></trkpt><trkpt lat="43.78923790999059" lon="7.64644490426136"><ele>22.0</ele><time>2026-03-26T21:34:09Z</time></trkpt><trkpt lat="43.78925320070071" lon="7.646315024379595"><ele>22.0</ele><time>2026-03-26T21:34:10Z</time></trkpt><trkpt lat="43.78925745913594" lon="7.646177992655603"><ele>22.0</ele><time>2026-03-26T21:34:11Z</time></trkpt><trkpt lat="43.78926257437832" lon="7.646050624136211"><ele>22.0</ele><time>2026-03-26T21:34:12Z</time></trkpt><trkpt lat="43.7892559270785" lon="7.645931006352591"><ele>22.0</ele><time>2026-03-26T21:34:13Z</time></trkpt><trkpt lat="43.789264146734425" lon="7.645810963930502"><ele>22.0</ele><time>2026-03-26T21:34:14Z</time></trkpt><trkpt lat="43.789289508666215" lon="7.645666763261579"><ele>21.75</ele><time>2026-03-26T21:34:15Z</time></trkpt><trkpt lat="43.78932440406313" lon="7.645489710004389"><ele>21.5</ele><time>2026-03-26T21:34:16Z</time></trkpt><trkpt lat="43.78938491412064" lon="7.645334790995382"><ele>21.25</ele><time>2026-03-26T21:34:17Z</time></trkpt><trkpt lat="43.78941826360399" lon="7.645187533720906"><ele>21.0</ele><time>2026-03-26T21:34:18Z</time></trkpt><trkpt lat="43.7894619842784" lon="7.645079259985192"><ele>19.833333333333332</ele><time>2026-03-26T21:34:19Z</time></trkpt><trkpt lat="43.78949589482484" lon="7.64500421248904"><ele>18.666666666666668</ele><time>2026-03-26T21:34:20Z</time></trkpt><trkpt lat="43.78953303321039" lon="7.644927600302919"><ele>17.5</ele><time>2026-03-26T21:34:21Z</time></trkpt><trkpt lat="43.78957725924955" lon="7.644849134974501"><ele>16.333333333333336</ele><time>2026-03-26T21:34:22Z</time></trkpt><trkpt lat="43.78961877593243" lon="7.644769283138348"><ele>15.166666666666668</ele><time>2026-03-26T21:34:23Z</time></trkpt><trkpt lat="43.789644741116255" lon="7.6446896623884175"><ele>14.0</ele><time>2026-03-26T21:34:24Z</time></trkpt><trkpt lat="43.78963473386135" lon="7.644516036004527"><ele>14.25</ele><time>2026-03-26T21:34:26Z</time></trkpt><trkpt lat="43.78964182277838" lon="7.644373763606187"><ele>14.5</ele><time>2026-03-26T21:34:27Z</time></trkpt><trkpt lat="43.78965121909268" lon="7.644217556267553"><ele>14.75</ele><time>2026-03-26T21:34:28Z</time></trkpt><trkpt lat="43.78966317161092" lon="7.644043655673258"><ele>15.0</ele><time>2026-03-26T21:34:29Z</time></trkpt><trkpt lat="43.78966207201999" lon="7.643858577255223"><ele>15.0</ele><time>2026-03-26T21:34:30Z</time></trkpt><trkpt lat="43.789679618077045" lon="7.643690774386723"><ele>15.0</ele><time>2026-03-26T21:34:31Z</time></trkpt><trkpt lat="43.78969119296415" lon="7.643543651937655"><ele>15.0</ele><time>2026-03-26T21:34:32Z</time></trkpt><trkpt lat="43.7897036633771" lon="7.6434039630480415"><ele>15.0</ele><time>2026-03-26T21:34:33Z</time></trkpt><trkpt lat="43.78971402610404" lon="7.643286612526683"><ele>15.0</ele><time>2026-03-26T21:34:34Z</time></trkpt><trkpt lat="43.7897147449616" lon="7.643178344800472"><ele>14.833333333333334</ele><time>2026-03-26T21:34:35Z</time></trkpt><trkpt lat="43.789711492143674" lon="7.643080379210695"><ele>14.666666666666668</ele><time>2026-03-26T21:34:36Z</time></trkpt><trkpt lat="43.78970839310139" lon="7.642981681416484"><ele>14.5</ele><time>2026-03-26T21:34:37Z</time></trkpt><trkpt lat="43.78971901189449" lon="7.642853806811259"><ele>14.333333333333334</ele><time>2026-03-26T21:34:39Z</time></trkpt><trkpt lat="43.78978161999911" lon="7.64278125152254"><ele>14.166666666666668</ele><time>2026-03-26T21:34:44Z</time></trkpt><trkpt lat="43.78982164471296" lon="7.642631266832706"><ele>14.0</ele><time>2026-03-26T21:34:46Z</time></trkpt><trkpt lat="43.789761736707796" lon="7.642476469665074"><ele>14.0</ele><time>2026-03-26T21:34:48Z</time></trkpt><trkpt lat="43.78971275731997" lon="7.642371105055545"><ele>14.0</ele><time>2026-03-26T21:34:49Z</time></trkpt><trkpt lat="43.789693386107345" lon="7.642214626051825"><ele>14.0</ele><time>2026-03-26T21:34:50Z</time></trkpt><trkpt lat="43.78968178941563" lon="7.642030514102216"><ele>14.0</ele><time>2026-03-26T21:34:51Z</time></trkpt><trkpt lat="43.78964969192461" lon="7.641817796177632"><ele>14.0</ele><time>2026-03-26T21:34:52Z</time></trkpt><trkpt lat="43.78962389864546" lon="7.641620952994171"><ele>14.0</ele><time>2026-03-26T21:34:53Z</time></trkpt><trkpt lat="43.78961673694522" lon="7.641441584189111"><ele>14.0</ele><time>2026-03-26T21:34:54Z</time></trkpt><trkpt lat="43.78961698400489" lon="7.641273979611906"><ele>14.0</ele><time>2026-03-26T21:34:55Z</time></trkpt><trkpt lat="43.78961668987562" lon="7.641116477229007"><ele>14.25</ele><time>2026-03-26T21:34:56Z</time></trkpt><trkpt lat="43.78962383530111" lon="7.640959736925291"><ele>14.5</ele><time>2026-03-26T21:34:57Z</time></trkpt><trkpt lat="43.789619458454766" lon="7.64081252503993"><ele>14.75</ele><time>2026-03-26T21:34:58Z</time></trkpt><trkpt lat="43.78962490909895" lon="7.6406434810381745"><ele>15.0</ele><time>2026-03-26T21:34:59Z</time></trkpt><trkpt lat="43.789633367042676" lon="7.640457482677682"><ele>15.5</ele><time>2026-03-26T21:35:00Z</time></trkpt><trkpt lat="43.78964806057376" lon="7.640269975015605"><ele>16.0</ele><time>2026-03-26T21:35:01Z</time></trkpt><trkpt lat="43.78967674993037" lon="7.640091508401977"><ele>16.5</ele><time>2026-03-26T21:35:02Z</time></trkpt><trkpt lat="43.78971998731244" lon="7.639933154524803"><ele>17.0</ele><time>2026-03-26T21:35:03Z</time></trkpt><trkpt lat="43.789745706276236" lon="7.639767280005468"><ele>17.0</ele><time>2026-03-26T21:35:04Z</time></trkpt><trkpt lat="43.78977475676152" lon="7.639597778560483"><ele>17.0</ele><time>2026-03-26T21:35:05Z</time></trkpt><trkpt lat="43.78980344284768" lon="7.639443403088799"><ele>17.0</ele><time>2026-03-26T21:35:06Z</time></trkpt><trkpt lat="43.789831660412894" lon="7.639269901633828"><ele>17.0</ele><time>2026-03-26T21:35:07Z</time></trkpt><trkpt lat="43.78986059562143" lon="7.639064351564098"><ele>16.5</ele><time>2026-03-26T21:35:08Z</time></trkpt><trkpt lat="43.78988694134281" lon="7.638868874013521"><ele>16.0</ele><time>2026-03-26T21:35:09Z</time></trkpt><trkpt lat="43.78991390298484" lon="7.638692009511867"><ele>15.5</ele><time>2026-03-26T21:35:10Z</time></trkpt><trkpt lat="43.789938521738215" lon="7.638521511514331"><ele>15.0</ele><time>2026-03-26T21:35:11Z</time></trkpt><trkpt lat="43.78996641144577" lon="7.638355673163031"><ele>14.8</ele><time>2026-03-26T21:35:12Z</time></trkpt><trkpt lat="43.789987327364855" lon="7.638195596494361"><ele>14.6</ele><time>2026-03-26T21:35:13Z</time></trkpt><trkpt lat="43.79001521627411" lon="7.638040930967184"><ele>14.399999999999999</ele><time>2026-03-26T21:35:14Z</time></trkpt><trkpt lat="43.79003172005678" lon="7.637893338841227"><ele>14.2</ele><time>2026-03-26T21:35:15Z</time></trkpt><trkpt lat="43.790053078751825" lon="7.637772898815546"><ele>14.0</ele><time>2026-03-26T21:35:16Z</time></trkpt><trkpt lat="43.790080028662764" lon="7.637653745868439"><ele>13.75</ele><time>2026-03-26T21:35:17Z</time></trkpt><trkpt lat="43.79012438444862" lon="7.637499942279066"><ele>13.5</ele><time>2026-03-26T21:35:18Z</time></trkpt><trkpt lat="43.79018830526551" lon="7.637336631138294"><ele>13.25</ele><time>2026-03-26T21:35:19Z</time></trkpt><trkpt lat="43.79023659999702" lon="7.6371804748307754"><ele>13.0</ele><time>2026-03-26T21:35:20Z</time></trkpt><trkpt lat="43.79029823555318" lon="7.637041806434858"><ele>12.8</ele><time>2026-03-26T21:35:21Z</time></trkpt><trkpt lat="43.790347831589585" lon="7.636907067572035"><ele>12.600000000000001</ele><time>2026-03-26T21:35:22Z</time></trkpt><trkpt lat="43.790395638557335" lon="7.63677251018032"><ele>12.399999999999999</ele><time>2026-03-26T21:35:23Z</time></trkpt><trkpt lat="43.7904394896352" lon="7.636642764126556"><ele>12.2</ele><time>2026-03-26T21:35:24Z</time></trkpt><trkpt lat="43.790464913889714" lon="7.6365044072155435"><ele>12.0</ele><time>2026-03-26T21:35:25Z</time></trkpt><trkpt lat="43.79045832882061" lon="7.636360362874655"><ele>12.0</ele><time>2026-03-26T21:35:26Z</time></trkpt><trkpt lat="43.79042138063539" lon="7.636229607578537"><ele>12.0</ele><time>2026-03-26T21:35:27Z</time></trkpt><trkpt lat="43.79039631932685" lon="7.636100221487881"><ele>12.0</ele><time>2026-03-26T21:35:28Z</time></trkpt><trkpt lat="43.79037988833472" lon="7.6359756698076975"><ele>12.0</ele><time>2026-03-26T21:35:29Z</time></trkpt><trkpt lat="43.79035953508912" lon="7.635864276426447"><ele>12.0</ele><time>2026-03-26T21:35:30Z</time></trkpt><trkpt lat="43.79033628140508" lon="7.635736834224399"><ele>11.333333333333334</ele><time>2026-03-26T21:35:32Z</time></trkpt><trkpt lat="43.79034692802324" lon="7.635593872049547"><ele>10.666666666666666</ele><time>2026-03-26T21:35:34Z</time></trkpt><trkpt lat="43.790368013562535" lon="7.6354854952026905"><ele>10.0</ele><time>2026-03-26T21:35:35Z</time></trkpt><trkpt lat="43.79038706087458" lon="7.635378988607101"><ele>9.333333333333332</ele><time>2026-03-26T21:35:36Z</time></trkpt><trkpt lat="43.79040646488646" lon="7.635275926863812"><ele>8.666666666666666</ele><time>2026-03-26T21:35:37Z</time></trkpt><trkpt lat="43.790430673635875" lon="7.635187254848"><ele>8.0</ele><time>2026-03-26T21:35:38Z</time></trkpt><trkpt lat="43.79045900484208" lon="7.63510259741273"><ele>7.999999999999999</ele><time>2026-03-26T21:35:39Z</time></trkpt><trkpt lat="43.79049011375014" lon="7.635005411782007"><ele>8.0</ele><time>2026-03-26T21:35:40Z</time></trkpt><trkpt lat="43.7905362281887" lon="7.634889810476236"><ele>8.0</ele><time>2026-03-26T21:35:41Z</time></trkpt><trkpt lat="43.79058555612415" lon="7.634780096768542"><ele>8.0</ele><time>2026-03-26T21:35:42Z</time></trkpt><trkpt lat="43.79062501211664" lon="7.6346741116297485"><ele>7.999999999999999</ele><time>2026-03-26T21:35:43Z</time></trkpt><trkpt lat="43.79063907125112" lon="7.634574396553145"><ele>8.0</ele><time>2026-03-26T21:35:44Z</time></trkpt><trkpt lat="43.79065310755316" lon="7.63445468755493"><ele>7.800000000000001</ele><time>2026-03-26T21:35:46Z</time></trkpt><trkpt lat="43.79072005349009" lon="7.6343704522259905"><ele>7.6000000000000005</ele><time>2026-03-26T21:35:48Z</time></trkpt><trkpt lat="43.79078345558949" lon="7.634322989495975"><ele>7.3999999999999995</ele><time>2026-03-26T21:35:49Z</time></trkpt><trkpt lat="43.79084226312231" lon="7.634248521659222"><ele>7.199999999999999</ele><time>2026-03-26T21:35:50Z</time></trkpt><trkpt lat="43.79095117176633" lon="7.634255802952099"><ele>7.0</ele><time>2026-03-26T21:35:51Z</time></trkpt><trkpt lat="43.791056344772514" lon="7.63423720812209"><ele>6.5</ele><time>2026-03-26T21:35:52Z</time></trkpt><trkpt lat="43.79117689060325" lon="7.634222400889928"><ele>6.0</ele><time>2026-03-26T21:35:53Z</time></trkpt><trkpt lat="43.79131673175524" lon="7.6342149405923605"><ele>5.5</ele><time>2026-03-26T21:35:54Z</time></trkpt><trkpt lat="43.79147460148752" lon="7.634196824631131"><ele>5.0</ele><time>2026-03-26T21:35:55Z</time></trkpt><trkpt lat="43.791648443904954" lon="7.634197150604768"><ele>5.0</ele><time>2026-03-26T21:35:56Z</time></trkpt><trkpt lat="43.79176951313204" lon="7.634189136131374"><ele>5.0</ele><time>2026-03-26T21:35:57Z</time></trkpt><trkpt lat="43.79193062072499" lon="7.634158955270679"><ele>5.0</ele><time>2026-03-26T21:35:58Z</time></trkpt><trkpt lat="43.79209596644882" lon="7.634156214482015"><ele>5.0</ele><time>2026-03-26T21:35:59Z</time></trkpt><trkpt lat="43.79225058598416" lon="7.634155822349538"><ele>5.333333333333334</ele><time>2026-03-26T21:36:00Z</time></trkpt><trkpt lat="43.79240761503937" lon="7.6341640879068"><ele>5.666666666666667</ele><time>2026-03-26T21:36:01Z</time></trkpt><trkpt lat="43.79256908639943" lon="7.634177663464122"><ele>6.0</ele><time>2026-03-26T21:36:02Z</time></trkpt><trkpt lat="43.79273684239798" lon="7.634189820903137"><ele>6.5</ele><time>2026-03-26T21:36:03Z</time></trkpt><trkpt lat="43.79289173764248" lon="7.634198834144734"><ele>7.0</ele><time>2026-03-26T21:36:04Z</time></trkpt><trkpt lat="43.793041362966456" lon="7.634206634027996"><ele>7.5</ele><time>2026-03-26T21:36:05Z</time></trkpt><trkpt lat="43.793178220184544" lon="7.634223000568488"><ele>8.0</ele><time>2026-03-26T21:36:06Z</time></trkpt><trkpt lat="43.793310757333664" lon="7.634227599345827"><ele>8.0</ele><time>2026-03-26T21:36:07Z</time></trkpt><trkpt lat="43.79343424902752" lon="7.634212924977734"><ele>8.0</ele><time>2026-03-26T21:36:08Z</time></trkpt><trkpt lat="43.7935527566607" lon="7.634179403067247"><ele>8.0</ele><time>2026-03-26T21:36:09Z</time></trkpt><trkpt lat="43.79366840673012" lon="7.634137974150853"><ele>8.0</ele><time>2026-03-26T21:36:10Z</time></trkpt><trkpt lat="43.7937768963891" lon="7.634098161785078"><ele>8.200000000000001</ele><time>2026-03-26T21:36:11Z</time></trkpt><trkpt lat="43.79387595984872" lon="7.634035924458425"><ele>8.4</ele><time>2026-03-26T21:36:12Z</time></trkpt><trkpt lat="43.793966308031855" lon="7.633955703237108"><ele>8.600000000000001</ele><time>2026-03-26T21:36:13Z</time></trkpt><trkpt lat="43.79404658054476" lon="7.633866370402516"><ele>8.8</ele><time>2026-03-26T21:36:14Z</time></trkpt><trkpt lat="43.7941204638078" lon="7.63378364466587"><ele>9.0</ele><time>2026-03-26T21:36:15Z</time></trkpt><trkpt lat="43.79419174710813" lon="7.633710630748643"><ele>9.0</ele><time>2026-03-26T21:36:16Z</time></trkpt><trkpt lat="43.794258576939164" lon="7.6336371326018995"><ele>9.0</ele><time>2026-03-26T21:36:17Z</time></trkpt><trkpt lat="43.79432759069518" lon="7.633563285730351"><ele>9.0</ele><time>2026-03-26T21:36:18Z</time></trkpt><trkpt lat="43.794407360579584" lon="7.633490084429268"><ele>9.0</ele><time>2026-03-26T21:36:19Z</time></trkpt><trkpt lat="43.79449271165495" lon="7.633402194442988"><ele>9.0</ele><time>2026-03-26T21:36:20Z</time></trkpt><trkpt lat="43.79458199658138" lon="7.633299141610478"><ele>9.0</ele><time>2026-03-26T21:36:21Z</time></trkpt><trkpt lat="43.794680624293875" lon="7.633196838900931"><ele>9.0</ele><time>2026-03-26T21:36:22Z</time></trkpt><trkpt lat="43.794782470987435" lon="7.63310617856731"><ele>9.0</ele><time>2026-03-26T21:36:23Z</time></trkpt><trkpt lat="43.7948934837234" lon="7.633023983101702"><ele>9.0</ele><time>2026-03-26T21:36:24Z</time></trkpt><trkpt lat="43.79501283260039" lon="7.632954440796713"><ele>9.0</ele><time>2026-03-26T21:36:25Z</time></trkpt><trkpt lat="43.79513895865453" lon="7.632911295991953"><ele>9.0</ele><time>2026-03-26T21:36:26Z</time></trkpt><trkpt lat="43.795266419184074" lon="7.632878718864757"><ele>9.0</ele><time>2026-03-26T21:36:27Z</time></trkpt><trkpt lat="43.79539383716104" lon="7.632827782341309"><ele>9.0</ele><time>2026-03-26T21:36:28Z</time></trkpt><trkpt lat="43.795514937060794" lon="7.632741846569297"><ele>9.0</ele><time>2026-03-26T21:36:29Z</time></trkpt><trkpt lat="43.79562707492786" lon="7.632630694198325"><ele>9.0</ele><time>2026-03-26T21:36:30Z</time></trkpt><trkpt lat="43.79574235499432" lon="7.632494643276949"><ele>9.0</ele><time>2026-03-26T21:36:31Z</time></trkpt><trkpt lat="43.79586080932274" lon="7.632353780740442"><ele>9.0</ele><time>2026-03-26T21:36:32Z</time></trkpt><trkpt lat="43.79598145715231" lon="7.6322237220283995"><ele>9.0</ele><time>2026-03-26T21:36:33Z</time></trkpt><trkpt lat="43.79609567692032" lon="7.632108388175807"><ele>9.0</ele><time>2026-03-26T21:36:34Z</time></trkpt><trkpt lat="43.7962112581996" lon="7.631987522481872"><ele>9.0</ele><time>2026-03-26T21:36:35Z</time></trkpt><trkpt lat="43.796322544214334" lon="7.631862329323121"><ele>9.0</ele><time>2026-03-26T21:36:36Z</time></trkpt><trkpt lat="43.7964326275475" lon="7.631741952722056"><ele>8.75</ele><time>2026-03-26T21:36:37Z</time></trkpt><trkpt lat="43.79654708134952" lon="7.63160961645504"><ele>8.5</ele><time>2026-03-26T21:36:38Z</time></trkpt><trkpt lat="43.796647069622466" lon="7.631473209370398"><ele>8.25</ele><time>2026-03-26T21:36:39Z</time></trkpt><trkpt lat="43.79673490682577" lon="7.631338395928969"><ele>8.0</ele><time>2026-03-26T21:36:40Z</time></trkpt><trkpt lat="43.7968140659894" lon="7.631207084963186"><ele>8.25</ele><time>2026-03-26T21:36:41Z</time></trkpt><trkpt lat="43.79688886963552" lon="7.631079573039313"><ele>8.5</ele><time>2026-03-26T21:36:42Z</time></trkpt><trkpt lat="43.79697563615145" lon="7.63096819200434"><ele>8.75</ele><time>2026-03-26T21:36:43Z</time></trkpt><trkpt lat="43.79708521180987" lon="7.630875360874131"><ele>9.0</ele><time>2026-03-26T21:36:44Z</time></trkpt><trkpt lat="43.797211301376514" lon="7.630798078231445"><ele>9.0</ele><time>2026-03-26T21:36:45Z</time></trkpt><trkpt lat="43.79735529598911" lon="7.630725619952219"><ele>9.0</ele><time>2026-03-26T21:36:46Z</time></trkpt><trkpt lat="43.797493156259804" lon="7.6306592850296235"><ele>9.0</ele><time>2026-03-26T21:36:47Z</time></trkpt><trkpt lat="43.79762115401626" lon="7.630599600538728"><ele>9.0</ele><time>2026-03-26T21:36:48Z</time></trkpt><trkpt lat="43.79775165541278" lon="7.6305357861252485"><ele>9.25</ele><time>2026-03-26T21:36:49Z</time></trkpt><trkpt lat="43.797884490126016" lon="7.630465358668104"><ele>9.5</ele><time>2026-03-26T21:36:50Z</time></trkpt><trkpt lat="43.79801637362795" lon="7.630395439671574"><ele>9.75</ele><time>2026-03-26T21:36:51Z</time></trkpt><trkpt lat="43.79813648914971" lon="7.630329428813709"><ele>10.0</ele><time>2026-03-26T21:36:52Z</time></trkpt><trkpt lat="43.798246718755735" lon="7.630256682945473"><ele>10.25</ele><time>2026-03-26T21:36:53Z</time></trkpt><trkpt lat="43.79835005364737" lon="7.630173949793181"><ele>10.5</ele><time>2026-03-26T21:36:54Z</time></trkpt><trkpt lat="43.7984529398092" lon="7.630098429803648"><ele>10.75</ele><time>2026-03-26T21:36:55Z</time></trkpt><trkpt lat="43.79855741476582" lon="7.630009508464107"><ele>11.0</ele><time>2026-03-26T21:36:56Z</time></trkpt><trkpt lat="43.79866871944425" lon="7.629920846698926"><ele>11.0</ele><time>2026-03-26T21:36:57Z</time></trkpt><trkpt lat="43.79878756632511" lon="7.6298288817468265"><ele>11.0</ele><time>2026-03-26T21:36:58Z</time></trkpt><trkpt lat="43.7989130324365" lon="7.629732258419418"><ele>11.0</ele><time>2026-03-26T21:36:59Z</time></trkpt><trkpt lat="43.7990408147679" lon="7.629625563638296"><ele>11.0</ele><time>2026-03-26T21:37:00Z</time></trkpt><trkpt lat="43.799166941725545" lon="7.629525034644417"><ele>11.0</ele><time>2026-03-26T21:37:01Z</time></trkpt><trkpt lat="43.799290918167394" lon="7.62942328843768"><ele>11.0</ele><time>2026-03-26T21:37:02Z</time></trkpt><trkpt lat="43.79941307412315" lon="7.629324523150515"><ele>11.0</ele><time>2026-03-26T21:37:03Z</time></trkpt><trkpt lat="43.799528028110466" lon="7.629226517102769"><ele>11.0</ele><time>2026-03-26T21:37:04Z</time></trkpt><trkpt lat="43.799637229204336" lon="7.629126835688899"><ele>11.0</ele><time>2026-03-26T21:37:05Z</time></trkpt><trkpt lat="43.79974626806435" lon="7.62903046547748"><ele>11.0</ele><time>2026-03-26T21:37:06Z</time></trkpt><trkpt lat="43.799863443736065" lon="7.628948690652369"><ele>11.0</ele><time>2026-03-26T21:37:07Z</time></trkpt><trkpt lat="43.79999221385946" lon="7.628893000736894"><ele>11.0</ele><time>2026-03-26T21:37:08Z</time></trkpt><trkpt lat="43.80013276234713" lon="7.628855086164635"><ele>12.0</ele><time>2026-03-26T21:37:09Z</time></trkpt><trkpt lat="43.80028517141384" lon="7.628818332001656"><ele>13.0</ele><time>2026-03-26T21:37:10Z</time></trkpt><trkpt lat="43.800434793398786" lon="7.628790019603362"><ele>14.0</ele><time>2026-03-26T21:37:11Z</time></trkpt><trkpt lat="43.800582093665405" lon="7.628759613360209"><ele>14.0</ele><time>2026-03-26T21:37:12Z</time></trkpt><trkpt lat="43.80072793054862" lon="7.6287263476740845"><ele>14.0</ele><time>2026-03-26T21:37:13Z</time></trkpt><trkpt lat="43.800886076137324" lon="7.628694516515001"><ele>14.0</ele><time>2026-03-26T21:37:14Z</time></trkpt><trkpt lat="43.80104530177012" lon="7.628670033297044"><ele>14.0</ele><time>2026-03-26T21:37:15Z</time></trkpt><trkpt lat="43.80119108183742" lon="7.628645685822431"><ele>14.0</ele><time>2026-03-26T21:37:16Z</time></trkpt><trkpt lat="43.80133087781127" lon="7.62862934547145"><ele>14.0</ele><time>2026-03-26T21:37:17Z</time></trkpt><trkpt lat="43.801472550431114" lon="7.628611933139697"><ele>14.0</ele><time>2026-03-26T21:37:18Z</time></trkpt><trkpt lat="43.80161006710194" lon="7.628590270415253"><ele>14.25</ele><time>2026-03-26T21:37:19Z</time></trkpt><trkpt lat="43.801746750776246" lon="7.628562578822315"><ele>14.5</ele><time>2026-03-26T21:37:20Z</time></trkpt><trkpt lat="43.801896290707205" lon="7.628539879741156"><ele>14.75</ele><time>2026-03-26T21:37:21Z</time></trkpt><trkpt lat="43.80203904866243" lon="7.628510134368133"><ele>15.0</ele><time>2026-03-26T21:37:22Z</time></trkpt><trkpt lat="43.80216905790803" lon="7.628480479546378"><ele>14.5</ele><time>2026-03-26T21:37:23Z</time></trkpt><trkpt lat="43.80229284386968" lon="7.628459321348359"><ele>14.0</ele><time>2026-03-26T21:37:24Z</time></trkpt><trkpt lat="43.80241127127737" lon="7.628446863078211"><ele>13.5</ele><time>2026-03-26T21:37:25Z</time></trkpt><trkpt lat="43.80252758116974" lon="7.628424181479381"><ele>13.0</ele><time>2026-03-26T21:37:26Z</time></trkpt><trkpt lat="43.80263417773207" lon="7.628405752918445"><ele>13.25</ele><time>2026-03-26T21:37:27Z</time></trkpt><trkpt lat="43.80273952410498" lon="7.62839136922027"><ele>13.5</ele><time>2026-03-26T21:37:28Z</time></trkpt><trkpt lat="43.80284689587851" lon="7.628379708694049"><ele>13.75</ele><time>2026-03-26T21:37:29Z</time></trkpt><trkpt lat="43.802966325062386" lon="7.628371220698256"><ele>14.0</ele><time>2026-03-26T21:37:30Z</time></trkpt><trkpt lat="43.803093745289935" lon="7.628362057957473"><ele>14.0</ele><time>2026-03-26T21:37:31Z</time></trkpt><trkpt lat="43.8032180612976" lon="7.628362988178221"><ele>14.0</ele><time>2026-03-26T21:37:32Z</time></trkpt><trkpt lat="43.80333000741647" lon="7.628372064119982"><ele>14.0</ele><time>2026-03-26T21:37:33Z</time></trkpt><trkpt lat="43.80343375174404" lon="7.628396936398583"><ele>14.0</ele><time>2026-03-26T21:37:34Z</time></trkpt><trkpt lat="43.80354798376435" lon="7.628399803508896"><ele>14.25</ele><time>2026-03-26T21:37:35Z</time></trkpt><trkpt lat="43.80367131189157" lon="7.6283898348429755"><ele>14.5</ele><time>2026-03-26T21:37:36Z</time></trkpt><trkpt lat="43.80379262497182" lon="7.628390655095434"><ele>14.75</ele><time>2026-03-26T21:37:37Z</time></trkpt><trkpt lat="43.80391099769014" lon="7.628393673562715"><ele>15.0</ele><time>2026-03-26T21:37:38Z</time></trkpt><trkpt lat="43.80402446409851" lon="7.628392494099104"><ele>15.0</ele><time>2026-03-26T21:37:39Z</time></trkpt><trkpt lat="43.80413243077487" lon="7.628386599598225"><ele>15.0</ele><time>2026-03-26T21:37:40Z</time></trkpt><trkpt lat="43.80423554025107" lon="7.628383753724619"><ele>15.0</ele><time>2026-03-26T21:37:41Z</time></trkpt><trkpt lat="43.80433191309104" lon="7.628360740305186"><ele>15.0</ele><time>2026-03-26T21:37:42Z</time></trkpt><trkpt lat="43.80441701828537" lon="7.628300099716989"><ele>15.0</ele><time>2026-03-26T21:37:43Z</time></trkpt><trkpt lat="43.80448578663871" lon="7.628192778742361"><ele>15.2</ele><time>2026-03-26T21:37:44Z</time></trkpt><trkpt lat="43.80453820247538" lon="7.628064776107699"><ele>15.4</ele><time>2026-03-26T21:37:45Z</time></trkpt><trkpt lat="43.8045815912293" lon="7.627944151877094"><ele>15.600000000000001</ele><time>2026-03-26T21:37:46Z</time></trkpt><trkpt lat="43.80463542500648" lon="7.627845253751797"><ele>15.8</ele><time>2026-03-26T21:37:47Z</time></trkpt><trkpt lat="43.80468873820844" lon="7.6277462807963206"><ele>16.0</ele><time>2026-03-26T21:37:48Z</time></trkpt><trkpt lat="43.804713431461686" lon="7.627622278803281"><ele>16.25</ele><time>2026-03-26T21:37:49Z</time></trkpt><trkpt lat="43.804711647289295" lon="7.62746458319151"><ele>16.5</ele><time>2026-03-26T21:37:50Z</time></trkpt><trkpt lat="43.80472634903205" lon="7.627279116354361"><ele>16.75</ele><time>2026-03-26T21:37:51Z</time></trkpt><trkpt lat="43.80476415014517" lon="7.627088275044939"><ele>17.0</ele><time>2026-03-26T21:37:52Z</time></trkpt><trkpt lat="43.804796562644164" lon="7.626898318895004"><ele>16.2</ele><time>2026-03-26T21:37:53Z</time></trkpt><trkpt lat="43.804820457354026" lon="7.626735458339484"><ele>15.399999999999999</ele><time>2026-03-26T21:37:54Z</time></trkpt><trkpt lat="43.804846280795935" lon="7.626587035904402"><ele>14.600000000000001</ele><time>2026-03-26T21:37:55Z</time></trkpt><trkpt lat="43.80486775651957" lon="7.626448290603127"><ele>13.8</ele><time>2026-03-26T21:37:56Z</time></trkpt><trkpt lat="43.8048829547436" lon="7.626304281635901"><ele>13.0</ele><time>2026-03-26T21:37:57Z</time></trkpt><trkpt lat="43.80490085948671" lon="7.626161169038375"><ele>12.8</ele><time>2026-03-26T21:37:58Z</time></trkpt><trkpt lat="43.804917963741666" lon="7.626017971867548"><ele>12.600000000000001</ele><time>2026-03-26T21:37:59Z</time></trkpt><trkpt lat="43.80493707142947" lon="7.62587302698072"><ele>12.399999999999999</ele><time>2026-03-26T21:38:00Z</time></trkpt><trkpt lat="43.80495760093071" lon="7.625716698678337"><ele>12.2</ele><time>2026-03-26T21:38:01Z</time></trkpt><trkpt lat="43.804975682561555" lon="7.625564318453777"><ele>12.0</ele><time>2026-03-26T21:38:02Z</time></trkpt><trkpt lat="43.80499267259686" lon="7.625426343724494"><ele>13.0</ele><time>2026-03-26T21:38:03Z</time></trkpt><trkpt lat="43.80500962081088" lon="7.625308142218829"><ele>14.0</ele><time>2026-03-26T21:38:04Z</time></trkpt><trkpt lat="43.805022246315175" lon="7.625210733542202"><ele>15.0</ele><time>2026-03-26T21:38:05Z</time></trkpt><trkpt lat="43.805058739170384" lon="7.625098338947847"><ele>16.0</ele><time>2026-03-26T21:38:07Z</time></trkpt><trkpt lat="43.80510655580228" lon="7.625039460346339"><ele>17.0</ele><time>2026-03-26T21:38:08Z</time></trkpt><trkpt lat="43.805176051327976" lon="7.624972626210782"><ele>18.0</ele><time>2026-03-26T21:38:09Z</time></trkpt><trkpt lat="43.805261453331994" lon="7.624907597445268"><ele>19.75</ele><time>2026-03-26T21:38:10Z</time></trkpt><trkpt lat="43.80536274915372" lon="7.624860663150818"><ele>21.5</ele><time>2026-03-26T21:38:11Z</time></trkpt><trkpt lat="43.805474459279544" lon="7.624842258208599"><ele>23.25</ele><time>2026-03-26T21:38:12Z</time></trkpt><trkpt lat="43.805595364711486" lon="7.624855761493281"><ele>25.0</ele><time>2026-03-26T21:38:13Z</time></trkpt><trkpt lat="43.80572507346707" lon="7.624884384344779"><ele>25.0</ele><time>2026-03-26T21:38:14Z</time></trkpt><trkpt lat="43.80587908747368" lon="7.624903132983229"><ele>25.0</ele><time>2026-03-26T21:38:15Z</time></trkpt><trkpt lat="43.80604776699791" lon="7.624918979931376"><ele>25.0</ele><time>2026-03-26T21:38:16Z</time></trkpt><trkpt lat="43.80622909401245" lon="7.624926854558055"><ele>25.333333333333336</ele><time>2026-03-26T21:38:17Z</time></trkpt><trkpt lat="43.80639181836902" lon="7.624942947216338"><ele>25.666666666666664</ele><time>2026-03-26T21:38:18Z</time></trkpt><trkpt lat="43.80654269274975" lon="7.624956439754109"><ele>26.0</ele><time>2026-03-26T21:38:19Z</time></trkpt><trkpt lat="43.806687703261225" lon="7.624962229394549"><ele>26.0</ele><time>2026-03-26T21:38:20Z</time></trkpt><trkpt lat="43.80682420480851" lon="7.624969699057074"><ele>26.0</ele><time>2026-03-26T21:38:21Z</time></trkpt><trkpt lat="43.806958096325545" lon="7.624981803106544"><ele>26.0</ele><time>2026-03-26T21:38:22Z</time></trkpt><trkpt lat="43.80708591034155" lon="7.624993963485284"><ele>26.0</ele><time>2026-03-26T21:38:23Z</time></trkpt><trkpt lat="43.80721075123147" lon="7.6250022259525965"><ele>25.0</ele><time>2026-03-26T21:38:24Z</time></trkpt><trkpt lat="43.80733722089386" lon="7.625022762798491"><ele>24.0</ele><time>2026-03-26T21:38:25Z</time></trkpt><trkpt lat="43.807467009377305" lon="7.625049157555829"><ele>23.0</ele><time>2026-03-26T21:38:26Z</time></trkpt><trkpt lat="43.8075914274661" lon="7.625086570079165"><ele>22.0</ele><time>2026-03-26T21:38:27Z</time></trkpt><trkpt lat="43.807722098146755" lon="7.625131558099899"><ele>21.25</ele><time>2026-03-26T21:38:28Z</time></trkpt><trkpt lat="43.807856254098574" lon="7.625187593899799"><ele>20.5</ele><time>2026-03-26T21:38:29Z</time></trkpt><trkpt lat="43.807998505450385" lon="7.625250942342132"><ele>19.75</ele><time>2026-03-26T21:38:30Z</time></trkpt><trkpt lat="43.80812451482134" lon="7.625317512536993"><ele>19.0</ele><time>2026-03-26T21:38:31Z</time></trkpt><trkpt lat="43.80824524402734" lon="7.625396704394439"><ele>18.75</ele><time>2026-03-26T21:38:32Z</time></trkpt><trkpt lat="43.80836505483403" lon="7.625480342541753"><ele>18.5</ele><time>2026-03-26T21:38:33Z</time></trkpt><trkpt lat="43.80849022674022" lon="7.625572884130705"><ele>18.25</ele><time>2026-03-26T21:38:34Z</time></trkpt><trkpt lat="43.80862132539145" lon="7.625673605469398"><ele>18.0</ele><time>2026-03-26T21:38:35Z</time></trkpt><trkpt lat="43.80874616610725" lon="7.625792641712233"><ele>18.0</ele><time>2026-03-26T21:38:36Z</time></trkpt><trkpt lat="43.80887389702152" lon="7.625914260275114"><ele>18.0</ele><time>2026-03-26T21:38:37Z</time></trkpt><trkpt lat="43.80900395462175" lon="7.626041037055305"><ele>18.0</ele><time>2026-03-26T21:38:38Z</time></trkpt><trkpt lat="43.80914207093398" lon="7.626173019052265"><ele>18.0</ele><time>2026-03-26T21:38:39Z</time></trkpt><trkpt lat="43.8092879465341" lon="7.626315122742641"><ele>18.0</ele><time>2026-03-26T21:38:40Z</time></trkpt><trkpt lat="43.80943784475143" lon="7.626461385443895"><ele>18.0</ele><time>2026-03-26T21:38:41Z</time></trkpt><trkpt lat="43.80957240973671" lon="7.626591144733685"><ele>18.25</ele><time>2026-03-26T21:38:42Z</time></trkpt><trkpt lat="43.809696109071794" lon="7.626711392233939"><ele>18.5</ele><time>2026-03-26T21:38:43Z</time></trkpt><trkpt lat="43.8098095368131" lon="7.626825012092668"><ele>18.75</ele><time>2026-03-26T21:38:44Z</time></trkpt><trkpt lat="43.8099081310632" lon="7.626923920518819"><ele>19.0</ele><time>2026-03-26T21:38:45Z</time></trkpt><trkpt lat="43.80999749965161" lon="7.627007275247134"><ele>18.8</ele><time>2026-03-26T21:38:46Z</time></trkpt><trkpt lat="43.81008783754272" lon="7.627093495821209"><ele>18.599999999999998</ele><time>2026-03-26T21:38:47Z</time></trkpt><trkpt lat="43.810175204818215" lon="7.627184926574514"><ele>18.4</ele><time>2026-03-26T21:38:48Z</time></trkpt><trkpt lat="43.81026759757821" lon="7.6272775690679815"><ele>18.2</ele><time>2026-03-26T21:38:49Z</time></trkpt><trkpt lat="43.81036080699789" lon="7.62736954187827"><ele>18.0</ele><time>2026-03-26T21:38:50Z</time></trkpt><trkpt lat="43.81045462223677" lon="7.627451194400278"><ele>18.0</ele><time>2026-03-26T21:38:51Z</time></trkpt><trkpt lat="43.81054321107105" lon="7.627538146830767"><ele>18.0</ele><time>2026-03-26T21:38:52Z</time></trkpt><trkpt lat="43.81062813891871" lon="7.627618671273595"><ele>18.0</ele><time>2026-03-26T21:38:53Z</time></trkpt><trkpt lat="43.810711586143945" lon="7.62769117524116"><ele>18.0</ele><time>2026-03-26T21:38:54Z</time></trkpt><trkpt lat="43.8107933265689" lon="7.6277447574459"><ele>18.0</ele><time>2026-03-26T21:38:55Z</time></trkpt><trkpt lat="43.81084994063568" lon="7.627785201616561"><ele>18.333333333333332</ele><time>2026-03-26T21:38:56Z</time></trkpt><trkpt lat="43.810890806711875" lon="7.627899920423261"><ele>18.666666666666668</ele><time>2026-03-26T21:38:58Z</time></trkpt><trkpt lat="43.8108444201663" lon="7.628000013235218"><ele>19.0</ele><time>2026-03-26T21:39:00Z</time></trkpt><trkpt lat="43.81081989862925" lon="7.628085996488559"><ele>19.333333333333336</ele><time>2026-03-26T21:39:03Z</time></trkpt><trkpt lat="43.810803158936146" lon="7.628208261354185"><ele>19.666666666666668</ele><time>2026-03-26T21:39:43Z</time></trkpt><trkpt lat="43.810789240971395" lon="7.628303307578056"><ele>20.0</ele><time>2026-03-26T21:39:44Z</time></trkpt><trkpt lat="43.81078508149978" lon="7.628406821340642"><ele>20.0</ele><time>2026-03-26T21:39:45Z</time></trkpt><trkpt lat="43.81077483413742" lon="7.6285025033219025"><ele>20.0</ele><time>2026-03-26T21:39:46Z</time></trkpt><trkpt lat="43.81076870638" lon="7.6285921274457715"><ele>20.0</ele><time>2026-03-26T21:39:47Z</time></trkpt><trkpt lat="43.810775508042276" lon="7.628757093392586"><ele>20.0</ele><time>2026-03-26T21:39:49Z</time></trkpt><trkpt lat="43.81079537393106" lon="7.628839890886699"><ele>20.0</ele><time>2026-03-26T21:39:50Z</time></trkpt><trkpt lat="43.81082563513092" lon="7.628917364454618"><ele>20.0</ele><time>2026-03-26T21:39:51Z</time></trkpt><trkpt lat="43.81087583155659" lon="7.629000599766201"><ele>19.8</ele><time>2026-03-26T21:39:52Z</time></trkpt><trkpt lat="43.81093007478388" lon="7.629097710131839"><ele>19.6</ele><time>2026-03-26T21:39:53Z</time></trkpt><trkpt lat="43.81098804199753" lon="7.629210442513372"><ele>19.4</ele><time>2026-03-26T21:39:54Z</time></trkpt><trkpt lat="43.81105523343953" lon="7.629330283982961"><ele>19.2</ele><time>2026-03-26T21:39:55Z</time></trkpt><trkpt lat="43.81112246780883" lon="7.62946039505975"><ele>19.0</ele><time>2026-03-26T21:39:56Z</time></trkpt><trkpt lat="43.811191005459726" lon="7.629592446282558"><ele>19.0</ele><time>2026-03-26T21:39:57Z</time></trkpt><trkpt lat="43.81125760125436" lon="7.629720276234981"><ele>19.0</ele><time>2026-03-26T21:39:58Z</time></trkpt><trkpt lat="43.811321379177556" lon="7.629846196695824"><ele>19.0</ele><time>2026-03-26T21:39:59Z</time></trkpt><trkpt lat="43.81138142532606" lon="7.629967138391486"><ele>19.0</ele><time>2026-03-26T21:40:00Z</time></trkpt><trkpt lat="43.81143651257001" lon="7.630081206381934"><ele>19.0</ele><time>2026-03-26T21:40:01Z</time></trkpt><trkpt lat="43.81148617520605" lon="7.630178056526254"><ele>19.0</ele><time>2026-03-26T21:40:02Z</time></trkpt><trkpt lat="43.81152344239895" lon="7.630254412096128"><ele>19.0</ele><time>2026-03-26T21:40:03Z</time></trkpt><trkpt lat="43.8115930201093" lon="7.63039526578797"><ele>19.0</ele><time>2026-03-26T21:40:05Z</time></trkpt><trkpt lat="43.81163253827784" lon="7.630473328048115"><ele>19.0</ele><time>2026-03-26T21:40:06Z</time></trkpt><trkpt lat="43.811672888156636" lon="7.63056224276809"><ele>19.0</ele><time>2026-03-26T21:40:07Z</time></trkpt><trkpt lat="43.81171822131603" lon="7.630643978015131"><ele>19.0</ele><time>2026-03-26T21:40:08Z</time></trkpt><trkpt lat="43.81176244765104" lon="7.63071930464981"><ele>18.833333333333332</ele><time>2026-03-26T21:40:09Z</time></trkpt><trkpt lat="43.81180181234852" lon="7.630803029264885"><ele>18.666666666666664</ele><time>2026-03-26T21:40:10Z</time></trkpt><trkpt lat="43.81185048343574" lon="7.63088374920217"><ele>18.5</ele><time>2026-03-26T21:40:11Z</time></trkpt><trkpt lat="43.81190303713886" lon="7.630972983432646"><ele>18.333333333333332</ele><time>2026-03-26T21:40:12Z</time></trkpt><trkpt lat="43.81195491722889" lon="7.63107833666378"><ele>18.166666666666668</ele><time>2026-03-26T21:40:13Z</time></trkpt><trkpt lat="43.81201093526592" lon="7.631183521847184"><ele>18.0</ele><time>2026-03-26T21:40:14Z</time></trkpt><trkpt lat="43.81207269510709" lon="7.631294506100321"><ele>18.4</ele><time>2026-03-26T21:40:15Z</time></trkpt><trkpt lat="43.81214418749024" lon="7.631414489697535"><ele>18.8</ele><time>2026-03-26T21:40:16Z</time></trkpt><trkpt lat="43.812215920287706" lon="7.631533163893981"><ele>19.2</ele><time>2026-03-26T21:40:17Z</time></trkpt><trkpt lat="43.81227698537869" lon="7.631632865964874"><ele>19.6</ele><time>2026-03-26T21:40:18Z</time></trkpt><trkpt lat="43.8123417844513" lon="7.631731265988593"><ele>20.0</ele><time>2026-03-26T21:40:19Z</time></trkpt><trkpt lat="43.81241129194334" lon="7.631814135690522"><ele>20.0</ele><time>2026-03-26T21:40:20Z</time></trkpt><trkpt lat="43.81248705622009" lon="7.631883645193844"><ele>20.0</ele><time>2026-03-26T21:40:21Z</time></trkpt><trkpt lat="43.81258022872207" lon="7.631961788686356"><ele>20.0</ele><time>2026-03-26T21:40:22Z</time></trkpt><trkpt lat="43.812682216577656" lon="7.632045989383862"><ele>20.0</ele><time>2026-03-26T21:40:23Z</time></trkpt><trkpt lat="43.81278324813362" lon="7.632128598894735"><ele>20.0</ele><time>2026-03-26T21:40:24Z</time></trkpt><trkpt lat="43.81287271259094" lon="7.632205177406503"><ele>20.0</ele><time>2026-03-26T21:40:25Z</time></trkpt><trkpt lat="43.81296106575451" lon="7.63227498120049"><ele>20.0</ele><time>2026-03-26T21:40:26Z</time></trkpt><trkpt lat="43.813055567453034" lon="7.632339554134581"><ele>20.0</ele><time>2026-03-26T21:40:27Z</time></trkpt><trkpt lat="43.81314756883775" lon="7.632398237036357"><ele>20.0</ele><time>2026-03-26T21:40:28Z</time></trkpt><trkpt lat="43.81323833934995" lon="7.632453138161591"><ele>20.0</ele><time>2026-03-26T21:40:29Z</time></trkpt><trkpt lat="43.813324366304535" lon="7.6325051405074325"><ele>20.0</ele><time>2026-03-26T21:40:30Z</time></trkpt><trkpt lat="43.813392260893586" lon="7.6325402668638676"><ele>20.0</ele><time>2026-03-26T21:40:31Z</time></trkpt><trkpt lat="43.81348835600942" lon="7.632543669881225"><ele>20.0</ele><time>2026-03-26T21:40:33Z</time></trkpt><trkpt lat="43.81355659649241" lon="7.6324146772279855"><ele>20.0</ele><time>2026-03-26T21:40:35Z</time></trkpt><trkpt lat="43.81358151807295" lon="7.632315538421727"><ele>20.0</ele><time>2026-03-26T21:40:36Z</time></trkpt><trkpt lat="43.81361709428071" lon="7.632212767315347"><ele>20.0</ele><time>2026-03-26T21:40:37Z</time></trkpt><trkpt lat="43.813660795905584" lon="7.63209989973072"><ele>20.0</ele><time>2026-03-26T21:40:38Z</time></trkpt><trkpt lat="43.81370793864334" lon="7.631989387385027"><ele>20.0</ele><time>2026-03-26T21:40:39Z</time></trkpt><trkpt lat="43.8137501484437" lon="7.631890427844724"><ele>20.0</ele><time>2026-03-26T21:40:40Z</time></trkpt><trkpt lat="43.81379166252279" lon="7.6318014515039465"><ele>20.0</ele><time>2026-03-26T21:40:41Z</time></trkpt><trkpt lat="43.81383350062429" lon="7.6317170891348285"><ele>20.0</ele><time>2026-03-26T21:40:42Z</time></trkpt><trkpt lat="43.81387873395172" lon="7.63162564233445"><ele>20.0</ele><time>2026-03-26T21:40:43Z</time></trkpt><trkpt lat="43.81392114840383" lon="7.631523705027129"><ele>20.166666666666668</ele><time>2026-03-26T21:40:44Z</time></trkpt><trkpt lat="43.81396562823229" lon="7.6314243653545"><ele>20.333333333333336</ele><time>2026-03-26T21:40:45Z</time></trkpt><trkpt lat="43.81400896511613" lon="7.631335016259759"><ele>20.5</ele><time>2026-03-26T21:40:46Z</time></trkpt><trkpt lat="43.81404887194238" lon="7.631249854150138"><ele>20.666666666666668</ele><time>2026-03-26T21:40:47Z</time></trkpt><trkpt lat="43.81408113590512" lon="7.6311674821518265"><ele>20.833333333333332</ele><time>2026-03-26T21:40:48Z</time></trkpt><trkpt lat="43.81414637273705" lon="7.63106178201024"><ele>21.0</ele><time>2026-03-26T21:40:50Z</time></trkpt><trkpt lat="43.81424463336736" lon="7.631023599852958"><ele>21.0</ele><time>2026-03-26T21:40:53Z</time></trkpt><trkpt lat="43.81430806838106" lon="7.6310759891890605"><ele>21.0</ele><time>2026-03-26T21:40:54Z</time></trkpt><trkpt lat="43.81438176978168" lon="7.631130801654584"><ele>21.0</ele><time>2026-03-26T21:40:55Z</time></trkpt><trkpt lat="43.81446367933584" lon="7.631203404967082"><ele>21.0</ele><time>2026-03-26T21:40:56Z</time></trkpt><trkpt lat="43.81455257922512" lon="7.63128838854603"><ele>21.0</ele><time>2026-03-26T21:40:57Z</time></trkpt><trkpt lat="43.81464735903535" lon="7.6313678620908485"><ele>21.25</ele><time>2026-03-26T21:40:58Z</time></trkpt><trkpt lat="43.81475106317846" lon="7.631454552305477"><ele>21.5</ele><time>2026-03-26T21:40:59Z</time></trkpt><trkpt lat="43.814852035131594" lon="7.631536384544737"><ele>21.75</ele><time>2026-03-26T21:41:00Z</time></trkpt><trkpt lat="43.81494580458907" lon="7.6316137262759325"><ele>22.0</ele><time>2026-03-26T21:41:01Z</time></trkpt><trkpt lat="43.81503307267178" lon="7.631690434628356"><ele>22.0</ele><time>2026-03-26T21:41:02Z</time></trkpt><trkpt lat="43.81511452948335" lon="7.631762769669944"><ele>22.0</ele><time>2026-03-26T21:41:03Z</time></trkpt><trkpt lat="43.81518716452088" lon="7.631840229213375"><ele>22.0</ele><time>2026-03-26T21:41:04Z</time></trkpt><trkpt lat="43.815258008297654" lon="7.631930065457306"><ele>22.0</ele><time>2026-03-26T21:41:05Z</time></trkpt><trkpt lat="43.81531357550248" lon="7.632037457606095"><ele>22.0</ele><time>2026-03-26T21:41:06Z</time></trkpt><trkpt lat="43.8153641280693" lon="7.632146692455614"><ele>21.833333333333332</ele><time>2026-03-26T21:41:07Z</time></trkpt><trkpt lat="43.81541410539334" lon="7.632246322455856"><ele>21.666666666666664</ele><time>2026-03-26T21:41:08Z</time></trkpt><trkpt lat="43.815466619515156" lon="7.632331914903021"><ele>21.5</ele><time>2026-03-26T21:41:09Z</time></trkpt><trkpt lat="43.815531075423486" lon="7.632400893749922"><ele>21.333333333333332</ele><time>2026-03-26T21:41:10Z</time></trkpt><trkpt lat="43.81560157022153" lon="7.632473432458347"><ele>21.166666666666668</ele><time>2026-03-26T21:41:11Z</time></trkpt><trkpt lat="43.81569914958835" lon="7.632509091846913"><ele>21.0</ele><time>2026-03-26T21:41:12Z</time></trkpt><trkpt lat="43.815805891523354" lon="7.63249888969323"><ele>21.0</ele><time>2026-03-26T21:41:13Z</time></trkpt><trkpt lat="43.815920725714875" lon="7.632504976819763"><ele>21.0</ele><time>2026-03-26T21:41:14Z</time></trkpt><trkpt lat="43.816040273430744" lon="7.632511208899437"><ele>21.0</ele><time>2026-03-26T21:41:15Z</time></trkpt><trkpt lat="43.81615700153079" lon="7.632520292561909"><ele>21.0</ele><time>2026-03-26T21:41:16Z</time></trkpt><trkpt lat="43.81626444150238" lon="7.632528520820875"><ele>21.75</ele><time>2026-03-26T21:41:17Z</time></trkpt><trkpt lat="43.816376191996895" lon="7.632527087752858"><ele>22.5</ele><time>2026-03-26T21:41:18Z</time></trkpt><trkpt lat="43.816494366776965" lon="7.632527908338491"><ele>23.25</ele><time>2026-03-26T21:41:19Z</time></trkpt><trkpt lat="43.81662074248384" lon="7.6325379853037365"><ele>24.0</ele><time>2026-03-26T21:41:20Z</time></trkpt><trkpt lat="43.81675494159423" lon="7.6325527639573005"><ele>24.0</ele><time>2026-03-26T21:41:21Z</time></trkpt><trkpt lat="43.816889688651564" lon="7.632575639022095"><ele>24.0</ele><time>2026-03-26T21:41:22Z</time></trkpt><trkpt lat="43.81702020744427" lon="7.632586875614888"><ele>24.0</ele><time>2026-03-26T21:41:23Z</time></trkpt><trkpt lat="43.81715047989984" lon="7.632588217575181"><ele>24.0</ele><time>2026-03-26T21:41:24Z</time></trkpt><trkpt lat="43.81727765968353" lon="7.632587538232167"><ele>24.0</ele><time>2026-03-26T21:41:25Z</time></trkpt><trkpt lat="43.817400505153635" lon="7.63259236437451"><ele>24.0</ele><time>2026-03-26T21:41:26Z</time></trkpt><trkpt lat="43.81753056287038" lon="7.632606508205018"><ele>24.0</ele><time>2026-03-26T21:41:27Z</time></trkpt><trkpt lat="43.81765402320583" lon="7.632617038395227"><ele>24.0</ele><time>2026-03-26T21:41:28Z</time></trkpt><trkpt lat="43.81777431386484" lon="7.632619852528159"><ele>24.2</ele><time>2026-03-26T21:41:29Z</time></trkpt><trkpt lat="43.817885318971165" lon="7.63262252358037"><ele>24.4</ele><time>2026-03-26T21:41:30Z</time></trkpt><trkpt lat="43.817990450459504" lon="7.632624409486683"><ele>24.6</ele><time>2026-03-26T21:41:31Z</time></trkpt><trkpt lat="43.818089809788034" lon="7.6326271668088355"><ele>24.8</ele><time>2026-03-26T21:41:32Z</time></trkpt><trkpt lat="43.818182032657006" lon="7.632625359933735"><ele>25.0</ele><time>2026-03-26T21:41:33Z</time></trkpt><trkpt lat="43.81826325373389" lon="7.632619298555112"><ele>25.000000000000004</ele><time>2026-03-26T21:41:34Z</time></trkpt><trkpt lat="43.81833564476573" lon="7.632613385531348"><ele>25.0</ele><time>2026-03-26T21:41:35Z</time></trkpt><trkpt lat="43.81840888315909" lon="7.63261819549731"><ele>25.0</ele><time>2026-03-26T21:41:36Z</time></trkpt><trkpt lat="43.81849424110097" lon="7.632624515946596"><ele>25.0</ele><time>2026-03-26T21:41:37Z</time></trkpt><trkpt lat="43.81857745330998" lon="7.6326172714290585"><ele>25.000000000000004</ele><time>2026-03-26T21:41:38Z</time></trkpt><trkpt lat="43.81864838840514" lon="7.632601280272108"><ele>25.0</ele><time>2026-03-26T21:41:39Z</time></trkpt><trkpt lat="43.818766052869684" lon="7.6325690381774765"><ele>25.0</ele><time>2026-03-26T21:41:41Z</time></trkpt><trkpt lat="43.8188399658922" lon="7.632554947302378"><ele>25.0</ele><time>2026-03-26T21:41:42Z</time></trkpt><trkpt lat="43.81892444330847" lon="7.632540429686603"><ele>25.0</ele><time>2026-03-26T21:41:43Z</time></trkpt><trkpt lat="43.819025052847245" lon="7.632524930265295"><ele>25.0</ele><time>2026-03-26T21:41:44Z</time></trkpt><trkpt lat="43.81913635967149" lon="7.632505843783132"><ele>25.0</ele><time>2026-03-26T21:41:45Z</time></trkpt><trkpt lat="43.819237914034176" lon="7.632495490004034"><ele>25.166666666666668</ele><time>2026-03-26T21:41:46Z</time></trkpt><trkpt lat="43.81932850816643" lon="7.632469208973985"><ele>25.333333333333336</ele><time>2026-03-26T21:41:47Z</time></trkpt><trkpt lat="43.81940748769506" lon="7.6324266544951715"><ele>25.5</ele><time>2026-03-26T21:41:48Z</time></trkpt><trkpt lat="43.81947826770553" lon="7.632370862396054"><ele>25.666666666666664</ele><time>2026-03-26T21:41:49Z</time></trkpt><trkpt lat="43.81955242777193" lon="7.632324181754319"><ele>25.833333333333332</ele><time>2026-03-26T21:41:50Z</time></trkpt><trkpt lat="43.819624822488265" lon="7.632249821075604"><ele>26.0</ele><time>2026-03-26T21:41:51Z</time></trkpt><trkpt lat="43.81969876308299" lon="7.632175319741968"><ele>26.0</ele><time>2026-03-26T21:41:52Z</time></trkpt><trkpt lat="43.81978335400519" lon="7.632109621335365"><ele>26.0</ele><time>2026-03-26T21:41:53Z</time></trkpt><trkpt lat="43.81986257511453" lon="7.632021332190212"><ele>26.0</ele><time>2026-03-26T21:41:54Z</time></trkpt><trkpt lat="43.81995045926653" lon="7.631953661093316"><ele>26.0</ele><time>2026-03-26T21:41:55Z</time></trkpt><trkpt lat="43.82004009300185" lon="7.631883977569742"><ele>26.0</ele><time>2026-03-26T21:41:56Z</time></trkpt><trkpt lat="43.820129457361716" lon="7.631810497676966"><ele>26.200000000000003</ele><time>2026-03-26T21:41:57Z</time></trkpt><trkpt lat="43.82021823279052" lon="7.6317307336286975"><ele>26.400000000000002</ele><time>2026-03-26T21:41:58Z</time></trkpt><trkpt lat="43.82031056636124" lon="7.631652022875871"><ele>26.6</ele><time>2026-03-26T21:41:59Z</time></trkpt><trkpt lat="43.82040575501163" lon="7.631575467577898"><ele>26.8</ele><time>2026-03-26T21:42:00Z</time></trkpt><trkpt lat="43.82050079820191" lon="7.631506801054139"><ele>27.0</ele><time>2026-03-26T21:42:01Z</time></trkpt><trkpt lat="43.82059506289968" lon="7.63145066868434"><ele>27.0</ele><time>2026-03-26T21:42:02Z</time></trkpt><trkpt lat="43.820685970203996" lon="7.631399978140444"><ele>27.000000000000004</ele><time>2026-03-26T21:42:03Z</time></trkpt><trkpt lat="43.82077902509527" lon="7.631356258716459"><ele>27.000000000000004</ele><time>2026-03-26T21:42:04Z</time></trkpt><trkpt lat="43.82087166546586" lon="7.631318084132441"><ele>27.0</ele><time>2026-03-26T21:42:05Z</time></trkpt><trkpt lat="43.820960955835204" lon="7.631284676945106"><ele>27.0</ele><time>2026-03-26T21:42:06Z</time></trkpt><trkpt lat="43.821042068442026" lon="7.631253473358499"><ele>26.833333333333332</ele><time>2026-03-26T21:42:07Z</time></trkpt><trkpt lat="43.82111601074892" lon="7.6312218965561245"><ele>26.666666666666664</ele><time>2026-03-26T21:42:08Z</time></trkpt><trkpt lat="43.82118163212122" lon="7.631190074399014"><ele>26.5</ele><time>2026-03-26T21:42:09Z</time></trkpt><trkpt lat="43.821271368407956" lon="7.6311406154604216"><ele>26.333333333333332</ele><time>2026-03-26T21:42:11Z</time></trkpt><trkpt lat="43.82131857696135" lon="7.631074029757855"><ele>26.166666666666664</ele><time>2026-03-26T21:42:14Z</time></trkpt><trkpt lat="43.821407438807114" lon="7.631038976073753"><ele>26.0</ele><time>2026-03-26T21:42:19Z</time></trkpt><trkpt lat="43.82150591361725" lon="7.630982897920282"><ele>26.142857142857142</ele><time>2026-03-26T21:42:21Z</time></trkpt><trkpt lat="43.821566556108785" lon="7.630956028890892"><ele>26.28571428571429</ele><time>2026-03-26T21:42:22Z</time></trkpt><trkpt lat="43.82163050863205" lon="7.630931676067595"><ele>26.42857142857143</ele><time>2026-03-26T21:42:23Z</time></trkpt><trkpt lat="43.82169895018641" lon="7.630903859933194"><ele>26.57142857142857</ele><time>2026-03-26T21:42:24Z</time></trkpt><trkpt lat="43.82177185008598" lon="7.630874693193914"><ele>26.714285714285715</ele><time>2026-03-26T21:42:25Z</time></trkpt><trkpt lat="43.82184801887146" lon="7.630846391930789"><ele>26.857142857142858</ele><time>2026-03-26T21:42:26Z</time></trkpt><trkpt lat="43.82192543889542" lon="7.630820457454224"><ele>27.0</ele><time>2026-03-26T21:42:27Z</time></trkpt><trkpt lat="43.82199734162332" lon="7.630793270433901"><ele>27.0</ele><time>2026-03-26T21:42:28Z</time></trkpt><trkpt lat="43.822067837453965" lon="7.63077159855656"><ele>27.0</ele><time>2026-03-26T21:42:29Z</time></trkpt><trkpt lat="43.822138823303426" lon="7.630752677538722"><ele>27.0</ele><time>2026-03-26T21:42:30Z</time></trkpt><trkpt lat="43.822207166143095" lon="7.630729222951756"><ele>27.0</ele><time>2026-03-26T21:42:31Z</time></trkpt><trkpt lat="43.82227086535633" lon="7.630706691862028"><ele>27.0</ele><time>2026-03-26T21:42:32Z</time></trkpt><trkpt lat="43.8223833821939" lon="7.630669750379311"><ele>27.0</ele><time>2026-03-26T21:42:34Z</time></trkpt><trkpt lat="43.822508509379176" lon="7.630630578117352"><ele>27.0</ele><time>2026-03-26T21:42:36Z</time></trkpt><trkpt lat="43.822577728150556" lon="7.630600010067563"><ele>27.0</ele><time>2026-03-26T21:42:37Z</time></trkpt><trkpt lat="43.82264618144831" lon="7.630557348730957"><ele>27.0</ele><time>2026-03-26T21:42:38Z</time></trkpt><trkpt lat="43.82271205689352" lon="7.630511971590601"><ele>27.0</ele><time>2026-03-26T21:42:39Z</time></trkpt><trkpt lat="43.82277451175884" lon="7.630461783372167"><ele>27.0</ele><time>2026-03-26T21:42:40Z</time></trkpt><trkpt lat="43.82283145102379" lon="7.6304053603924045"><ele>27.0</ele><time>2026-03-26T21:42:41Z</time></trkpt><trkpt lat="43.8228845087194" lon="7.630351212936254"><ele>27.0</ele><time>2026-03-26T21:42:42Z</time></trkpt><trkpt lat="43.822981045413904" lon="7.630267111867602"><ele>27.200000000000003</ele><time>2026-03-26T21:42:44Z</time></trkpt><trkpt lat="43.82306082980012" lon="7.630195739439352"><ele>27.400000000000002</ele><time>2026-03-26T21:42:46Z</time></trkpt><trkpt lat="43.82312496563593" lon="7.630097617443156"><ele>27.599999999999998</ele><time>2026-03-26T21:42:48Z</time></trkpt><trkpt lat="43.82313437027271" lon="7.629934518064951"><ele>27.799999999999997</ele><time>2026-03-26T21:42:50Z</time></trkpt><trkpt lat="43.82313461299938" lon="7.629765876884861"><ele>28.0</ele><time>2026-03-26T21:42:52Z</time></trkpt><trkpt lat="43.8231338542687" lon="7.62967532636132"><ele>28.000000000000004</ele><time>2026-03-26T21:42:53Z</time></trkpt><trkpt lat="43.823133108705946" lon="7.629586347351964"><ele>28.0</ele><time>2026-03-26T21:42:54Z</time></trkpt><trkpt lat="43.82313223848378" lon="7.6294953767018905"><ele>28.0</ele><time>2026-03-26T21:42:55Z</time></trkpt><trkpt lat="43.823129983049164" lon="7.629364937721477"><ele>28.0</ele><time>2026-03-26T21:42:57Z</time></trkpt><trkpt lat="43.82312830376539" lon="7.629267819422523"><ele>28.000000000000004</ele><time>2026-03-26T21:43:01Z</time></trkpt><trkpt lat="43.823197248065824" lon="7.629225517903123"><ele>28.0</ele><time>2026-03-26T21:43:08Z</time></trkpt><trkpt lat="43.82330137407796" lon="7.629203517997489"><ele>28.833333333333336</ele><time>2026-03-26T21:43:10Z</time></trkpt><trkpt lat="43.82340573603754" lon="7.629171607437934"><ele>29.666666666666668</ele><time>2026-03-26T21:43:12Z</time></trkpt><trkpt lat="43.82347861886583" lon="7.6291171095427295"><ele>30.5</ele><time>2026-03-26T21:43:14Z</time></trkpt><trkpt lat="43.823550358450106" lon="7.629057035775871"><ele>31.333333333333336</ele><time>2026-03-26T21:43:17Z</time></trkpt><trkpt lat="43.823615751431944" lon="7.629018817264424"><ele>32.166666666666664</ele><time>2026-03-26T21:43:22Z</time></trkpt><trkpt lat="43.82366945792738" lon="7.629080806097196"><ele>33.0</ele><time>2026-03-26T21:43:27Z</time></trkpt><trkpt lat="43.823717282848435" lon="7.628926934615619"><ele>33.0</ele><time>2026-03-26T21:43:28Z</time></trkpt><trkpt lat="43.823764899220464" lon="7.628794858889616"><ele>33.0</ele><time>2026-03-26T21:43:30Z</time></trkpt><trkpt lat="43.82380520466885" lon="7.628682476111822"><ele>33.0</ele><time>2026-03-26T21:43:32Z</time></trkpt><trkpt lat="43.823829594526856" lon="7.628576730611316"><ele>33.0</ele><time>2026-03-26T21:43:35Z</time></trkpt><trkpt lat="43.82363853205932" lon="7.628500459927093"><ele>34.599999999999994</ele><time>2026-03-26T21:43:43Z</time></trkpt><trkpt lat="43.82355392744033" lon="7.628502083346117"><ele>36.199999999999996</ele><time>2026-03-26T21:43:44Z</time></trkpt><trkpt lat="43.82346165424647" lon="7.628502502137375"><ele>37.8</ele><time>2026-03-26T21:43:45Z</time></trkpt><trkpt lat="43.823362832910824" lon="7.628498230340686"><ele>39.4</ele><time>2026-03-26T21:43:46Z</time></trkpt><trkpt lat="43.82325554533943" lon="7.628490057749255"><ele>41.0</ele><time>2026-03-26T21:43:47Z</time></trkpt><trkpt lat="43.82314843456888" lon="7.628480248884892"><ele>41.199999999999996</ele><time>2026-03-26T21:43:48Z</time></trkpt><trkpt lat="43.82304422223912" lon="7.628471846054915"><ele>41.4</ele><time>2026-03-26T21:43:49Z</time></trkpt><trkpt lat="43.82294656411687" lon="7.62848558702708"><ele>41.6</ele><time>2026-03-26T21:43:50Z</time></trkpt><trkpt lat="43.822856646012966" lon="7.628467253959025"><ele>41.8</ele><time>2026-03-26T21:43:51Z</time></trkpt><trkpt lat="43.8227720217155" lon="7.628457633950074"><ele>42.0</ele><time>2026-03-26T21:43:52Z</time></trkpt><trkpt lat="43.822698817064946" lon="7.62842401579004"><ele>42.0</ele><time>2026-03-26T21:43:53Z</time></trkpt><trkpt lat="43.822626924951734" lon="7.628411340059864"><ele>42.0</ele><time>2026-03-26T21:43:54Z</time></trkpt><trkpt lat="43.822545698838134" lon="7.62841188758402"><ele>42.0</ele><time>2026-03-26T21:43:55Z</time></trkpt><trkpt lat="43.822458397924024" lon="7.628392216481297"><ele>42.0</ele><time>2026-03-26T21:43:56Z</time></trkpt><trkpt lat="43.82236153689139" lon="7.628386067560035"><ele>42.0</ele><time>2026-03-26T21:43:57Z</time></trkpt><trkpt lat="43.822254560564325" lon="7.628375960242422"><ele>42.0</ele><time>2026-03-26T21:43:58Z</time></trkpt><trkpt lat="43.82214054368072" lon="7.628370357413763"><ele>42.0</ele><time>2026-03-26T21:43:59Z</time></trkpt><trkpt lat="43.82204458367226" lon="7.628346038615168"><ele>42.0</ele><time>2026-03-26T21:44:00Z</time></trkpt><trkpt lat="43.82196527476854" lon="7.628363854603735"><ele>42.0</ele><time>2026-03-26T21:44:01Z</time></trkpt><trkpt lat="43.821868804847696" lon="7.628344273502287"><ele>42.0</ele><time>2026-03-26T21:44:03Z</time></trkpt><trkpt lat="43.821815160735795" lon="7.628288578900758"><ele>42.0</ele><time>2026-03-26T21:44:06Z</time></trkpt><trkpt lat="43.821726272553164" lon="7.628215411416825"><ele>42.0</ele><time>2026-03-26T21:44:08Z</time></trkpt><trkpt lat="43.82164481367583" lon="7.628203283948953"><ele>42.0</ele><time>2026-03-26T21:44:09Z</time></trkpt><trkpt lat="43.82155564170996" lon="7.6281677360466364"><ele>42.0</ele><time>2026-03-26T21:44:10Z</time></trkpt><trkpt lat="43.82145091731139" lon="7.628122633891237"><ele>42.0</ele><time>2026-03-26T21:44:11Z</time></trkpt><trkpt lat="43.82133847436713" lon="7.628076068578046"><ele>42.0</ele><time>2026-03-26T21:44:12Z</time></trkpt><trkpt lat="43.8212196700758" lon="7.628023835713402"><ele>42.0</ele><time>2026-03-26T21:44:13Z</time></trkpt><trkpt lat="43.82110344385726" lon="7.627977643640013"><ele>42.0</ele><time>2026-03-26T21:44:14Z</time></trkpt><trkpt lat="43.8209902083642" lon="7.6279386917292005"><ele>42.0</ele><time>2026-03-26T21:44:15Z</time></trkpt><trkpt lat="43.820881469640206" lon="7.627897734900701"><ele>42.0</ele><time>2026-03-26T21:44:16Z</time></trkpt><trkpt lat="43.820772897752235" lon="7.627853106621283"><ele>42.0</ele><time>2026-03-26T21:44:17Z</time></trkpt><trkpt lat="43.82066617219802" lon="7.62780848742168"><ele>42.0</ele><time>2026-03-26T21:44:18Z</time></trkpt><trkpt lat="43.82055070461275" lon="7.62776110819874"><ele>42.0</ele><time>2026-03-26T21:44:19Z</time></trkpt><trkpt lat="43.82042707545368" lon="7.627714587841335"><ele>42.0</ele><time>2026-03-26T21:44:20Z</time></trkpt><trkpt lat="43.82028525228474" lon="7.627659646100481"><ele>42.0</ele><time>2026-03-26T21:44:21Z</time></trkpt><trkpt lat="43.82014326835426" lon="7.627597957619747"><ele>42.0</ele><time>2026-03-26T21:44:22Z</time></trkpt><trkpt lat="43.82000609858266" lon="7.627545336039714"><ele>42.0</ele><time>2026-03-26T21:44:23Z</time></trkpt><trkpt lat="43.81985971117247" lon="7.6274966150655645"><ele>42.0</ele><time>2026-03-26T21:44:24Z</time></trkpt><trkpt lat="43.81970566433205" lon="7.627467749897366"><ele>42.0</ele><time>2026-03-26T21:44:25Z</time></trkpt><trkpt lat="43.81954803190377" lon="7.627458025549296"><ele>42.0</ele><time>2026-03-26T21:44:26Z</time></trkpt><trkpt lat="43.81938189413474" lon="7.627468852884404"><ele>42.0</ele><time>2026-03-26T21:44:27Z</time></trkpt><trkpt lat="43.8192215559123" lon="7.627499190906724"><ele>42.0</ele><time>2026-03-26T21:44:28Z</time></trkpt><trkpt lat="43.81907129687588" lon="7.627520197690777"><ele>41.333333333333336</ele><time>2026-03-26T21:44:29Z</time></trkpt><trkpt lat="43.818923247321486" lon="7.627537638427932"><ele>40.66666666666667</ele><time>2026-03-26T21:44:30Z</time></trkpt><trkpt lat="43.81876758465644" lon="7.62754941543389"><ele>40.0</ele><time>2026-03-26T21:44:31Z</time></trkpt><trkpt lat="43.81861252914097" lon="7.627556117707163"><ele>40.66666666666667</ele><time>2026-03-26T21:44:32Z</time></trkpt><trkpt lat="43.81846124376008" lon="7.627581348255016"><ele>41.333333333333336</ele><time>2026-03-26T21:44:33Z</time></trkpt><trkpt lat="43.818305139662144" lon="7.627595740084864"><ele>42.0</ele><time>2026-03-26T21:44:34Z</time></trkpt><trkpt lat="43.818157857722134" lon="7.6276104081809954"><ele>42.0</ele><time>2026-03-26T21:44:35Z</time></trkpt><trkpt lat="43.818015053791" lon="7.627633692812937"><ele>42.0</ele><time>2026-03-26T21:44:36Z</time></trkpt><trkpt lat="43.81788164604265" lon="7.627652394480057"><ele>42.0</ele><time>2026-03-26T21:44:37Z</time></trkpt><trkpt lat="43.81776520775871" lon="7.62766625412632"><ele>42.0</ele><time>2026-03-26T21:44:38Z</time></trkpt><trkpt lat="43.817664714026456" lon="7.627672640143058"><ele>42.0</ele><time>2026-03-26T21:44:39Z</time></trkpt><trkpt lat="43.81756600027439" lon="7.627678537679395"><ele>42.0</ele><time>2026-03-26T21:44:40Z</time></trkpt><trkpt lat="43.81746997625979" lon="7.627680205361546"><ele>42.0</ele><time>2026-03-26T21:44:41Z</time></trkpt><trkpt lat="43.81736584846044" lon="7.627687901985708"><ele>42.0</ele><time>2026-03-26T21:44:42Z</time></trkpt><trkpt lat="43.8172583474218" lon="7.6277043245546885"><ele>42.0</ele><time>2026-03-26T21:44:43Z</time></trkpt><trkpt lat="43.81714701080702" lon="7.627723718485716"><ele>42.0</ele><time>2026-03-26T21:44:44Z</time></trkpt><trkpt lat="43.8170286521567" lon="7.627742232487206"><ele>42.0</ele><time>2026-03-26T21:44:45Z</time></trkpt><trkpt lat="43.81691093049888" lon="7.627756598014268"><ele>42.0</ele><time>2026-03-26T21:44:46Z</time></trkpt><trkpt lat="43.816799992161535" lon="7.62776937521112"><ele>42.0</ele><time>2026-03-26T21:44:47Z</time></trkpt><trkpt lat="43.81669323740501" lon="7.627788729161247"><ele>42.0</ele><time>2026-03-26T21:44:48Z</time></trkpt><trkpt lat="43.81659613863142" lon="7.627808207362996"><ele>42.0</ele><time>2026-03-26T21:44:49Z</time></trkpt><trkpt lat="43.81649788148414" lon="7.627806600009323"><ele>42.0</ele><time>2026-03-26T21:44:50Z</time></trkpt><trkpt lat="43.816397098655344" lon="7.627771628726729"><ele>42.0</ele><time>2026-03-26T21:44:51Z</time></trkpt><trkpt lat="43.816307258041086" lon="7.62778566830007"><ele>42.0</ele><time>2026-03-26T21:44:52Z</time></trkpt><trkpt lat="43.816211394022744" lon="7.627764663836045"><ele>42.0</ele><time>2026-03-26T21:44:53Z</time></trkpt><trkpt lat="43.81612319501059" lon="7.627687277248469"><ele>42.0</ele><time>2026-03-26T21:44:54Z</time></trkpt><trkpt lat="43.81604934488137" lon="7.6275807020934225"><ele>42.0</ele><time>2026-03-26T21:44:55Z</time></trkpt><trkpt lat="43.81597843637763" lon="7.6274808743979055"><ele>42.0</ele><time>2026-03-26T21:44:56Z</time></trkpt><trkpt lat="43.815922419988986" lon="7.627406512432247"><ele>42.0</ele><time>2026-03-26T21:44:57Z</time></trkpt><trkpt lat="43.815856272170606" lon="7.627370723003471"><ele>41.2</ele><time>2026-03-26T21:44:58Z</time></trkpt><trkpt lat="43.81575789708888" lon="7.627371821562264"><ele>40.400000000000006</ele><time>2026-03-26T21:44:59Z</time></trkpt><trkpt lat="43.815647235515534" lon="7.62735026092507"><ele>39.599999999999994</ele><time>2026-03-26T21:45:00Z</time></trkpt><trkpt lat="43.815534870355336" lon="7.6273449397615085"><ele>38.8</ele><time>2026-03-26T21:45:01Z</time></trkpt><trkpt lat="43.81543147153728" lon="7.6273670391452235"><ele>38.0</ele><time>2026-03-26T21:45:02Z</time></trkpt><trkpt lat="43.81532787703742" lon="7.6273697033425165"><ele>38.0</ele><time>2026-03-26T21:45:03Z</time></trkpt><trkpt lat="43.8152392862134" lon="7.627448337561298"><ele>38.0</ele><time>2026-03-26T21:45:04Z</time></trkpt><trkpt lat="43.81513476721738" lon="7.627519838809767"><ele>38.0</ele><time>2026-03-26T21:45:05Z</time></trkpt><trkpt lat="43.815037252771965" lon="7.627614626669544"><ele>38.0</ele><time>2026-03-26T21:45:06Z</time></trkpt><trkpt lat="43.8149446615771" lon="7.627701485850246"><ele>37.0</ele><time>2026-03-26T21:45:07Z</time></trkpt><trkpt lat="43.81484831608821" lon="7.6277898025306206"><ele>36.0</ele><time>2026-03-26T21:45:08Z</time></trkpt><trkpt lat="43.81476098518121" lon="7.627894267813888"><ele>35.0</ele><time>2026-03-26T21:45:09Z</time></trkpt><trkpt lat="43.81466223981587" lon="7.627980892255173"><ele>34.0</ele><time>2026-03-26T21:45:10Z</time></trkpt><trkpt lat="43.81456491285366" lon="7.628070632581774"><ele>34.0</ele><time>2026-03-26T21:45:11Z</time></trkpt><trkpt lat="43.814471770572965" lon="7.628161088560721"><ele>34.0</ele><time>2026-03-26T21:45:12Z</time></trkpt><trkpt lat="43.81437309147579" lon="7.628236000850336"><ele>34.0</ele><time>2026-03-26T21:45:13Z</time></trkpt><trkpt lat="43.81429606112627" lon="7.628346512053949"><ele>34.0</ele><time>2026-03-26T21:45:14Z</time></trkpt><trkpt lat="43.81424864219978" lon="7.628482438880631"><ele>34.0</ele><time>2026-03-26T21:45:15Z</time></trkpt><trkpt lat="43.814172695645794" lon="7.628577886177735"><ele>32.4</ele><time>2026-03-26T21:45:16Z</time></trkpt><trkpt lat="43.81411444538023" lon="7.628686872772248"><ele>30.799999999999997</ele><time>2026-03-26T21:45:17Z</time></trkpt><trkpt lat="43.81403508588938" lon="7.628759154037396"><ele>29.200000000000003</ele><time>2026-03-26T21:45:18Z</time></trkpt><trkpt lat="43.8139487114292" lon="7.628816391784997"><ele>27.6</ele><time>2026-03-26T21:45:19Z</time></trkpt><trkpt lat="43.81384541161334" lon="7.628832282031622"><ele>26.0</ele><time>2026-03-26T21:45:20Z</time></trkpt><trkpt lat="43.81374788965288" lon="7.628878211900825"><ele>26.0</ele><time>2026-03-26T21:45:21Z</time></trkpt><trkpt lat="43.81364033605383" lon="7.628893613312261"><ele>26.0</ele><time>2026-03-26T21:45:22Z</time></trkpt><trkpt lat="43.81352800715248" lon="7.628889801224108"><ele>26.0</ele><time>2026-03-26T21:45:23Z</time></trkpt><trkpt lat="43.813412065307524" lon="7.628901327190167"><ele>26.0</ele><time>2026-03-26T21:45:24Z</time></trkpt><trkpt lat="43.8132915337125" lon="7.628893913126105"><ele>25.75</ele><time>2026-03-26T21:45:25Z</time></trkpt><trkpt lat="43.81318717901767" lon="7.628867769886694"><ele>25.5</ele><time>2026-03-26T21:45:26Z</time></trkpt><trkpt lat="43.813067161122035" lon="7.628844370381522"><ele>25.25</ele><time>2026-03-26T21:45:27Z</time></trkpt><trkpt lat="43.812953893515385" lon="7.628768848130554"><ele>25.0</ele><time>2026-03-26T21:45:28Z</time></trkpt><trkpt lat="43.81284203451456" lon="7.628730790823198"><ele>25.0</ele><time>2026-03-26T21:45:29Z</time></trkpt><trkpt lat="43.812736289639304" lon="7.628686272685105"><ele>25.0</ele><time>2026-03-26T21:45:30Z</time></trkpt><trkpt lat="43.812631369556755" lon="7.628634972152664"><ele>25.0</ele><time>2026-03-26T21:45:31Z</time></trkpt><trkpt lat="43.81252948492062" lon="7.628589172929087"><ele>25.0</ele><time>2026-03-26T21:45:32Z</time></trkpt><trkpt lat="43.81242779013547" lon="7.6285348369719665"><ele>25.0</ele><time>2026-03-26T21:45:33Z</time></trkpt><trkpt lat="43.81232051639173" lon="7.628494032190656"><ele>25.0</ele><time>2026-03-26T21:45:34Z</time></trkpt><trkpt lat="43.81222683147372" lon="7.628446177328386"><ele>25.0</ele><time>2026-03-26T21:45:35Z</time></trkpt><trkpt lat="43.81213530549844" lon="7.628405458272649"><ele>25.0</ele><time>2026-03-26T21:45:36Z</time></trkpt><trkpt lat="43.81204790068936" lon="7.628360599272685"><ele>25.0</ele><time>2026-03-26T21:45:37Z</time></trkpt><trkpt lat="43.811961528684044" lon="7.628326553439921"><ele>25.0</ele><time>2026-03-26T21:45:38Z</time></trkpt><trkpt lat="43.81187946141857" lon="7.628290089555214"><ele>24.0</ele><time>2026-03-26T21:45:39Z</time></trkpt><trkpt lat="43.81181821091576" lon="7.628252714998593"><ele>23.0</ele><time>2026-03-26T21:45:40Z</time></trkpt><trkpt lat="43.811732119592484" lon="7.628204645736141"><ele>22.0</ele><time>2026-03-26T21:45:42Z</time></trkpt><trkpt lat="43.81165996194989" lon="7.628170132444692"><ele>21.0</ele><time>2026-03-26T21:46:03Z</time></trkpt><trkpt lat="43.811538539805575" lon="7.628112540224168"><ele>20.0</ele><time>2026-03-26T21:46:05Z</time></trkpt><trkpt lat="43.811451187644884" lon="7.628071201555706"><ele>20.0</ele><time>2026-03-26T21:46:06Z</time></trkpt><trkpt lat="43.81135147741216" lon="7.628023978088534"><ele>20.0</ele><time>2026-03-26T21:46:07Z</time></trkpt><trkpt lat="43.81123931800483" lon="7.627969691746177"><ele>20.0</ele><time>2026-03-26T21:46:08Z</time></trkpt><trkpt lat="43.81111472666237" lon="7.62790667167876"><ele>20.0</ele><time>2026-03-26T21:46:09Z</time></trkpt><trkpt lat="43.81097089419061" lon="7.627856922701477"><ele>19.333333333333336</ele><time>2026-03-26T21:46:10Z</time></trkpt><trkpt lat="43.81083117298173" lon="7.627755326823903"><ele>18.666666666666668</ele><time>2026-03-26T21:46:11Z</time></trkpt><trkpt lat="43.81070534149529" lon="7.627646507155357"><ele>18.0</ele><time>2026-03-26T21:46:12Z</time></trkpt><trkpt lat="43.81057540390279" lon="7.6275210861132745"><ele>18.0</ele><time>2026-03-26T21:46:13Z</time></trkpt><trkpt lat="43.8104536180091" lon="7.627398329971711"><ele>18.0</ele><time>2026-03-26T21:46:14Z</time></trkpt><trkpt lat="43.810348258486925" lon="7.627270165906534"><ele>18.0</ele><time>2026-03-26T21:46:15Z</time></trkpt><trkpt lat="43.810219223018" lon="7.627172054440163"><ele>18.0</ele><time>2026-03-26T21:46:16Z</time></trkpt><trkpt lat="43.81009547884456" lon="7.627067785738088"><ele>18.25</ele><time>2026-03-26T21:46:17Z</time></trkpt><trkpt lat="43.80998170553586" lon="7.6269586004585035"><ele>18.5</ele><time>2026-03-26T21:46:18Z</time></trkpt><trkpt lat="43.809876057900446" lon="7.626848657990638"><ele>18.75</ele><time>2026-03-26T21:46:19Z</time></trkpt><trkpt lat="43.80976416963446" lon="7.626736288271278"><ele>19.0</ele><time>2026-03-26T21:46:20Z</time></trkpt><trkpt lat="43.80963180884568" lon="7.626611310105019"><ele>19.0</ele><time>2026-03-26T21:46:21Z</time></trkpt><trkpt lat="43.809496743405745" lon="7.626487321969138"><ele>19.0</ele><time>2026-03-26T21:46:22Z</time></trkpt><trkpt lat="43.809372972742885" lon="7.626368195629873"><ele>19.0</ele><time>2026-03-26T21:46:23Z</time></trkpt><trkpt lat="43.80925533215733" lon="7.626257977467428"><ele>18.8</ele><time>2026-03-26T21:46:24Z</time></trkpt><trkpt lat="43.809153976267005" lon="7.626164947833377"><ele>18.599999999999998</ele><time>2026-03-26T21:46:25Z</time></trkpt><trkpt lat="43.80907960561296" lon="7.626081476395634"><ele>18.4</ele><time>2026-03-26T21:46:26Z</time></trkpt><trkpt lat="43.809016581241494" lon="7.626009240997604"><ele>18.2</ele><time>2026-03-26T21:46:27Z</time></trkpt><trkpt lat="43.80893523021118" lon="7.62592173792174"><ele>18.0</ele><time>2026-03-26T21:46:28Z</time></trkpt><trkpt lat="43.80883764240051" lon="7.62582186191492"><ele>18.0</ele><time>2026-03-26T21:46:29Z</time></trkpt><trkpt lat="43.80872834661646" lon="7.625714645158277"><ele>18.0</ele><time>2026-03-26T21:46:30Z</time></trkpt><trkpt lat="43.80861010332651" lon="7.6256089527389035"><ele>18.0</ele><time>2026-03-26T21:46:31Z</time></trkpt><trkpt lat="43.808474449515955" lon="7.625509538386017"><ele>18.0</ele><time>2026-03-26T21:46:32Z</time></trkpt><trkpt lat="43.808330468317365" lon="7.6254094422749015"><ele>18.25</ele><time>2026-03-26T21:46:33Z</time></trkpt><trkpt lat="43.80820099225834" lon="7.6253246472665905"><ele>18.5</ele><time>2026-03-26T21:46:34Z</time></trkpt><trkpt lat="43.8080818775941" lon="7.625255960084089"><ele>18.75</ele><time>2026-03-26T21:46:35Z</time></trkpt><trkpt lat="43.807966618907685" lon="7.625195892700569"><ele>19.0</ele><time>2026-03-26T21:46:36Z</time></trkpt><trkpt lat="43.807848911961834" lon="7.625147455952607"><ele>19.0</ele><time>2026-03-26T21:46:37Z</time></trkpt><trkpt lat="43.80773139919383" lon="7.625101257664511"><ele>19.0</ele><time>2026-03-26T21:46:38Z</time></trkpt><trkpt lat="43.807605021387396" lon="7.625065656945777"><ele>19.0</ele><time>2026-03-26T21:46:39Z</time></trkpt><trkpt lat="43.807462506140155" lon="7.6250244953674216"><ele>19.0</ele><time>2026-03-26T21:46:40Z</time></trkpt><trkpt lat="43.807300645448095" lon="7.624996666114425"><ele>20.0</ele><time>2026-03-26T21:46:41Z</time></trkpt><trkpt lat="43.80712316453576" lon="7.624973534187593"><ele>21.0</ele><time>2026-03-26T21:46:42Z</time></trkpt><trkpt lat="43.806945992382765" lon="7.624950030461202"><ele>22.0</ele><time>2026-03-26T21:46:43Z</time></trkpt><trkpt lat="43.806779857087996" lon="7.624942604711986"><ele>23.333333333333332</ele><time>2026-03-26T21:46:44Z</time></trkpt><trkpt lat="43.80659235976234" lon="7.624932235294539"><ele>24.666666666666664</ele><time>2026-03-26T21:46:45Z</time></trkpt><trkpt lat="43.80642335260731" lon="7.624913062766684"><ele>26.0</ele><time>2026-03-26T21:46:46Z</time></trkpt><trkpt lat="43.80626481168491" lon="7.624895767352943"><ele>26.0</ele><time>2026-03-26T21:46:47Z</time></trkpt><trkpt lat="43.80611534537943" lon="7.624882900345422"><ele>26.0</ele><time>2026-03-26T21:46:48Z</time></trkpt><trkpt lat="43.80597203991494" lon="7.624869582540104"><ele>26.0</ele><time>2026-03-26T21:46:49Z</time></trkpt><trkpt lat="43.80580617978448" lon="7.6248531166488505"><ele>25.75</ele><time>2026-03-26T21:46:50Z</time></trkpt><trkpt lat="43.80567796185858" lon="7.624845513383194"><ele>25.5</ele><time>2026-03-26T21:46:51Z</time></trkpt><trkpt lat="43.80557118902129" lon="7.624836161785084"><ele>25.25</ele><time>2026-03-26T21:46:52Z</time></trkpt><trkpt lat="43.805465171793514" lon="7.624822202187694"><ele>25.0</ele><time>2026-03-26T21:46:53Z</time></trkpt><trkpt lat="43.80534913869638" lon="7.62482371592093"><ele>25.0</ele><time>2026-03-26T21:46:54Z</time></trkpt><trkpt lat="43.80524221716894" lon="7.624832748987507"><ele>25.0</ele><time>2026-03-26T21:46:55Z</time></trkpt><trkpt lat="43.805144260429195" lon="7.624850621379713"><ele>25.0</ele><time>2026-03-26T21:46:56Z</time></trkpt><trkpt lat="43.80503383024336" lon="7.624845667882889"><ele>25.0</ele><time>2026-03-26T21:46:57Z</time></trkpt><trkpt lat="43.80489624043234" lon="7.624803143255027"><ele>22.666666666666668</ele><time>2026-03-26T21:46:58Z</time></trkpt><trkpt lat="43.80473289879569" lon="7.624738366291982"><ele>20.333333333333336</ele><time>2026-03-26T21:46:59Z</time></trkpt><trkpt lat="43.80458167900475" lon="7.624679961911123"><ele>18.0</ele><time>2026-03-26T21:47:00Z</time></trkpt><trkpt lat="43.80444538910702" lon="7.624641833822103"><ele>17.75</ele><time>2026-03-26T21:47:01Z</time></trkpt><trkpt lat="43.804305242943904" lon="7.6245994050280865"><ele>17.5</ele><time>2026-03-26T21:47:02Z</time></trkpt><trkpt lat="43.80416748638467" lon="7.624557133332259"><ele>17.25</ele><time>2026-03-26T21:47:03Z</time></trkpt><trkpt lat="43.8040229390028" lon="7.62453768852598"><ele>17.0</ele><time>2026-03-26T21:47:04Z</time></trkpt><trkpt lat="43.80386151167184" lon="7.624548004637845"><ele>17.0</ele><time>2026-03-26T21:47:05Z</time></trkpt><trkpt lat="43.803680489390835" lon="7.624571259254821"><ele>17.0</ele><time>2026-03-26T21:47:06Z</time></trkpt><trkpt lat="43.80348921361093" lon="7.624615134023936"><ele>17.0</ele><time>2026-03-26T21:47:07Z</time></trkpt><trkpt lat="43.80332474989016" lon="7.624666648040718"><ele>16.0</ele><time>2026-03-26T21:47:08Z</time></trkpt><trkpt lat="43.803164453336954" lon="7.62473220888153"><ele>15.0</ele><time>2026-03-26T21:47:09Z</time></trkpt><trkpt lat="43.803001649787745" lon="7.624784687146067"><ele>14.0</ele><time>2026-03-26T21:47:10Z</time></trkpt><trkpt lat="43.80284102786676" lon="7.624840021456643"><ele>14.0</ele><time>2026-03-26T21:47:11Z</time></trkpt><trkpt lat="43.80268072379402" lon="7.624890349777628"><ele>14.0</ele><time>2026-03-26T21:47:12Z</time></trkpt><trkpt lat="43.80252583788426" lon="7.62493642948903"><ele>14.0</ele><time>2026-03-26T21:47:13Z</time></trkpt><trkpt lat="43.802368739166226" lon="7.624988445660923"><ele>17.0</ele><time>2026-03-26T21:47:14Z</time></trkpt><trkpt lat="43.80221345524383" lon="7.625034529747105"><ele>20.0</ele><time>2026-03-26T21:47:15Z</time></trkpt><trkpt lat="43.80206338676095" lon="7.6250856040342425"><ele>23.0</ele><time>2026-03-26T21:47:16Z</time></trkpt><trkpt lat="43.801916658016374" lon="7.625131330908391"><ele>24.75</ele><time>2026-03-26T21:47:17Z</time></trkpt><trkpt lat="43.80181166660013" lon="7.6251696887693505"><ele>26.5</ele><time>2026-03-26T21:47:18Z</time></trkpt><trkpt lat="43.80166665340092" lon="7.625204494952187"><ele>28.25</ele><time>2026-03-26T21:47:19Z</time></trkpt><trkpt lat="43.80157436076319" lon="7.625239461932649"><ele>30.0</ele><time>2026-03-26T21:47:20Z</time></trkpt><trkpt lat="43.80147290727352" lon="7.625273746744754"><ele>30.0</ele><time>2026-03-26T21:47:21Z</time></trkpt><trkpt lat="43.801362738254106" lon="7.62531084885414"><ele>30.0</ele><time>2026-03-26T21:47:22Z</time></trkpt><trkpt lat="43.801238704021756" lon="7.625350627099776"><ele>30.0</ele><time>2026-03-26T21:47:23Z</time></trkpt><trkpt lat="43.80110842577662" lon="7.625393833119584"><ele>30.0</ele><time>2026-03-26T21:47:24Z</time></trkpt><trkpt lat="43.80096502295555" lon="7.625443977243764"><ele>24.666666666666668</ele><time>2026-03-26T21:47:25Z</time></trkpt><trkpt lat="43.8008124830591" lon="7.625495847871296"><ele>19.333333333333336</ele><time>2026-03-26T21:47:26Z</time></trkpt><trkpt lat="43.80065411163244" lon="7.625548792077781"><ele>14.0</ele><time>2026-03-26T21:47:27Z</time></trkpt><trkpt lat="43.80048756142894" lon="7.625603993406285"><ele>14.0</ele><time>2026-03-26T21:47:28Z</time></trkpt><trkpt lat="43.800321759942385" lon="7.625665705035707"><ele>14.0</ele><time>2026-03-26T21:47:29Z</time></trkpt><trkpt lat="43.800157293929175" lon="7.62572720248751"><ele>14.0</ele><time>2026-03-26T21:47:30Z</time></trkpt><trkpt lat="43.79999743679513" lon="7.62577685172578"><ele>14.666666666666668</ele><time>2026-03-26T21:47:31Z</time></trkpt><trkpt lat="43.79984907066382" lon="7.625822184450767"><ele>15.333333333333332</ele><time>2026-03-26T21:47:32Z</time></trkpt><trkpt lat="43.7996935144756" lon="7.6258727580909795"><ele>16.0</ele><time>2026-03-26T21:47:33Z</time></trkpt><trkpt lat="43.79953126485275" lon="7.625925122448039"><ele>16.0</ele><time>2026-03-26T21:47:34Z</time></trkpt><trkpt lat="43.799365279254545" lon="7.625977839226723"><ele>16.0</ele><time>2026-03-26T21:47:35Z</time></trkpt><trkpt lat="43.79919946339637" lon="7.626029193713419"><ele>16.0</ele><time>2026-03-26T21:47:36Z</time></trkpt><trkpt lat="43.799036515860315" lon="7.626081364756595"><ele>17.333333333333332</ele><time>2026-03-26T21:47:37Z</time></trkpt><trkpt lat="43.798876850965925" lon="7.626135292196506"><ele>18.666666666666668</ele><time>2026-03-26T21:47:38Z</time></trkpt><trkpt lat="43.79872114383903" lon="7.626195972562168"><ele>20.0</ele><time>2026-03-26T21:47:39Z</time></trkpt><trkpt lat="43.79856709012671" lon="7.626257743023753"><ele>16.333333333333336</ele><time>2026-03-26T21:47:40Z</time></trkpt><trkpt lat="43.79841932846711" lon="7.6263278718882495"><ele>12.666666666666668</ele><time>2026-03-26T21:47:41Z</time></trkpt><trkpt lat="43.798276397884074" lon="7.626406479741097"><ele>9.0</ele><time>2026-03-26T21:47:42Z</time></trkpt><trkpt lat="43.79813134765706" lon="7.626489365794804"><ele>9.0</ele><time>2026-03-26T21:47:43Z</time></trkpt><trkpt lat="43.79798901152941" lon="7.62658204335005"><ele>9.0</ele><time>2026-03-26T21:47:44Z</time></trkpt><trkpt lat="43.79784530464482" lon="7.6266832810238965"><ele>9.0</ele><time>2026-03-26T21:47:45Z</time></trkpt><trkpt lat="43.79771309309185" lon="7.626794593983459"><ele>8.666666666666666</ele><time>2026-03-26T21:47:46Z</time></trkpt><trkpt lat="43.79758918569491" lon="7.626914125217551"><ele>8.333333333333332</ele><time>2026-03-26T21:47:47Z</time></trkpt><trkpt lat="43.797460790538615" lon="7.627033985469066"><ele>8.0</ele><time>2026-03-26T21:47:48Z</time></trkpt><trkpt lat="43.79733979156357" lon="7.627148896702163"><ele>8.0</ele><time>2026-03-26T21:47:49Z</time></trkpt><trkpt lat="43.797222467866476" lon="7.627264509777446"><ele>8.0</ele><time>2026-03-26T21:47:50Z</time></trkpt><trkpt lat="43.797103676016185" lon="7.627381435079266"><ele>8.0</ele><time>2026-03-26T21:47:51Z</time></trkpt><trkpt lat="43.79698468476759" lon="7.627500364980678"><ele>8.0</ele><time>2026-03-26T21:47:52Z</time></trkpt><trkpt lat="43.796871205179066" lon="7.62761273650193"><ele>9.0</ele><time>2026-03-26T21:47:53Z</time></trkpt><trkpt lat="43.79665778836866" lon="7.627836102920816"><ele>10.0</ele><time>2026-03-26T21:47:55Z</time></trkpt><trkpt lat="43.79655883611432" lon="7.627940727582327"><ele>11.0</ele><time>2026-03-26T21:47:56Z</time></trkpt><trkpt lat="43.796452368096666" lon="7.628043614607176"><ele>11.0</ele><time>2026-03-26T21:47:57Z</time></trkpt><trkpt lat="43.79634235314487" lon="7.628145520478349"><ele>11.0</ele><time>2026-03-26T21:47:58Z</time></trkpt><trkpt lat="43.79622532900765" lon="7.628250723627727"><ele>11.0</ele><time>2026-03-26T21:47:59Z</time></trkpt><trkpt lat="43.79609639040418" lon="7.628354967998104"><ele>11.0</ele><time>2026-03-26T21:48:00Z</time></trkpt><trkpt lat="43.795954305743486" lon="7.628458829744497"><ele>8.666666666666666</ele><time>2026-03-26T21:48:01Z</time></trkpt><trkpt lat="43.795800618552086" lon="7.628567649891576"><ele>6.333333333333333</ele><time>2026-03-26T21:48:02Z</time></trkpt><trkpt lat="43.79565022316578" lon="7.628672860199411"><ele>4.0</ele><time>2026-03-26T21:48:03Z</time></trkpt><trkpt lat="43.79549835413044" lon="7.628761799296364"><ele>4.0</ele><time>2026-03-26T21:48:04Z</time></trkpt><trkpt lat="43.795355314332234" lon="7.6288423392231115"><ele>4.0</ele><time>2026-03-26T21:48:05Z</time></trkpt><trkpt lat="43.795219672901766" lon="7.628919811661414"><ele>4.0</ele><time>2026-03-26T21:48:06Z</time></trkpt><trkpt lat="43.795084077526624" lon="7.628995752025055"><ele>4.0</ele><time>2026-03-26T21:48:07Z</time></trkpt><trkpt lat="43.794962649814465" lon="7.6290743040435745"><ele>5.5</ele><time>2026-03-26T21:48:08Z</time></trkpt><trkpt lat="43.794835070761316" lon="7.6291453142808265"><ele>7.0</ele><time>2026-03-26T21:48:09Z</time></trkpt><trkpt lat="43.79470301149918" lon="7.629211033300418"><ele>8.5</ele><time>2026-03-26T21:48:10Z</time></trkpt><trkpt lat="43.794566777491816" lon="7.629270634749765"><ele>10.0</ele><time>2026-03-26T21:48:11Z</time></trkpt><trkpt lat="43.79441828489408" lon="7.629325211669782"><ele>13.0</ele><time>2026-03-26T21:48:12Z</time></trkpt><trkpt lat="43.7942487961485" lon="7.629339755287825"><ele>16.0</ele><time>2026-03-26T21:48:13Z</time></trkpt><trkpt lat="43.794077018748645" lon="7.629369028700448"><ele>19.0</ele><time>2026-03-26T21:48:14Z</time></trkpt><trkpt lat="43.79391317532643" lon="7.629414250367178"><ele>19.0</ele><time>2026-03-26T21:48:15Z</time></trkpt><trkpt lat="43.79374738595595" lon="7.629419777624781"><ele>19.0</ele><time>2026-03-26T21:48:16Z</time></trkpt><trkpt lat="43.79356324022578" lon="7.62944343421081"><ele>19.0</ele><time>2026-03-26T21:48:17Z</time></trkpt><trkpt lat="43.79338493361251" lon="7.629466117359315"><ele>14.333333333333332</ele><time>2026-03-26T21:48:18Z</time></trkpt><trkpt lat="43.79320649601944" lon="7.629509743781706"><ele>9.666666666666666</ele><time>2026-03-26T21:48:19Z</time></trkpt><trkpt lat="43.79303222651826" lon="7.629510675017181"><ele>5.0</ele><time>2026-03-26T21:48:20Z</time></trkpt><trkpt lat="43.79287047608476" lon="7.6295301202415455"><ele>5.0</ele><time>2026-03-26T21:48:21Z</time></trkpt><trkpt lat="43.79271681174371" lon="7.629565653568786"><ele>5.0</ele><time>2026-03-26T21:48:22Z</time></trkpt><trkpt lat="43.79257583317104" lon="7.629564712563022"><ele>5.0</ele><time>2026-03-26T21:48:23Z</time></trkpt><trkpt lat="43.79244250143363" lon="7.62954560495526"><ele>5.0</ele><time>2026-03-26T21:48:24Z</time></trkpt><trkpt lat="43.792305707351" lon="7.629511479796487"><ele>10.0</ele><time>2026-03-26T21:48:25Z</time></trkpt><trkpt lat="43.792156727201636" lon="7.6294582424769875"><ele>15.0</ele><time>2026-03-26T21:48:26Z</time></trkpt><trkpt lat="43.79199937959504" lon="7.629401681384725"><ele>20.0</ele><time>2026-03-26T21:48:27Z</time></trkpt><trkpt lat="43.791836091170225" lon="7.629345141712042"><ele>20.0</ele><time>2026-03-26T21:48:28Z</time></trkpt><trkpt lat="43.791686737332334" lon="7.629298834221786"><ele>20.0</ele><time>2026-03-26T21:48:29Z</time></trkpt><trkpt lat="43.79152663428462" lon="7.629282509974995"><ele>20.0</ele><time>2026-03-26T21:48:30Z</time></trkpt><trkpt lat="43.79137656793126" lon="7.629262537809365"><ele>20.0</ele><time>2026-03-26T21:48:31Z</time></trkpt><trkpt lat="43.791238812697294" lon="7.629243588817299"><ele>20.0</ele><time>2026-03-26T21:48:32Z</time></trkpt><trkpt lat="43.79109622475063" lon="7.629221957056041"><ele>20.0</ele><time>2026-03-26T21:48:33Z</time></trkpt><trkpt lat="43.7909442753411" lon="7.629204413877317"><ele>20.0</ele><time>2026-03-26T21:48:34Z</time></trkpt><trkpt lat="43.79079008330416" lon="7.6291821911726405"><ele>19.25</ele><time>2026-03-26T21:48:35Z</time></trkpt><trkpt lat="43.79063846348007" lon="7.629155456694238"><ele>18.5</ele><time>2026-03-26T21:48:36Z</time></trkpt><trkpt lat="43.79049425392144" lon="7.629136445650314"><ele>17.75</ele><time>2026-03-26T21:48:37Z</time></trkpt><trkpt lat="43.7903574644333" lon="7.62911881660847"><ele>17.0</ele><time>2026-03-26T21:48:38Z</time></trkpt><trkpt lat="43.790225015290694" lon="7.62910471100666"><ele>16.0</ele><time>2026-03-26T21:48:39Z</time></trkpt><trkpt lat="43.79010048060392" lon="7.629087893506197"><ele>15.0</ele><time>2026-03-26T21:48:40Z</time></trkpt><trkpt lat="43.7899884332742" lon="7.629067448241477"><ele>14.0</ele><time>2026-03-26T21:48:41Z</time></trkpt><trkpt lat="43.789894938324196" lon="7.629047434957967"><ele>13.0</ele><time>2026-03-26T21:48:42Z</time></trkpt><trkpt lat="43.78981597742349" lon="7.629030668800108"><ele>12.0</ele><time>2026-03-26T21:48:43Z</time></trkpt><trkpt lat="43.78974213487609" lon="7.629003857717334"><ele>12.0</ele><time>2026-03-26T21:48:44Z</time></trkpt><trkpt lat="43.789668577919514" lon="7.628985459211134"><ele>12.0</ele><time>2026-03-26T21:48:45Z</time></trkpt><trkpt lat="43.78960578167312" lon="7.628950219779145"><ele>12.0</ele><time>2026-03-26T21:48:49Z</time></trkpt><trkpt lat="43.789497269317735" lon="7.628944053323924"><ele>12.0</ele><time>2026-03-26T21:48:51Z</time></trkpt><trkpt lat="43.78946170172071" lon="7.629105871752418"><ele>12.0</ele><time>2026-03-26T21:48:53Z</time></trkpt><trkpt lat="43.78948932957148" lon="7.629237887951417"><ele>12.0</ele><time>2026-03-26T21:48:54Z</time></trkpt><trkpt lat="43.78951172546268" lon="7.629420693724764"><ele>12.0</ele><time>2026-03-26T21:48:55Z</time></trkpt><trkpt lat="43.78953780086515" lon="7.629644437970729"><ele>12.0</ele><time>2026-03-26T21:48:56Z</time></trkpt><trkpt lat="43.78957057319897" lon="7.6298922327767125"><ele>10.333333333333334</ele><time>2026-03-26T21:48:57Z</time></trkpt><trkpt lat="43.78960234081476" lon="7.630125495392611"><ele>8.666666666666668</ele><time>2026-03-26T21:48:58Z</time></trkpt><trkpt lat="43.78962707966788" lon="7.6303280617748594"><ele>7.0</ele><time>2026-03-26T21:48:59Z</time></trkpt><trkpt lat="43.789647148894616" lon="7.630534934224239"><ele>7.0</ele><time>2026-03-26T21:49:00Z</time></trkpt><trkpt lat="43.78967071098758" lon="7.630738246725974"><ele>7.0</ele><time>2026-03-26T21:49:01Z</time></trkpt><trkpt lat="43.789667454124896" lon="7.630925538479234"><ele>7.0</ele><time>2026-03-26T21:49:02Z</time></trkpt><trkpt lat="43.78966583387042" lon="7.631104668709801"><ele>7.0</ele><time>2026-03-26T21:49:03Z</time></trkpt><trkpt lat="43.78965101424718" lon="7.631277887649502"><ele>7.0</ele><time>2026-03-26T21:49:04Z</time></trkpt><trkpt lat="43.78964243050464" lon="7.631443680558756"><ele>7.0</ele><time>2026-03-26T21:49:05Z</time></trkpt><trkpt lat="43.78960505815286" lon="7.63159952986134"><ele>7.0</ele><time>2026-03-26T21:49:06Z</time></trkpt><trkpt lat="43.789536717129245" lon="7.6317275702498675"><ele>7.0</ele><time>2026-03-26T21:49:07Z</time></trkpt><trkpt lat="43.78949282034233" lon="7.631874571519441"><ele>7.25</ele><time>2026-03-26T21:49:08Z</time></trkpt><trkpt lat="43.78941891007501" lon="7.631997604090276"><ele>7.5</ele><time>2026-03-26T21:49:09Z</time></trkpt><trkpt lat="43.789362383487365" lon="7.632158426311054"><ele>7.75</ele><time>2026-03-26T21:49:10Z</time></trkpt><trkpt lat="43.78928518524069" lon="7.632335208321268"><ele>8.0</ele><time>2026-03-26T21:49:11Z</time></trkpt><trkpt lat="43.789196785556754" lon="7.632502412352175"><ele>8.0</ele><time>2026-03-26T21:49:12Z</time></trkpt><trkpt lat="43.789133906271225" lon="7.632690337374019"><ele>8.0</ele><time>2026-03-26T21:49:13Z</time></trkpt><trkpt lat="43.78906874517778" lon="7.63285628791004"><ele>8.0</ele><time>2026-03-26T21:49:14Z</time></trkpt><trkpt lat="43.788994601357665" lon="7.633027378469371"><ele>8.0</ele><time>2026-03-26T21:49:15Z</time></trkpt><trkpt lat="43.78892011749905" lon="7.633212091898571"><ele>8.25</ele><time>2026-03-26T21:49:16Z</time></trkpt><trkpt lat="43.788849539876644" lon="7.633381422403098"><ele>8.5</ele><time>2026-03-26T21:49:17Z</time></trkpt><trkpt lat="43.788777645299305" lon="7.6335527960134755"><ele>8.75</ele><time>2026-03-26T21:49:18Z</time></trkpt><trkpt lat="43.78870034461046" lon="7.633727424079844"><ele>9.0</ele><time>2026-03-26T21:49:19Z</time></trkpt><trkpt lat="43.788623219313926" lon="7.633893990407865"><ele>9.25</ele><time>2026-03-26T21:49:20Z</time></trkpt><trkpt lat="43.788545259308485" lon="7.634060721360436"><ele>9.5</ele><time>2026-03-26T21:49:21Z</time></trkpt><trkpt lat="43.78845754026761" lon="7.6342184606629955"><ele>9.75</ele><time>2026-03-26T21:49:22Z</time></trkpt><trkpt lat="43.788385541280455" lon="7.634380918262414"><ele>10.0</ele><time>2026-03-26T21:49:23Z</time></trkpt><trkpt lat="43.788323373870014" lon="7.634563901984182"><ele>10.0</ele><time>2026-03-26T21:49:24Z</time></trkpt><trkpt lat="43.788246046657164" lon="7.634733607800478"><ele>10.0</ele><time>2026-03-26T21:49:25Z</time></trkpt><trkpt lat="43.78817209129016" lon="7.634886391459447"><ele>10.0</ele><time>2026-03-26T21:49:26Z</time></trkpt><trkpt lat="43.78810192544891" lon="7.635035686103097"><ele>10.0</ele><time>2026-03-26T21:49:27Z</time></trkpt><trkpt lat="43.78803736753757" lon="7.635181216502171"><ele>10.25</ele><time>2026-03-26T21:49:28Z</time></trkpt><trkpt lat="43.78796375450873" lon="7.6353369651131064"><ele>10.5</ele><time>2026-03-26T21:49:29Z</time></trkpt><trkpt lat="43.787894708996845" lon="7.635488309228489"><ele>10.75</ele><time>2026-03-26T21:49:30Z</time></trkpt><trkpt lat="43.787830506248476" lon="7.635629140823516"><ele>11.0</ele><time>2026-03-26T21:49:31Z</time></trkpt><trkpt lat="43.78777638109332" lon="7.635763391604156"><ele>11.0</ele><time>2026-03-26T21:49:32Z</time></trkpt><trkpt lat="43.78772419663818" lon="7.635874020362424"><ele>11.0</ele><time>2026-03-26T21:49:33Z</time></trkpt><trkpt lat="43.7876774618339" lon="7.635968805911217"><ele>11.0</ele><time>2026-03-26T21:49:34Z</time></trkpt><trkpt lat="43.787642600716026" lon="7.636045168767201"><ele>11.0</ele><time>2026-03-26T21:49:35Z</time></trkpt><trkpt lat="43.78760894097562" lon="7.636144008359148"><ele>11.0</ele><time>2026-03-26T21:49:37Z</time></trkpt><trkpt lat="43.78756081593526" lon="7.63625025041113"><ele>11.0</ele><time>2026-03-26T21:49:40Z</time></trkpt><trkpt lat="43.78749806519636" lon="7.636371944483681"><ele>11.0</ele><time>2026-03-26T21:50:04Z</time></trkpt><trkpt lat="43.78745246875076" lon="7.636475300662699"><ele>11.0</ele><time>2026-03-26T21:50:05Z</time></trkpt><trkpt lat="43.78739166039108" lon="7.63661238203803"><ele>11.0</ele><time>2026-03-26T21:50:06Z</time></trkpt><trkpt lat="43.78731649612579" lon="7.6367815339270075"><ele>11.0</ele><time>2026-03-26T21:50:07Z</time></trkpt><trkpt lat="43.78723226616889" lon="7.6369717964766375"><ele>11.666666666666666</ele><time>2026-03-26T21:50:08Z</time></trkpt><trkpt lat="43.7871497689706" lon="7.637158103827714"><ele>12.333333333333332</ele><time>2026-03-26T21:50:09Z</time></trkpt><trkpt lat="43.78705116010351" lon="7.637380796920868"><ele>13.0</ele><time>2026-03-26T21:50:10Z</time></trkpt><trkpt lat="43.78696762278583" lon="7.637610487294151"><ele>13.0</ele><time>2026-03-26T21:50:11Z</time></trkpt><trkpt lat="43.786877776625055" lon="7.637788685306623"><ele>13.0</ele><time>2026-03-26T21:50:12Z</time></trkpt><trkpt lat="43.78680519332147" lon="7.637960765678264"><ele>13.0</ele><time>2026-03-26T21:50:13Z</time></trkpt><trkpt lat="43.78673678139488" lon="7.638121751058715"><ele>13.0</ele><time>2026-03-26T21:50:14Z</time></trkpt><trkpt lat="43.78665782545882" lon="7.638288935304925"><ele>13.0</ele><time>2026-03-26T21:50:15Z</time></trkpt><trkpt lat="43.78657055229844" lon="7.6384906201182545"><ele>13.0</ele><time>2026-03-26T21:50:16Z</time></trkpt><trkpt lat="43.78648045987001" lon="7.63869798866165"><ele>13.0</ele><time>2026-03-26T21:50:17Z</time></trkpt><trkpt lat="43.7864026537212" lon="7.63887236696341"><ele>12.75</ele><time>2026-03-26T21:50:18Z</time></trkpt><trkpt lat="43.78632663354744" lon="7.639028024894509"><ele>12.5</ele><time>2026-03-26T21:50:19Z</time></trkpt><trkpt lat="43.78623405269225" lon="7.639162712904236"><ele>12.25</ele><time>2026-03-26T21:50:20Z</time></trkpt><trkpt lat="43.78612196652547" lon="7.639295619052746"><ele>12.0</ele><time>2026-03-26T21:50:21Z</time></trkpt><trkpt lat="43.786035359591395" lon="7.639468744561528"><ele>11.75</ele><time>2026-03-26T21:50:22Z</time></trkpt><trkpt lat="43.78596111070773" lon="7.6396431354128715"><ele>11.5</ele><time>2026-03-26T21:50:23Z</time></trkpt><trkpt lat="43.785899950639994" lon="7.639785871031164"><ele>11.25</ele><time>2026-03-26T21:50:24Z</time></trkpt><trkpt lat="43.78601531180858" lon="7.63974237718461"><ele>11.0</ele><time>2026-03-26T21:50:25Z</time></trkpt><trkpt lat="43.78597626342609" lon="7.639833508482427"><ele>11.0</ele><time>2026-03-26T21:50:27Z</time></trkpt><trkpt lat="43.785896650244915" lon="7.6400294336330035"><ele>11.0</ele><time>2026-03-26T21:50:56Z</time></trkpt><trkpt lat="43.78580902704373" lon="7.640236288351149"><ele>11.0</ele><time>2026-03-26T21:50:57Z</time></trkpt><trkpt lat="43.785722277425535" lon="7.640430195623424"><ele>11.333333333333332</ele><time>2026-03-26T21:50:58Z</time></trkpt><trkpt lat="43.785643294032894" lon="7.640602577616317"><ele>11.666666666666666</ele><time>2026-03-26T21:50:59Z</time></trkpt><trkpt lat="43.785563664411605" lon="7.6407763227068415"><ele>12.0</ele><time>2026-03-26T21:51:00Z</time></trkpt><trkpt lat="43.78548184981671" lon="7.6409583553651546"><ele>11.0</ele><time>2026-03-26T21:51:01Z</time></trkpt><trkpt lat="43.7854008089357" lon="7.641140611403005"><ele>10.0</ele><time>2026-03-26T21:51:02Z</time></trkpt><trkpt lat="43.785318372529865" lon="7.641331455505772"><ele>9.0</ele><time>2026-03-26T21:51:03Z</time></trkpt><trkpt lat="43.78524141047721" lon="7.641510064863379"><ele>9.0</ele><time>2026-03-26T21:51:04Z</time></trkpt><trkpt lat="43.78517115630083" lon="7.641673106825785"><ele>9.0</ele><time>2026-03-26T21:51:05Z</time></trkpt><trkpt lat="43.78510366839402" lon="7.6418266933401"><ele>9.0</ele><time>2026-03-26T21:51:06Z</time></trkpt><trkpt lat="43.78503356397403" lon="7.641987193188808"><ele>9.0</ele><time>2026-03-26T21:51:07Z</time></trkpt><trkpt lat="43.78495221223234" lon="7.642173332301985"><ele>8.666666666666666</ele><time>2026-03-26T21:51:08Z</time></trkpt><trkpt lat="43.78486541099112" lon="7.642368729834826"><ele>8.333333333333332</ele><time>2026-03-26T21:51:09Z</time></trkpt><trkpt lat="43.784782079396905" lon="7.642557032089623"><ele>8.0</ele><time>2026-03-26T21:51:10Z</time></trkpt><trkpt lat="43.78469927999464" lon="7.642745040620584"><ele>8.666666666666666</ele><time>2026-03-26T21:51:11Z</time></trkpt><trkpt lat="43.78461536631851" lon="7.642935579268849"><ele>9.333333333333334</ele><time>2026-03-26T21:51:12Z</time></trkpt><trkpt lat="43.784527119591864" lon="7.643135957050115"><ele>10.0</ele><time>2026-03-26T21:51:13Z</time></trkpt><trkpt lat="43.78443834505023" lon="7.643336324665841"><ele>10.0</ele><time>2026-03-26T21:51:14Z</time></trkpt><trkpt lat="43.78438207413397" lon="7.643549780056948"><ele>10.0</ele><time>2026-03-26T21:51:15Z</time></trkpt><trkpt lat="43.784305449067986" lon="7.643728112696192"><ele>10.0</ele><time>2026-03-26T21:51:16Z</time></trkpt><trkpt lat="43.78422476189622" lon="7.643896225257667"><ele>10.0</ele><time>2026-03-26T21:51:17Z</time></trkpt><trkpt lat="43.78414845366147" lon="7.64406744394861"><ele>10.0</ele><time>2026-03-26T21:51:18Z</time></trkpt><trkpt lat="43.78405034735403" lon="7.644214955559596"><ele>10.0</ele><time>2026-03-26T21:51:19Z</time></trkpt><trkpt lat="43.78397427203999" lon="7.64438884771751"><ele>10.0</ele><time>2026-03-26T21:51:20Z</time></trkpt><trkpt lat="43.78389877246021" lon="7.644561418183043"><ele>10.0</ele><time>2026-03-26T21:51:21Z</time></trkpt><trkpt lat="43.783823618767705" lon="7.644733198051576"><ele>10.0</ele><time>2026-03-26T21:51:22Z</time></trkpt><trkpt lat="43.78375236557577" lon="7.644896062491971"><ele>10.0</ele><time>2026-03-26T21:51:23Z</time></trkpt><trkpt lat="43.783682417092585" lon="7.645055944739276"><ele>10.0</ele><time>2026-03-26T21:51:24Z</time></trkpt><trkpt lat="43.7836136802824" lon="7.64521421791723"><ele>9.75</ele><time>2026-03-26T21:51:25Z</time></trkpt><trkpt lat="43.7835433976671" lon="7.645377378403814"><ele>9.5</ele><time>2026-03-26T21:51:26Z</time></trkpt><trkpt lat="43.783485072884496" lon="7.645553410379774"><ele>9.25</ele><time>2026-03-26T21:51:27Z</time></trkpt><trkpt lat="43.78341822361222" lon="7.645727824847198"><ele>9.0</ele><time>2026-03-26T21:51:28Z</time></trkpt><trkpt lat="43.78336650559274" lon="7.64590938895171"><ele>9.25</ele><time>2026-03-26T21:51:29Z</time></trkpt><trkpt lat="43.78330877883077" lon="7.646100705716566"><ele>9.5</ele><time>2026-03-26T21:51:30Z</time></trkpt><trkpt lat="43.78326096790428" lon="7.646296159607681"><ele>9.75</ele><time>2026-03-26T21:51:31Z</time></trkpt><trkpt lat="43.7832085287687" lon="7.646482917450124"><ele>10.0</ele><time>2026-03-26T21:51:32Z</time></trkpt><trkpt lat="43.78316608018072" lon="7.646660807982204"><ele>10.0</ele><time>2026-03-26T21:51:33Z</time></trkpt><trkpt lat="43.783126762952904" lon="7.646835290814045"><ele>10.0</ele><time>2026-03-26T21:51:34Z</time></trkpt><trkpt lat="43.78308992497317" lon="7.647005245082891"><ele>10.0</ele><time>2026-03-26T21:51:35Z</time></trkpt><trkpt lat="43.78305371692942" lon="7.647161347847019"><ele>10.0</ele><time>2026-03-26T21:51:36Z</time></trkpt><trkpt lat="43.78301777665473" lon="7.647309279779768"><ele>9.25</ele><time>2026-03-26T21:51:37Z</time></trkpt><trkpt lat="43.782981637479864" lon="7.647454899585498"><ele>8.5</ele><time>2026-03-26T21:51:38Z</time></trkpt><trkpt lat="43.78294445981697" lon="7.64761964449603"><ele>7.75</ele><time>2026-03-26T21:51:39Z</time></trkpt><trkpt lat="43.78290631041292" lon="7.647803595665473"><ele>7.0</ele><time>2026-03-26T21:51:40Z</time></trkpt><trkpt lat="43.782862406994916" lon="7.648003826648263"><ele>7.333333333333334</ele><time>2026-03-26T21:51:41Z</time></trkpt><trkpt lat="43.78281082829436" lon="7.648221969681913"><ele>7.666666666666666</ele><time>2026-03-26T21:51:42Z</time></trkpt><trkpt lat="43.78276313121601" lon="7.6484371766890735"><ele>8.0</ele><time>2026-03-26T21:51:43Z</time></trkpt><trkpt lat="43.78271988152135" lon="7.64863598911236"><ele>8.0</ele><time>2026-03-26T21:51:44Z</time></trkpt><trkpt lat="43.78267388140738" lon="7.648841501393273"><ele>8.0</ele><time>2026-03-26T21:51:45Z</time></trkpt><trkpt lat="43.78262362245454" lon="7.649038782819916"><ele>8.0</ele><time>2026-03-26T21:51:46Z</time></trkpt><trkpt lat="43.78256755012197" lon="7.649222046579275"><ele>8.0</ele><time>2026-03-26T21:51:47Z</time></trkpt><trkpt lat="43.782535790616606" lon="7.649423963027557"><ele>8.0</ele><time>2026-03-26T21:51:48Z</time></trkpt><trkpt lat="43.78247462143556" lon="7.649616285769015"><ele>8.0</ele><time>2026-03-26T21:51:49Z</time></trkpt><trkpt lat="43.78242961936858" lon="7.649807906108916"><ele>8.0</ele><time>2026-03-26T21:51:50Z</time></trkpt><trkpt lat="43.78240396674786" lon="7.649999592618323"><ele>9.0</ele><time>2026-03-26T21:51:51Z</time></trkpt><trkpt lat="43.78235996153197" lon="7.65020699468054"><ele>10.0</ele><time>2026-03-26T21:51:52Z</time></trkpt><trkpt lat="43.782309394587756" lon="7.6504102979008435"><ele>11.0</ele><time>2026-03-26T21:51:53Z</time></trkpt><trkpt lat="43.782265947790926" lon="7.6506003459958345"><ele>11.0</ele><time>2026-03-26T21:51:54Z</time></trkpt><trkpt lat="43.78220144356182" lon="7.650772126919664"><ele>11.0</ele><time>2026-03-26T21:51:55Z</time></trkpt><trkpt lat="43.782159916016894" lon="7.6509483929669"><ele>11.0</ele><time>2026-03-26T21:51:56Z</time></trkpt><trkpt lat="43.782115397194055" lon="7.651137355872755"><ele>11.0</ele><time>2026-03-26T21:51:57Z</time></trkpt><trkpt lat="43.78206525682048" lon="7.651350179786012"><ele>10.666666666666666</ele><time>2026-03-26T21:51:58Z</time></trkpt><trkpt lat="43.78202520734442" lon="7.651599914762163"><ele>10.333333333333334</ele><time>2026-03-26T21:51:59Z</time></trkpt><trkpt lat="43.781972492524766" lon="7.651818059629497"><ele>10.0</ele><time>2026-03-26T21:52:00Z</time></trkpt><trkpt lat="43.78192079540788" lon="7.652017958826656"><ele>10.0</ele><time>2026-03-26T21:52:01Z</time></trkpt><trkpt lat="43.78187359607823" lon="7.652221333485678"><ele>10.0</ele><time>2026-03-26T21:52:02Z</time></trkpt><trkpt lat="43.78183141838677" lon="7.652412236365002"><ele>10.0</ele><time>2026-03-26T21:52:03Z</time></trkpt><trkpt lat="43.7817885833226" lon="7.652590593567672"><ele>10.0</ele><time>2026-03-26T21:52:04Z</time></trkpt><trkpt lat="43.7817492214075" lon="7.652773018474344"><ele>10.5</ele><time>2026-03-26T21:52:05Z</time></trkpt><trkpt lat="43.78170200686116" lon="7.652948376317466"><ele>11.0</ele><time>2026-03-26T21:52:06Z</time></trkpt><trkpt lat="43.78166230592884" lon="7.653127966271441"><ele>11.5</ele><time>2026-03-26T21:52:07Z</time></trkpt><trkpt lat="43.781620317379556" lon="7.653294900941531"><ele>12.0</ele><time>2026-03-26T21:52:08Z</time></trkpt><trkpt lat="43.78158602486987" lon="7.653451951105888"><ele>12.0</ele><time>2026-03-26T21:52:09Z</time></trkpt><trkpt lat="43.781553428150666" lon="7.653602942187155"><ele>12.0</ele><time>2026-03-26T21:52:10Z</time></trkpt><trkpt lat="43.78152639405354" lon="7.653732943607122"><ele>12.0</ele><time>2026-03-26T21:52:11Z</time></trkpt><trkpt lat="43.78150319673778" lon="7.653828484888105"><ele>12.0</ele><time>2026-03-26T21:52:12Z</time></trkpt><trkpt lat="43.78147541415529" lon="7.653933043243506"><ele>12.0</ele><time>2026-03-26T21:52:13Z</time></trkpt><trkpt lat="43.781436202893005" lon="7.654071093976472"><ele>11.333333333333334</ele><time>2026-03-26T21:52:14Z</time></trkpt><trkpt lat="43.78139969051523" lon="7.654266614891932"><ele>10.666666666666668</ele><time>2026-03-26T21:52:15Z</time></trkpt><trkpt lat="43.781345472006755" lon="7.65451794267565"><ele>10.0</ele><time>2026-03-26T21:52:16Z</time></trkpt><trkpt lat="43.7812975285633" lon="7.654765738177073"><ele>10.0</ele><time>2026-03-26T21:52:17Z</time></trkpt><trkpt lat="43.78124791474551" lon="7.6549770542594855"><ele>10.0</ele><time>2026-03-26T21:52:18Z</time></trkpt><trkpt lat="43.78120053195369" lon="7.655162691191189"><ele>10.0</ele><time>2026-03-26T21:52:19Z</time></trkpt><trkpt lat="43.78115425561562" lon="7.655340218138061"><ele>10.0</ele><time>2026-03-26T21:52:20Z</time></trkpt><trkpt lat="43.78111162961991" lon="7.655514049648762"><ele>10.0</ele><time>2026-03-26T21:52:21Z</time></trkpt><trkpt lat="43.781069190918764" lon="7.655689359019317"><ele>10.0</ele><time>2026-03-26T21:52:22Z</time></trkpt><trkpt lat="43.7810346282332" lon="7.655869023745839"><ele>10.0</ele><time>2026-03-26T21:52:23Z</time></trkpt><trkpt lat="43.78099296069447" lon="7.656086960100922"><ele>10.0</ele><time>2026-03-26T21:52:24Z</time></trkpt><trkpt lat="43.78093760276912" lon="7.656327095588454"><ele>10.0</ele><time>2026-03-26T21:52:25Z</time></trkpt><trkpt lat="43.78087575323972" lon="7.656538412164113"><ele>10.0</ele><time>2026-03-26T21:52:26Z</time></trkpt><trkpt lat="43.78082479888598" lon="7.656723647160507"><ele>10.0</ele><time>2026-03-26T21:52:27Z</time></trkpt><trkpt lat="43.7807822614251" lon="7.656905107207477"><ele>10.0</ele><time>2026-03-26T21:52:28Z</time></trkpt><trkpt lat="43.780736223059876" lon="7.657096345783868"><ele>10.0</ele><time>2026-03-26T21:52:29Z</time></trkpt><trkpt lat="43.78068447064042" lon="7.657307378535639"><ele>10.0</ele><time>2026-03-26T21:52:30Z</time></trkpt><trkpt lat="43.780635004693565" lon="7.657520107188273"><ele>10.0</ele><time>2026-03-26T21:52:31Z</time></trkpt><trkpt lat="43.7805911323293" lon="7.657718693755625"><ele>10.25</ele><time>2026-03-26T21:52:32Z</time></trkpt><trkpt lat="43.78054208622245" lon="7.657909219259525"><ele>10.5</ele><time>2026-03-26T21:52:33Z</time></trkpt><trkpt lat="43.780501339974094" lon="7.658088790241698"><ele>10.75</ele><time>2026-03-26T21:52:34Z</time></trkpt><trkpt lat="43.78045748796558" lon="7.658265432288068"><ele>11.0</ele><time>2026-03-26T21:52:35Z</time></trkpt><trkpt lat="43.780411751265355" lon="7.658456125098132"><ele>11.0</ele><time>2026-03-26T21:52:36Z</time></trkpt><trkpt lat="43.78035386300436" lon="7.6586769476315135"><ele>11.0</ele><time>2026-03-26T21:52:37Z</time></trkpt><trkpt lat="43.780306011033495" lon="7.65890307905785"><ele>11.0</ele><time>2026-03-26T21:52:38Z</time></trkpt><trkpt lat="43.780255698123526" lon="7.659103590522537"><ele>11.0</ele><time>2026-03-26T21:52:39Z</time></trkpt><trkpt lat="43.780212829355314" lon="7.659319810330522"><ele>11.0</ele><time>2026-03-26T21:52:40Z</time></trkpt><trkpt lat="43.780155302741605" lon="7.6595509090624665"><ele>11.0</ele><time>2026-03-26T21:52:41Z</time></trkpt><trkpt lat="43.780099405336514" lon="7.659773411502175"><ele>11.5</ele><time>2026-03-26T21:52:42Z</time></trkpt><trkpt lat="43.78005669656928" lon="7.659979769905527"><ele>12.0</ele><time>2026-03-26T21:52:43Z</time></trkpt><trkpt lat="43.78000430119277" lon="7.6601652117868095"><ele>12.5</ele><time>2026-03-26T21:52:44Z</time></trkpt><trkpt lat="43.77995859204468" lon="7.6603556318046335"><ele>13.0</ele><time>2026-03-26T21:52:45Z</time></trkpt><trkpt lat="43.779909155659375" lon="7.660537292113874"><ele>13.0</ele><time>2026-03-26T21:52:46Z</time></trkpt><trkpt lat="43.77987521234766" lon="7.660713301071122"><ele>13.0</ele><time>2026-03-26T21:52:47Z</time></trkpt><trkpt lat="43.77983994482624" lon="7.660887517693422"><ele>13.0</ele><time>2026-03-26T21:52:48Z</time></trkpt><trkpt lat="43.77980075913329" lon="7.661041420960883"><ele>13.0</ele><time>2026-03-26T21:52:49Z</time></trkpt><trkpt lat="43.779770542740415" lon="7.661198225241684"><ele>12.75</ele><time>2026-03-26T21:52:50Z</time></trkpt><trkpt lat="43.7797331248737" lon="7.661347072372389"><ele>12.5</ele><time>2026-03-26T21:52:51Z</time></trkpt><trkpt lat="43.77969963521133" lon="7.661487595041381"><ele>12.25</ele><time>2026-03-26T21:52:52Z</time></trkpt><trkpt lat="43.779662775088134" lon="7.661632717149641"><ele>12.0</ele><time>2026-03-26T21:52:53Z</time></trkpt><trkpt lat="43.77962762920021" lon="7.661803476055061"><ele>12.0</ele><time>2026-03-26T21:52:54Z</time></trkpt><trkpt lat="43.77959295696065" lon="7.661981808725706"><ele>12.0</ele><time>2026-03-26T21:52:55Z</time></trkpt><trkpt lat="43.77955717756656" lon="7.662143406931059"><ele>12.0</ele><time>2026-03-26T21:52:56Z</time></trkpt><trkpt lat="43.77951469848505" lon="7.662293256636691"><ele>12.0</ele><time>2026-03-26T21:52:57Z</time></trkpt><trkpt lat="43.77947613690558" lon="7.662461814018274"><ele>12.0</ele><time>2026-03-26T21:52:58Z</time></trkpt><trkpt lat="43.779431523527556" lon="7.662645662094667"><ele>12.0</ele><time>2026-03-26T21:52:59Z</time></trkpt><trkpt lat="43.77939478691064" lon="7.662812530259316"><ele>12.0</ele><time>2026-03-26T21:53:00Z</time></trkpt><trkpt lat="43.77935463186241" lon="7.662974943820369"><ele>12.0</ele><time>2026-03-26T21:53:01Z</time></trkpt><trkpt lat="43.77931511826851" lon="7.663136765913213"><ele>12.2</ele><time>2026-03-26T21:53:02Z</time></trkpt><trkpt lat="43.77927924569793" lon="7.663300098991985"><ele>12.399999999999999</ele><time>2026-03-26T21:53:03Z</time></trkpt><trkpt lat="43.77924307212006" lon="7.663456171552673"><ele>12.600000000000001</ele><time>2026-03-26T21:53:04Z</time></trkpt><trkpt lat="43.77920374217985" lon="7.663582080188064"><ele>12.8</ele><time>2026-03-26T21:53:05Z</time></trkpt><trkpt lat="43.77918265887288" lon="7.663696281044196"><ele>13.0</ele><time>2026-03-26T21:53:06Z</time></trkpt><trkpt lat="43.77915788219795" lon="7.663807095428499"><ele>13.0</ele><time>2026-03-26T21:53:07Z</time></trkpt><trkpt lat="43.779118217193336" lon="7.663932363161455"><ele>13.0</ele><time>2026-03-26T21:53:08Z</time></trkpt><trkpt lat="43.7790921912078" lon="7.664084718182502"><ele>13.0</ele><time>2026-03-26T21:53:09Z</time></trkpt><trkpt lat="43.779051890498906" lon="7.6642109288230325"><ele>13.0</ele><time>2026-03-26T21:53:10Z</time></trkpt><trkpt lat="43.77902156293022" lon="7.6643327769730805"><ele>13.0</ele><time>2026-03-26T21:53:11Z</time></trkpt><trkpt lat="43.77899524077185" lon="7.664457090769337"><ele>12.600000000000001</ele><time>2026-03-26T21:53:12Z</time></trkpt><trkpt lat="43.778971292689036" lon="7.6645865463335685"><ele>12.200000000000001</ele><time>2026-03-26T21:53:13Z</time></trkpt><trkpt lat="43.77893566256828" lon="7.664722213664285"><ele>11.8</ele><time>2026-03-26T21:53:14Z</time></trkpt><trkpt lat="43.77890566188421" lon="7.664865096595115"><ele>11.4</ele><time>2026-03-26T21:53:15Z</time></trkpt><trkpt lat="43.77886285960316" lon="7.665007247855061"><ele>11.0</ele><time>2026-03-26T21:53:16Z</time></trkpt><trkpt lat="43.77882490759848" lon="7.665160640853185"><ele>11.200000000000001</ele><time>2026-03-26T21:53:17Z</time></trkpt><trkpt lat="43.77878681848178" lon="7.6653011756472065"><ele>11.4</ele><time>2026-03-26T21:53:18Z</time></trkpt><trkpt lat="43.77876242542935" lon="7.665431809294651"><ele>11.6</ele><time>2026-03-26T21:53:19Z</time></trkpt><trkpt lat="43.77873054052197" lon="7.66555262735801"><ele>11.8</ele><time>2026-03-26T21:53:20Z</time></trkpt><trkpt lat="43.77869936287226" lon="7.665677739656541"><ele>12.0</ele><time>2026-03-26T21:53:21Z</time></trkpt><trkpt lat="43.7786772476393" lon="7.665812108127182"><ele>12.0</ele><time>2026-03-26T21:53:22Z</time></trkpt><trkpt lat="43.77863794869287" lon="7.665944911207838"><ele>12.0</ele><time>2026-03-26T21:53:23Z</time></trkpt><trkpt lat="43.778606508212384" lon="7.666105686171491"><ele>12.0</ele><time>2026-03-26T21:53:24Z</time></trkpt><trkpt lat="43.77857510181425" lon="7.666243793072388"><ele>12.0</ele><time>2026-03-26T21:53:25Z</time></trkpt><trkpt lat="43.77854580349771" lon="7.666380563940683"><ele>12.0</ele><time>2026-03-26T21:53:26Z</time></trkpt><trkpt lat="43.77851342134143" lon="7.666510091177665"><ele>12.0</ele><time>2026-03-26T21:53:27Z</time></trkpt><trkpt lat="43.77848238806453" lon="7.666631643715263"><ele>12.0</ele><time>2026-03-26T21:53:28Z</time></trkpt><trkpt lat="43.77844678547947" lon="7.666755557735978"><ele>12.0</ele><time>2026-03-26T21:53:29Z</time></trkpt><trkpt lat="43.778412847611285" lon="7.666889016350077"><ele>12.0</ele><time>2026-03-26T21:53:30Z</time></trkpt><trkpt lat="43.778379414743846" lon="7.6670124606903896"><ele>12.0</ele><time>2026-03-26T21:53:31Z</time></trkpt><trkpt lat="43.778351105324326" lon="7.667135531846564"><ele>11.6</ele><time>2026-03-26T21:53:32Z</time></trkpt><trkpt lat="43.778328632793006" lon="7.667261486775853"><ele>11.2</ele><time>2026-03-26T21:53:33Z</time></trkpt><trkpt lat="43.77829614055538" lon="7.667391047831697"><ele>10.8</ele><time>2026-03-26T21:53:34Z</time></trkpt><trkpt lat="43.778266873990596" lon="7.667527423639407"><ele>10.4</ele><time>2026-03-26T21:53:35Z</time></trkpt><trkpt lat="43.77823822387339" lon="7.667659095320229"><ele>10.0</ele><time>2026-03-26T21:53:36Z</time></trkpt><trkpt lat="43.77820656989455" lon="7.6678071672400625"><ele>10.0</ele><time>2026-03-26T21:53:37Z</time></trkpt><trkpt lat="43.77817103420554" lon="7.667970524760084"><ele>10.0</ele><time>2026-03-26T21:53:38Z</time></trkpt><trkpt lat="43.7781556340266" lon="7.668133915875122"><ele>10.0</ele><time>2026-03-26T21:53:39Z</time></trkpt><trkpt lat="43.77810807534894" lon="7.668265221061167"><ele>10.0</ele><time>2026-03-26T21:53:40Z</time></trkpt><trkpt lat="43.77807675964197" lon="7.668407412902308"><ele>10.0</ele><time>2026-03-26T21:53:41Z</time></trkpt><trkpt lat="43.7780633019556" lon="7.668541717868849"><ele>10.0</ele><time>2026-03-26T21:53:42Z</time></trkpt><trkpt lat="43.77802225781118" lon="7.668636396062372"><ele>10.0</ele><time>2026-03-26T21:53:43Z</time></trkpt><trkpt lat="43.77797569528674" lon="7.668737182530074"><ele>10.0</ele><time>2026-03-26T21:53:44Z</time></trkpt><trkpt lat="43.77795232600111" lon="7.668849328566254"><ele>10.0</ele><time>2026-03-26T21:53:45Z</time></trkpt><trkpt lat="43.77793361665915" lon="7.668936607294371"><ele>10.0</ele><time>2026-03-26T21:53:46Z</time></trkpt><trkpt lat="43.777979041081785" lon="7.669074406186807"><ele>10.0</ele><time>2026-03-26T21:53:49Z</time></trkpt><trkpt lat="43.77806723130833" lon="7.669104049858089"><ele>10.0</ele><time>2026-03-26T21:53:50Z</time></trkpt><trkpt lat="43.77816306463546" lon="7.669126976774705"><ele>10.0</ele><time>2026-03-26T21:53:51Z</time></trkpt><trkpt lat="43.77824882258759" lon="7.669171510933998"><ele>10.0</ele><time>2026-03-26T21:53:52Z</time></trkpt><trkpt lat="43.77832211874984" lon="7.669201039858837"><ele>10.0</ele><time>2026-03-26T21:53:53Z</time></trkpt><trkpt lat="43.77840614239273" lon="7.669254650791935"><ele>10.0</ele><time>2026-03-26T21:53:55Z</time></trkpt><trkpt lat="43.77851420998639" lon="7.669337540784221"><ele>9.8</ele><time>2026-03-26T21:53:58Z</time></trkpt><trkpt lat="43.77859357077845" lon="7.66937929227344"><ele>9.6</ele><time>2026-03-26T21:53:59Z</time></trkpt><trkpt lat="43.77868411083758" lon="7.669436072684179"><ele>9.4</ele><time>2026-03-26T21:54:00Z</time></trkpt><trkpt lat="43.778790419604036" lon="7.669485095978736"><ele>9.2</ele><time>2026-03-26T21:54:01Z</time></trkpt><trkpt lat="43.77889272276432" lon="7.669541011519617"><ele>9.0</ele><time>2026-03-26T21:54:02Z</time></trkpt><trkpt lat="43.77898384681598" lon="7.669582253078645"><ele>9.0</ele><time>2026-03-26T21:54:03Z</time></trkpt><trkpt lat="43.779071960839204" lon="7.669615009856521"><ele>9.0</ele><time>2026-03-26T21:54:04Z</time></trkpt><trkpt lat="43.77915296834029" lon="7.66965022607358"><ele>9.0</ele><time>2026-03-26T21:54:05Z</time></trkpt><trkpt lat="43.779228402926904" lon="7.669698521682866"><ele>9.0</ele><time>2026-03-26T21:54:06Z</time></trkpt><trkpt lat="43.77929200140978" lon="7.669747256848005"><ele>9.0</ele><time>2026-03-26T21:54:07Z</time></trkpt><trkpt lat="43.77938773387923" lon="7.669831421485508"><ele>9.0</ele><time>2026-03-26T21:54:09Z</time></trkpt><trkpt lat="43.779463279597806" lon="7.669894457989977"><ele>9.4</ele><time>2026-03-26T21:54:11Z</time></trkpt><trkpt lat="43.779505594844004" lon="7.670019867996927"><ele>9.8</ele><time>2026-03-26T21:54:13Z</time></trkpt><trkpt lat="43.77950309262847" lon="7.670172448317742"><ele>10.200000000000001</ele><time>2026-03-26T21:54:15Z</time></trkpt><trkpt lat="43.77954818008998" lon="7.670242593485993"><ele>10.600000000000001</ele><time>2026-03-26T21:54:16Z</time></trkpt><trkpt lat="43.77961848355333" lon="7.6702880050253"><ele>11.0</ele><time>2026-03-26T21:54:17Z</time></trkpt><trkpt lat="43.77970663066083" lon="7.670343679093938"><ele>13.0</ele><time>2026-03-26T21:54:18Z</time></trkpt><trkpt lat="43.779787671685455" lon="7.670444991310718"><ele>15.0</ele><time>2026-03-26T21:54:19Z</time></trkpt><trkpt lat="43.7798345622621" lon="7.670614646692568"><ele>17.0</ele><time>2026-03-26T21:54:20Z</time></trkpt><trkpt lat="43.77990339538768" lon="7.670755355882394"><ele>19.0</ele><time>2026-03-26T21:54:21Z</time></trkpt><trkpt lat="43.77996151951873" lon="7.670874826241249"><ele>19.0</ele><time>2026-03-26T21:54:22Z</time></trkpt><trkpt lat="43.78002436050489" lon="7.670970064322572"><ele>19.0</ele><time>2026-03-26T21:54:23Z</time></trkpt><trkpt lat="43.78002517027762" lon="7.671081203091282"><ele>19.0</ele><time>2026-03-26T21:54:24Z</time></trkpt><trkpt lat="43.77998837771117" lon="7.671182511854283"><ele>19.0</ele><time>2026-03-26T21:54:25Z</time></trkpt><trkpt lat="43.7799106728162" lon="7.6712964689882375"><ele>19.0</ele><time>2026-03-26T21:54:26Z</time></trkpt><trkpt lat="43.77981519755837" lon="7.671427822225153"><ele>22.666666666666664</ele><time>2026-03-26T21:54:27Z</time></trkpt><trkpt lat="43.77970341207581" lon="7.6715618270355375"><ele>26.333333333333332</ele><time>2026-03-26T21:54:28Z</time></trkpt><trkpt lat="43.77957332213088" lon="7.671662058399867"><ele>30.0</ele><time>2026-03-26T21:54:29Z</time></trkpt><trkpt lat="43.7794076404515" lon="7.67175240199528"><ele>30.666666666666664</ele><time>2026-03-26T21:54:30Z</time></trkpt><trkpt lat="43.779214164697954" lon="7.671841981165587"><ele>31.333333333333332</ele><time>2026-03-26T21:54:31Z</time></trkpt><trkpt lat="43.77900329694736" lon="7.671934197418594"><ele>32.0</ele><time>2026-03-26T21:54:32Z</time></trkpt><trkpt lat="43.77881193786457" lon="7.672036385005775"><ele>32.0</ele><time>2026-03-26T21:54:33Z</time></trkpt><trkpt lat="43.77861635364478" lon="7.672055703699921"><ele>32.0</ele><time>2026-03-26T21:54:34Z</time></trkpt><trkpt lat="43.77858549851139" lon="7.6721339440668554"><ele>32.0</ele><time>2026-03-26T21:54:35Z</time></trkpt><trkpt lat="43.7784559226236" lon="7.672222434613502"><ele>32.0</ele><time>2026-03-26T21:54:36Z</time></trkpt><trkpt lat="43.77835535940848" lon="7.672363241880551"><ele>31.75</ele><time>2026-03-26T21:54:37Z</time></trkpt><trkpt lat="43.77827664540297" lon="7.672494917268454"><ele>31.5</ele><time>2026-03-26T21:54:38Z</time></trkpt><trkpt lat="43.778210052069724" lon="7.672654933299756"><ele>31.25</ele><time>2026-03-26T21:54:39Z</time></trkpt><trkpt lat="43.77817107106828" lon="7.672827530104422"><ele>31.0</ele><time>2026-03-26T21:54:40Z</time></trkpt><trkpt lat="43.77815520378877" lon="7.673000063775749"><ele>31.0</ele><time>2026-03-26T21:54:41Z</time></trkpt><trkpt lat="43.778184762964905" lon="7.673178161214098"><ele>31.0</ele><time>2026-03-26T21:54:42Z</time></trkpt><trkpt lat="43.77825505292111" lon="7.673331121669158"><ele>31.0</ele><time>2026-03-26T21:54:43Z</time></trkpt><trkpt lat="43.77835261851633" lon="7.673470224471051"><ele>31.0</ele><time>2026-03-26T21:54:44Z</time></trkpt><trkpt lat="43.77848485303917" lon="7.673608963434774"><ele>29.75</ele><time>2026-03-26T21:54:45Z</time></trkpt><trkpt lat="43.77858625987054" lon="7.673727490342433"><ele>28.5</ele><time>2026-03-26T21:54:46Z</time></trkpt><trkpt lat="43.77868787769075" lon="7.6738138711443415"><ele>27.25</ele><time>2026-03-26T21:54:47Z</time></trkpt><trkpt lat="43.77880654604097" lon="7.67387079689919"><ele>26.0</ele><time>2026-03-26T21:54:48Z</time></trkpt><trkpt lat="43.778935904902745" lon="7.673920705850242"><ele>26.0</ele><time>2026-03-26T21:54:49Z</time></trkpt><trkpt lat="43.77905795542413" lon="7.673894183759357"><ele>26.0</ele><time>2026-03-26T21:54:50Z</time></trkpt><trkpt lat="43.779198874457826" lon="7.67386878333612"><ele>26.0</ele><time>2026-03-26T21:54:51Z</time></trkpt><trkpt lat="43.77931687923342" lon="7.67384475511894"><ele>26.0</ele><time>2026-03-26T21:54:52Z</time></trkpt><trkpt lat="43.779422316210436" lon="7.6738286905877615"><ele>29.75</ele><time>2026-03-26T21:54:53Z</time></trkpt><trkpt lat="43.77953955201611" lon="7.673827651490458"><ele>33.5</ele><time>2026-03-26T21:54:54Z</time></trkpt><trkpt lat="43.77966778486765" lon="7.673871625027735"><ele>37.25</ele><time>2026-03-26T21:54:55Z</time></trkpt><trkpt lat="43.77980669543479" lon="7.673963664175575"><ele>41.0</ele><time>2026-03-26T21:54:56Z</time></trkpt><trkpt lat="43.77995707421684" lon="7.6740768924061085"><ele>41.0</ele><time>2026-03-26T21:54:57Z</time></trkpt><trkpt lat="43.780094675804875" lon="7.674181594731938"><ele>41.0</ele><time>2026-03-26T21:54:58Z</time></trkpt><trkpt lat="43.7802276924233" lon="7.67426593051427"><ele>41.0</ele><time>2026-03-26T21:54:59Z</time></trkpt><trkpt lat="43.78035418362483" lon="7.674355598507086"><ele>41.0</ele><time>2026-03-26T21:55:00Z</time></trkpt><trkpt lat="43.78046035005145" lon="7.674437333237855"><ele>39.5</ele><time>2026-03-26T21:55:01Z</time></trkpt><trkpt lat="43.78056579491169" lon="7.674498775362509"><ele>38.0</ele><time>2026-03-26T21:55:02Z</time></trkpt><trkpt lat="43.78067276931625" lon="7.674514934113407"><ele>36.5</ele><time>2026-03-26T21:55:03Z</time></trkpt><trkpt lat="43.78078086909126" lon="7.6744848371093655"><ele>35.0</ele><time>2026-03-26T21:55:04Z</time></trkpt><trkpt lat="43.78090263220927" lon="7.67444062635498"><ele>39.25</ele><time>2026-03-26T21:55:05Z</time></trkpt><trkpt lat="43.78102944148752" lon="7.674452100056401"><ele>43.5</ele><time>2026-03-26T21:55:06Z</time></trkpt><trkpt lat="43.78115896828556" lon="7.674506820322053"><ele>47.75</ele><time>2026-03-26T21:55:07Z</time></trkpt><trkpt lat="43.781312334884426" lon="7.674578489982083"><ele>52.0</ele><time>2026-03-26T21:55:08Z</time></trkpt><trkpt lat="43.78147791682345" lon="7.674658117470307"><ele>52.0</ele><time>2026-03-26T21:55:09Z</time></trkpt><trkpt lat="43.78162654594194" lon="7.674741336943812"><ele>52.0</ele><time>2026-03-26T21:55:10Z</time></trkpt><trkpt lat="43.7817559029594" lon="7.6748516094353025"><ele>52.0</ele><time>2026-03-26T21:55:11Z</time></trkpt><trkpt lat="43.781885257124635" lon="7.674999669440107"><ele>54.666666666666664</ele><time>2026-03-26T21:55:12Z</time></trkpt><trkpt lat="43.78203623934113" lon="7.675179254555161"><ele>57.33333333333333</ele><time>2026-03-26T21:55:13Z</time></trkpt><trkpt lat="43.78221763569064" lon="7.675329860001595"><ele>60.0</ele><time>2026-03-26T21:55:14Z</time></trkpt><trkpt lat="43.78239474295279" lon="7.675488536817365"><ele>60.0</ele><time>2026-03-26T21:55:15Z</time></trkpt><trkpt lat="43.782562480531745" lon="7.67561897924148"><ele>60.0</ele><time>2026-03-26T21:55:16Z</time></trkpt><trkpt lat="43.78272974517153" lon="7.675721363953083"><ele>60.0</ele><time>2026-03-26T21:55:17Z</time></trkpt><trkpt lat="43.78289836358584" lon="7.675809916687827"><ele>64.75</ele><time>2026-03-26T21:55:18Z</time></trkpt><trkpt lat="43.783049393462534" lon="7.67587901115638"><ele>69.5</ele><time>2026-03-26T21:55:19Z</time></trkpt><trkpt lat="43.78317066477475" lon="7.675951941503089"><ele>74.25</ele><time>2026-03-26T21:55:20Z</time></trkpt><trkpt lat="43.78327268720013" lon="7.676001749571074"><ele>79.0</ele><time>2026-03-26T21:55:21Z</time></trkpt><trkpt lat="43.78336509066925" lon="7.676045381583903"><ele>79.0</ele><time>2026-03-26T21:55:22Z</time></trkpt><trkpt lat="43.78343389059231" lon="7.676065755341211"><ele>79.0</ele><time>2026-03-26T21:55:23Z</time></trkpt><trkpt lat="43.783500046155154" lon="7.676033513882842"><ele>79.0</ele><time>2026-03-26T21:55:25Z</time></trkpt><trkpt lat="43.78348908294433" lon="7.675877965230607"><ele>79.0</ele><time>2026-03-26T21:55:27Z</time></trkpt><trkpt lat="43.78334593533207" lon="7.6757831909376755"><ele>79.0</ele><time>2026-03-26T21:55:29Z</time></trkpt><trkpt lat="43.783254469055194" lon="7.675721554820169"><ele>79.0</ele><time>2026-03-26T21:55:30Z</time></trkpt><trkpt lat="43.78314509416565" lon="7.675617109559215"><ele>79.0</ele><time>2026-03-26T21:55:31Z</time></trkpt><trkpt lat="43.78303776903702" lon="7.675468657227577"><ele>79.0</ele><time>2026-03-26T21:55:32Z</time></trkpt><trkpt lat="43.782928156538034" lon="7.675289933039832"><ele>76.33333333333333</ele><time>2026-03-26T21:55:33Z</time></trkpt><trkpt lat="43.78283459805638" lon="7.675104819412144"><ele>73.66666666666667</ele><time>2026-03-26T21:55:34Z</time></trkpt><trkpt lat="43.78275287511122" lon="7.674913516111885"><ele>71.0</ele><time>2026-03-26T21:55:35Z</time></trkpt><trkpt lat="43.78267589175984" lon="7.674707943901312"><ele>71.0</ele><time>2026-03-26T21:55:36Z</time></trkpt><trkpt lat="43.78258722123836" lon="7.674474033197071"><ele>71.0</ele><time>2026-03-26T21:55:37Z</time></trkpt><trkpt lat="43.78250798091319" lon="7.6742588494167245"><ele>71.0</ele><time>2026-03-26T21:55:38Z</time></trkpt><trkpt lat="43.782442600124874" lon="7.674071225901251"><ele>74.0</ele><time>2026-03-26T21:55:39Z</time></trkpt><trkpt lat="43.782386975187435" lon="7.673892044851686"><ele>77.0</ele><time>2026-03-26T21:55:40Z</time></trkpt><trkpt lat="43.782347991030676" lon="7.673716221739593"><ele>80.0</ele><time>2026-03-26T21:55:41Z</time></trkpt><trkpt lat="43.78233404229098" lon="7.6735378729963335"><ele>83.0</ele><time>2026-03-26T21:55:42Z</time></trkpt><trkpt lat="43.78234107185359" lon="7.6733625449322"><ele>82.5</ele><time>2026-03-26T21:55:43Z</time></trkpt><trkpt lat="43.78236772899923" lon="7.673188754976938"><ele>82.0</ele><time>2026-03-26T21:55:44Z</time></trkpt><trkpt lat="43.78242133658715" lon="7.673026020112261"><ele>81.5</ele><time>2026-03-26T21:55:45Z</time></trkpt><trkpt lat="43.78249711568642" lon="7.672860802025265"><ele>81.0</ele><time>2026-03-26T21:55:46Z</time></trkpt><trkpt lat="43.78260581683627" lon="7.672710230805923"><ele>86.33333333333334</ele><time>2026-03-26T21:55:47Z</time></trkpt><trkpt lat="43.78274077190216" lon="7.672544626897047"><ele>91.66666666666667</ele><time>2026-03-26T21:55:48Z</time></trkpt><trkpt lat="43.78287377160955" lon="7.672356275957362"><ele>97.0</ele><time>2026-03-26T21:55:49Z</time></trkpt><trkpt lat="43.78301446909533" lon="7.672217135361332"><ele>97.0</ele><time>2026-03-26T21:55:50Z</time></trkpt><trkpt lat="43.78313051114615" lon="7.672078554458807"><ele>97.0</ele><time>2026-03-26T21:55:51Z</time></trkpt><trkpt lat="43.78324331613606" lon="7.671949168325003"><ele>97.0</ele><time>2026-03-26T21:55:52Z</time></trkpt><trkpt lat="43.7833612228761" lon="7.67184383024294"><ele>97.0</ele><time>2026-03-26T21:55:53Z</time></trkpt><trkpt lat="43.78348182091424" lon="7.671762039488894"><ele>99.0</ele><time>2026-03-26T21:55:54Z</time></trkpt><trkpt lat="43.7836017535606" lon="7.671690725396274"><ele>101.0</ele><time>2026-03-26T21:55:55Z</time></trkpt><trkpt lat="43.78371098823256" lon="7.671609488605971"><ele>103.0</ele><time>2026-03-26T21:55:56Z</time></trkpt><trkpt lat="43.78380890601994" lon="7.671540274019491"><ele>105.0</ele><time>2026-03-26T21:55:57Z</time></trkpt><trkpt lat="43.78389177037059" lon="7.671439538067471"><ele>105.0</ele><time>2026-03-26T21:55:58Z</time></trkpt><trkpt lat="43.78396251462426" lon="7.671305596474355"><ele>105.0</ele><time>2026-03-26T21:55:59Z</time></trkpt><trkpt lat="43.78401372773502" lon="7.6711279328243105"><ele>105.0</ele><time>2026-03-26T21:56:00Z</time></trkpt><trkpt lat="43.78404310970145" lon="7.670947896895262"><ele>105.0</ele><time>2026-03-26T21:56:01Z</time></trkpt><trkpt lat="43.78409107088143" lon="7.670784791595858"><ele>103.2</ele><time>2026-03-26T21:56:02Z</time></trkpt><trkpt lat="43.784131421809874" lon="7.6706128198445445"><ele>101.4</ele><time>2026-03-26T21:56:03Z</time></trkpt><trkpt lat="43.78416911677217" lon="7.670466259864968"><ele>99.6</ele><time>2026-03-26T21:56:04Z</time></trkpt><trkpt lat="43.78420078206232" lon="7.670335775720888"><ele>97.8</ele><time>2026-03-26T21:56:05Z</time></trkpt><trkpt lat="43.78424257708139" lon="7.670226971134416"><ele>96.0</ele><time>2026-03-26T21:56:06Z</time></trkpt><trkpt lat="43.78427185404402" lon="7.670134780749209"><ele>96.5</ele><time>2026-03-26T21:56:07Z</time></trkpt><trkpt lat="43.784305896315956" lon="7.670057401575645"><ele>97.0</ele><time>2026-03-26T21:56:08Z</time></trkpt><trkpt lat="43.784347743172226" lon="7.669976140430579"><ele>97.5</ele><time>2026-03-26T21:56:09Z</time></trkpt><trkpt lat="43.78443766484373" lon="7.6699581268592345"><ele>98.0</ele><time>2026-03-26T21:56:10Z</time></trkpt><trkpt lat="43.784532122018305" lon="7.670011010715857"><ele>98.5</ele><time>2026-03-26T21:56:11Z</time></trkpt><trkpt lat="43.784634794797086" lon="7.670082192881913"><ele>99.0</ele><time>2026-03-26T21:56:12Z</time></trkpt><trkpt lat="43.78477065466131" lon="7.670144718582359"><ele>99.0</ele><time>2026-03-26T21:56:13Z</time></trkpt><trkpt lat="43.78486938333209" lon="7.670210023660296"><ele>99.0</ele><time>2026-03-26T21:56:14Z</time></trkpt><trkpt lat="43.784949162087926" lon="7.670256609965583"><ele>99.0</ele><time>2026-03-26T21:56:15Z</time></trkpt><trkpt lat="43.78502026251379" lon="7.670279019145942"><ele>99.0</ele><time>2026-03-26T21:56:16Z</time></trkpt><trkpt lat="43.78510174451883" lon="7.670266211824401"><ele>99.0</ele><time>2026-03-26T21:56:17Z</time></trkpt><trkpt lat="43.78516926911979" lon="7.6701971921490415"><ele>99.0</ele><time>2026-03-26T21:56:18Z</time></trkpt><trkpt lat="43.785226949675646" lon="7.670110482219629"><ele>99.0</ele><time>2026-03-26T21:56:19Z</time></trkpt><trkpt lat="43.78520822619335" lon="7.669968786973076"><ele>99.0</ele><time>2026-03-26T21:56:20Z</time></trkpt><trkpt lat="43.78518816262679" lon="7.669828641233834"><ele>99.0</ele><time>2026-03-26T21:56:21Z</time></trkpt><trkpt lat="43.78516163910263" lon="7.669650964932851"><ele>99.0</ele><time>2026-03-26T21:56:22Z</time></trkpt><trkpt lat="43.78513322517902" lon="7.669504251324307"><ele>99.0</ele><time>2026-03-26T21:56:23Z</time></trkpt><trkpt lat="43.78511153652812" lon="7.669392263242346"><ele>98.2</ele><time>2026-03-26T21:56:24Z</time></trkpt><trkpt lat="43.78507776860029" lon="7.669270665590055"><ele>97.4</ele><time>2026-03-26T21:56:26Z</time></trkpt><trkpt lat="43.785207154267106" lon="7.669323561228459"><ele>96.6</ele><time>2026-03-26T21:56:29Z</time></trkpt><trkpt lat="43.785234564029096" lon="7.669436069341888"><ele>95.8</ele><time>2026-03-26T21:56:30Z</time></trkpt><trkpt lat="43.78525290595693" lon="7.669589669609152"><ele>95.0</ele><time>2026-03-26T21:56:31Z</time></trkpt><trkpt lat="43.78529729013961" lon="7.66977750978948"><ele>99.8</ele><time>2026-03-26T21:56:32Z</time></trkpt><trkpt lat="43.785338762539425" lon="7.6699265478156295"><ele>104.6</ele><time>2026-03-26T21:56:33Z</time></trkpt><trkpt lat="43.785356072314045" lon="7.6700465451291295"><ele>109.4</ele><time>2026-03-26T21:56:34Z</time></trkpt><trkpt lat="43.78534984781385" lon="7.670175777135895"><ele>114.2</ele><time>2026-03-26T21:56:35Z</time></trkpt><trkpt lat="43.785303536007696" lon="7.67029034056661"><ele>119.0</ele><time>2026-03-26T21:56:36Z</time></trkpt><trkpt lat="43.785258992619525" lon="7.67040553580647"><ele>117.2</ele><time>2026-03-26T21:56:37Z</time></trkpt><trkpt lat="43.785162186133924" lon="7.670464036293999"><ele>115.4</ele><time>2026-03-26T21:56:38Z</time></trkpt><trkpt lat="43.78507115336861" lon="7.670502143831751"><ele>113.6</ele><time>2026-03-26T21:56:39Z</time></trkpt><trkpt lat="43.78496271101953" lon="7.670516729712793"><ele>111.8</ele><time>2026-03-26T21:56:40Z</time></trkpt><trkpt lat="43.78482646193954" lon="7.6705581005302435"><ele>110.0</ele><time>2026-03-26T21:56:41Z</time></trkpt><trkpt lat="43.784691242757674" lon="7.67056951946592"><ele>110.0</ele><time>2026-03-26T21:56:42Z</time></trkpt><trkpt lat="43.78459253816319" lon="7.670617471422244"><ele>110.0</ele><time>2026-03-26T21:56:43Z</time></trkpt><trkpt lat="43.784500865589514" lon="7.670661908775843"><ele>110.0</ele><time>2026-03-26T21:56:44Z</time></trkpt><trkpt lat="43.78443529577972" lon="7.6707387762027786"><ele>110.0</ele><time>2026-03-26T21:56:45Z</time></trkpt><trkpt lat="43.78440108278192" lon="7.670855164933719"><ele>110.0</ele><time>2026-03-26T21:56:46Z</time></trkpt><trkpt lat="43.78438378825144" lon="7.670998972414753"><ele>108.33333333333333</ele><time>2026-03-26T21:56:47Z</time></trkpt><trkpt lat="43.78437370553544" lon="7.671186744582546"><ele>106.66666666666666</ele><time>2026-03-26T21:56:48Z</time></trkpt><trkpt lat="43.784344399471074" lon="7.671424845054848"><ele>105.0</ele><time>2026-03-26T21:56:49Z</time></trkpt><trkpt lat="43.78431175252832" lon="7.671655046332943"><ele>105.0</ele><time>2026-03-26T21:56:50Z</time></trkpt><trkpt lat="43.78427639667686" lon="7.6718361160813515"><ele>105.0</ele><time>2026-03-26T21:56:51Z</time></trkpt><trkpt lat="43.78422757680688" lon="7.672004589384943"><ele>105.0</ele><time>2026-03-26T21:56:52Z</time></trkpt><trkpt lat="43.78414972893441" lon="7.672174098966756"><ele>105.0</ele><time>2026-03-26T21:56:53Z</time></trkpt><trkpt lat="43.78405157237272" lon="7.672323772812261"><ele>107.5</ele><time>2026-03-26T21:56:54Z</time></trkpt><trkpt lat="43.78397671729591" lon="7.67246779744154"><ele>110.0</ele><time>2026-03-26T21:56:55Z</time></trkpt><trkpt lat="43.78390508533032" lon="7.67261299438875"><ele>112.5</ele><time>2026-03-26T21:56:56Z</time></trkpt><trkpt lat="43.78384204462314" lon="7.672777442423004"><ele>115.0</ele><time>2026-03-26T21:56:57Z</time></trkpt><trkpt lat="43.7837538259048" lon="7.6729794586767115"><ele>117.0</ele><time>2026-03-26T21:56:58Z</time></trkpt><trkpt lat="43.78367936642895" lon="7.6731868844343785"><ele>119.0</ele><time>2026-03-26T21:56:59Z</time></trkpt><trkpt lat="43.783603617175736" lon="7.673358030531592"><ele>121.0</ele><time>2026-03-26T21:57:00Z</time></trkpt><trkpt lat="43.78357261411876" lon="7.673535303368704"><ele>123.0</ele><time>2026-03-26T21:57:01Z</time></trkpt><trkpt lat="43.78355458043365" lon="7.673751792904032"><ele>123.5</ele><time>2026-03-26T21:57:02Z</time></trkpt><trkpt lat="43.783560693798286" lon="7.67398104406154"><ele>124.0</ele><time>2026-03-26T21:57:03Z</time></trkpt><trkpt lat="43.78358515719698" lon="7.674173263410001"><ele>124.5</ele><time>2026-03-26T21:57:04Z</time></trkpt><trkpt lat="43.78362308764814" lon="7.674336208140502"><ele>125.0</ele><time>2026-03-26T21:57:05Z</time></trkpt><trkpt lat="43.783680257083624" lon="7.674474511161383"><ele>124.99999999999999</ele><time>2026-03-26T21:57:06Z</time></trkpt><trkpt lat="43.78375032246717" lon="7.674570959920767"><ele>125.0</ele><time>2026-03-26T21:57:07Z</time></trkpt><trkpt lat="43.78383600318493" lon="7.674583117646108"><ele>125.0</ele><time>2026-03-26T21:57:08Z</time></trkpt><trkpt lat="43.783906982024114" lon="7.674577534321625"><ele>125.0</ele><time>2026-03-26T21:57:09Z</time></trkpt><trkpt lat="43.78397481482624" lon="7.674523680366214"><ele>124.99999999999999</ele><time>2026-03-26T21:57:10Z</time></trkpt><trkpt lat="43.784028063531544" lon="7.674451503281981"><ele>125.0</ele><time>2026-03-26T21:57:11Z</time></trkpt><trkpt lat="43.78400659586044" lon="7.674317757417842"><ele>124.99999999999999</ele><time>2026-03-26T21:57:12Z</time></trkpt><trkpt lat="43.783985655562674" lon="7.674202013259688"><ele>125.0</ele><time>2026-03-26T21:57:13Z</time></trkpt><trkpt lat="43.78397440079327" lon="7.67409053663748"><ele>125.0</ele><time>2026-03-26T21:57:14Z</time></trkpt><trkpt lat="43.78397109660347" lon="7.673993639978702"><ele>125.0</ele><time>2026-03-26T21:57:15Z</time></trkpt><trkpt lat="43.78396227959257" lon="7.673839007786854"><ele>124.99999999999999</ele><time>2026-03-26T21:57:17Z</time></trkpt><trkpt lat="43.78398641060452" lon="7.6737460198433185"><ele>125.0</ele><time>2026-03-26T21:57:19Z</time></trkpt><trkpt lat="43.784003835131536" lon="7.673645792937929"><ele>125.0</ele><time>2026-03-26T21:57:22Z</time></trkpt><trkpt lat="43.78403305299417" lon="7.673564165696668"><ele>123.0</ele><time>2026-03-26T21:57:26Z</time></trkpt><trkpt lat="43.7840090603562" lon="7.673699944805355"><ele>125.0</ele><time>2026-03-26T21:57:38Z</time></trkpt><trkpt lat="43.78398893438827" lon="7.673861582259871"><ele>125.0</ele><time>2026-03-26T21:57:40Z</time></trkpt><trkpt lat="43.78411372231465" lon="7.673908482960891"><ele>125.0</ele><time>2026-03-26T21:57:43Z</time></trkpt></trkseg></trk></gpx>